Time,TemperatureF,DewpointF,PressureIn,WindDirection,WindDirectionDegrees,WindSpeedMPH,WindSpeedGustMPH,Humidity,HourlyPrecipIn,Conditions,Clouds,dailyrainin,SoftwareType,DateUTC
2013-02-25 00:00:00,6.1,2.3,30.41,NW,306,0.0,1.0,84,0.00,,---,0.00,VWS V14.01,2013-02-25 07:00:00,
2013-02-25 00:01:00,6.0,2.2,30.41,NW,306,0.0,0.0,84,0.00,,---,0.00,VWS V14.01,2013-02-25 07:01:00,
2013-02-25 00:02:00,6.0,2.2,30.41,NW,306,0.0,0.0,84,0.00,,---,0.00,VWS V14.01,2013-02-25 07:02:00,
2013-02-25 00:03:00,5.9,2.1,30.41,NW,306,1.0,1.0,84,0.00,,---,0.00,VWS V14.01,2013-02-25 07:03:00,
2013-02-25 00:04:00,5.9,2.1,30.41,NW,306,2.0,2.0,84,0.00,,---,0.00,VWS V14.01,2013-02-25 07:04:00,
2013-02-25 00:05:00,5.8,2.0,30.42,WSW,244,4.0,4.0,84,0.00,,---,0.00,VWS V14.01,2013-02-25 07:05:00,
2013-02-25 00:06:00,5.9,2.1,30.42,WSW,257,1.0,5.0,84,0.00,,---,0.00,VWS V14.01,2013-02-25 07:06:00,
2013-02-25 00:07:00,5.9,2.1,30.42,WSW,257,1.0,5.0,84,0.00,,---,0.00,VWS V14.01,2013-02-25 07:07:00,
2013-02-25 00:08:00,6.0,2.5,30.42,West,278,5.0,5.0,85,0.00,,---,0.00,VWS V14.01,2013-02-25 07:08:00,
2013-02-25 00:09:00,6.1,2.3,30.42,West,278,1.0,5.0,84,0.00,,---,0.00,VWS V14.01,2013-02-25 07:09:00,
2013-02-25 00:10:00,6.2,2.7,30.42,West,277,2.0,4.0,85,0.00,,---,0.00,VWS V14.01,2013-02-25 07:10:00,
2013-02-25 00:11:00,6.3,2.8,30.42,West,276,3.0,4.0,85,0.00,,---,0.00,VWS V14.01,2013-02-25 07:11:00,
2013-02-25 00:12:00,6.3,2.8,30.42,West,275,2.0,4.0,85,0.00,,---,0.00,VWS V14.01,2013-02-25 07:12:00,
2013-02-25 00:13:00,6.5,3.0,30.42,WNW,292,4.0,4.0,85,0.00,,---,0.00,VWS V14.01,2013-02-25 07:13:00,
2013-02-25 00:14:00,6.7,3.2,30.42,WNW,290,1.0,4.0,85,0.00,,---,0.00,VWS V14.01,2013-02-25 07:14:00,
2013-02-25 00:15:00,6.7,3.2,30.42,WNW,286,2.0,3.0,85,0.00,,---,0.00,VWS V14.01,2013-02-25 07:15:00,
2013-02-25 00:16:00,6.8,3.3,30.42,WNW,286,2.0,4.0,85,0.00,,---,0.00,VWS V14.01,2013-02-25 07:16:00,
2013-02-25 00:17:00,6.8,3.3,30.42,WNW,286,1.0,4.0,85,0.00,,---,0.00,VWS V14.01,2013-02-25 07:17:00,
2013-02-25 00:18:00,7.0,3.2,30.42,WNW,286,2.0,2.0,84,0.00,,---,0.00,VWS V14.01,2013-02-25 07:18:00,
2013-02-25 00:19:00,7.1,3.3,30.42,WNW,286,1.0,3.0,84,0.00,,---,0.00,VWS V14.01,2013-02-25 07:19:00,
2013-02-25 00:20:00,7.2,3.4,30.42,WNW,286,1.0,2.0,84,0.00,,---,0.00,VWS V14.01,2013-02-25 07:20:00,
2013-02-25 00:21:00,7.2,3.4,30.42,WNW,286,2.0,2.0,84,0.00,,---,0.00,VWS V14.01,2013-02-25 07:21:00,
2013-02-25 00:22:00,7.2,3.4,30.42,WNW,286,2.0,2.0,84,0.00,,---,0.00,VWS V14.01,2013-02-25 07:22:00,
2013-02-25 00:23:00,7.3,3.5,30.42,WNW,286,0.0,2.0,84,0.00,,---,0.00,VWS V14.01,2013-02-25 07:23:00,
2013-02-25 00:24:00,7.3,3.5,30.42,WNW,286,0.0,1.0,84,0.00,,---,0.00,VWS V14.01,2013-02-25 07:24:00,
2013-02-25 00:25:00,7.2,3.1,30.42,WNW,286,0.0,1.0,83,0.00,,---,0.00,VWS V14.01,2013-02-25 07:25:00,
2013-02-25 00:26:00,7.2,3.1,30.42,WNW,286,0.0,0.0,83,0.00,,---,0.00,VWS V14.01,2013-02-25 07:26:00,
2013-02-25 00:27:00,7.2,3.1,30.42,WNW,286,0.0,0.0,83,0.00,,---,0.00,VWS V14.01,2013-02-25 07:27:00,
2013-02-25 00:28:00,7.1,3.0,30.42,WNW,286,0.0,0.0,83,0.00,,---,0.00,VWS V14.01,2013-02-25 07:28:00,
2013-02-25 00:29:00,7.0,2.9,30.42,WNW,286,0.0,0.0,83,0.00,,---,0.00,VWS V14.01,2013-02-25 07:29:00,
2013-02-25 00:30:00,6.9,2.8,30.42,WNW,286,0.0,0.0,83,0.00,,---,0.00,VWS V14.01,2013-02-25 07:30:00,
2013-02-25 00:31:00,6.9,2.8,30.42,WNW,286,0.0,0.0,83,0.00,,---,0.00,VWS V14.01,2013-02-25 07:31:00,
2013-02-25 00:32:00,6.9,2.8,30.42,WNW,286,0.0,0.0,83,0.00,,---,0.00,VWS V14.01,2013-02-25 07:32:00,
2013-02-25 00:33:00,6.8,2.7,30.42,WNW,286,0.0,0.0,83,0.00,,---,0.00,VWS V14.01,2013-02-25 07:33:00,
2013-02-25 00:34:00,6.8,2.7,30.42,WNW,286,0.0,0.0,83,0.00,,---,0.00,VWS V14.01,2013-02-25 07:34:00,
2013-02-25 00:35:00,6.8,2.7,30.43,WNW,286,0.0,0.0,83,0.00,,---,0.00,VWS V14.01,2013-02-25 07:35:00,
2013-02-25 00:36:00,6.8,2.7,30.42,WNW,286,1.0,1.0,83,0.00,,---,0.00,VWS V14.01,2013-02-25 07:36:00,
2013-02-25 00:37:00,6.8,2.7,30.42,WNW,286,0.0,0.0,83,0.00,,---,0.00,VWS V14.01,2013-02-25 07:37:00,
2013-02-25 00:38:00,6.7,2.9,30.43,WNW,286,0.0,1.0,84,0.00,,---,0.00,VWS V14.01,2013-02-25 07:38:00,
2013-02-25 00:39:00,6.8,2.7,30.43,WNW,286,0.0,1.0,83,0.00,,---,0.00,VWS V14.01,2013-02-25 07:39:00,
2013-02-25 00:40:00,6.8,2.7,30.43,WNW,286,1.0,2.0,83,0.00,,---,0.00,VWS V14.01,2013-02-25 07:40:00,
2013-02-25 00:41:00,6.8,2.7,30.43,WNW,286,0.0,2.0,83,0.00,,---,0.00,VWS V14.01,2013-02-25 07:41:00,
2013-02-25 00:42:00,6.8,2.7,30.43,WNW,286,1.0,2.0,83,0.00,,---,0.00,VWS V14.01,2013-02-25 07:42:00,
2013-02-25 00:43:00,6.9,3.1,30.43,WNW,286,0.0,1.0,84,0.00,,---,0.00,VWS V14.01,2013-02-25 07:43:00,
2013-02-25 00:44:00,7.0,3.2,30.43,WNW,286,1.0,2.0,84,0.00,,---,0.00,VWS V14.01,2013-02-25 07:44:00,
2013-02-25 00:45:00,7.0,3.2,30.43,WNW,286,0.0,1.0,84,0.00,,---,0.00,VWS V14.01,2013-02-25 07:45:00,
2013-02-25 00:46:00,7.1,3.3,30.43,WNW,286,0.0,1.0,84,0.00,,---,0.00,VWS V14.01,2013-02-25 07:46:00,
2013-02-25 00:47:00,7.1,3.3,30.43,WNW,286,0.0,1.0,84,0.00,,---,0.00,VWS V14.01,2013-02-25 07:47:00,
2013-02-25 00:48:00,7.2,3.1,30.43,WNW,286,1.0,3.0,83,0.00,,---,0.00,VWS V14.01,2013-02-25 07:48:00,
2013-02-25 00:49:00,7.3,3.2,30.43,WNW,286,2.0,2.0,83,0.00,,---,0.00,VWS V14.01,2013-02-25 07:49:00,
2013-02-25 00:50:00,7.3,3.2,30.43,WNW,286,2.0,2.0,83,0.00,,---,0.00,VWS V14.01,2013-02-25 07:50:00,
2013-02-25 00:51:00,7.4,3.3,30.43,WNW,286,2.0,2.0,83,0.00,,---,0.00,VWS V14.01,2013-02-25 07:51:00,
2013-02-25 00:52:00,7.4,3.3,30.43,WNW,286,2.0,2.0,83,0.00,,---,0.00,VWS V14.01,2013-02-25 07:52:00,
2013-02-25 00:53:00,7.4,3.3,30.43,WNW,286,1.0,2.0,83,0.00,,---,0.00,VWS V14.01,2013-02-25 07:53:00,
2013-02-25 00:54:00,7.4,3.3,30.43,WNW,286,2.0,3.0,83,0.00,,---,0.00,VWS V14.01,2013-02-25 07:54:00,
2013-02-25 00:55:00,7.4,3.3,30.43,WNW,286,2.0,2.0,83,0.00,,---,0.00,VWS V14.01,2013-02-25 07:55:00,
2013-02-25 00:56:00,7.5,3.4,30.43,WNW,286,2.0,3.0,83,0.00,,---,0.00,VWS V14.01,2013-02-25 07:56:00,
2013-02-25 00:57:00,7.5,3.4,30.43,WNW,286,2.0,3.0,83,0.00,,---,0.00,VWS V14.01,2013-02-25 07:57:00,
2013-02-25 00:58:00,7.5,3.2,30.43,WNW,286,2.0,3.0,82,0.00,,---,0.00,VWS V14.01,2013-02-25 07:58:00,
2013-02-25 00:59:00,7.6,3.5,30.43,West,267,2.0,4.0,83,0.00,,---,0.00,VWS V14.01,2013-02-25 07:59:00,
2013-02-25 01:00:00,7.6,3.3,30.43,West,267,2.0,2.0,82,0.00,,---,0.00,VWS V14.01,2013-02-25 08:00:00,
2013-02-25 01:01:00,7.7,3.4,30.43,West,267,2.0,2.0,82,0.00,,---,0.00,VWS V14.01,2013-02-25 08:01:00,
2013-02-25 01:02:00,7.7,3.4,30.43,West,267,2.0,2.0,82,0.00,,---,0.00,VWS V14.01,2013-02-25 08:02:00,
2013-02-25 01:03:00,7.8,3.5,30.43,West,268,4.0,4.0,82,0.00,,---,0.00,VWS V14.01,2013-02-25 08:03:00,
2013-02-25 01:04:00,7.8,3.5,30.43,West,275,2.0,5.0,82,0.00,,---,0.00,VWS V14.01,2013-02-25 08:04:00,
2013-02-25 01:05:00,7.8,3.5,30.43,West,273,1.0,4.0,82,0.00,,---,0.00,VWS V14.01,2013-02-25 08:05:00,
2013-02-25 01:06:00,7.9,3.6,30.43,West,269,0.0,2.0,82,0.00,,---,0.00,VWS V14.01,2013-02-25 08:06:00,
2013-02-25 01:07:00,7.9,3.6,30.43,West,269,0.0,2.0,82,0.00,,---,0.00,VWS V14.01,2013-02-25 08:07:00,
2013-02-25 01:08:00,8.0,3.7,30.43,West,269,2.0,2.0,82,0.00,,---,0.00,VWS V14.01,2013-02-25 08:08:00,
2013-02-25 01:09:00,8.0,3.7,30.43,West,269,2.0,2.0,82,0.00,,---,0.00,VWS V14.01,2013-02-25 08:09:00,
2013-02-25 01:10:00,8.0,3.7,30.43,West,269,1.0,2.0,82,0.00,,---,0.00,VWS V14.01,2013-02-25 08:10:00,
2013-02-25 01:11:00,8.0,3.4,30.43,West,269,1.0,1.0,81,0.00,,---,0.00,VWS V14.01,2013-02-25 08:11:00,
2013-02-25 01:12:00,8.0,3.4,30.43,West,269,1.0,1.0,81,0.00,,---,0.00,VWS V14.01,2013-02-25 08:12:00,
2013-02-25 01:13:00,8.0,3.4,30.43,West,263,1.0,4.0,81,0.00,,---,0.00,VWS V14.01,2013-02-25 08:13:00,
2013-02-25 01:14:00,7.9,3.3,30.43,West,262,1.0,4.0,81,0.00,,---,0.00,VWS V14.01,2013-02-25 08:14:00,
2013-02-25 01:15:00,7.9,3.3,30.43,West,262,1.0,4.0,81,0.00,,---,0.00,VWS V14.01,2013-02-25 08:15:00,
2013-02-25 01:16:00,7.9,3.3,30.43,West,262,0.0,1.0,81,0.00,,---,0.00,VWS V14.01,2013-02-25 08:16:00,
2013-02-25 01:17:00,7.9,3.3,30.43,West,262,0.0,1.0,81,0.00,,---,0.00,VWS V14.01,2013-02-25 08:17:00,
2013-02-25 01:18:00,7.9,3.3,30.44,West,262,2.0,2.0,81,0.00,,---,0.00,VWS V14.01,2013-02-25 08:18:00,
2013-02-25 01:19:00,8.0,3.4,30.44,West,262,1.0,2.0,81,0.00,,---,0.00,VWS V14.01,2013-02-25 08:19:00,
2013-02-25 01:20:00,7.9,3.3,30.44,West,262,1.0,2.0,81,0.00,,---,0.00,VWS V14.01,2013-02-25 08:20:00,
2013-02-25 01:21:00,7.8,3.2,30.44,West,262,1.0,1.0,81,0.00,,---,0.00,VWS V14.01,2013-02-25 08:21:00,
2013-02-25 01:22:00,7.8,3.2,30.44,West,262,1.0,1.0,81,0.00,,---,0.00,VWS V14.01,2013-02-25 08:22:00,
2013-02-25 01:23:00,7.6,3.0,30.44,West,262,0.0,1.0,81,0.00,,---,0.00,VWS V14.01,2013-02-25 08:23:00,
2013-02-25 01:24:00,7.4,2.8,30.44,West,262,0.0,0.0,81,0.00,,---,0.00,VWS V14.01,2013-02-25 08:24:00,
2013-02-25 01:25:00,7.3,2.7,30.44,West,262,0.0,0.0,81,0.00,,---,0.00,VWS V14.01,2013-02-25 08:25:00,
2013-02-25 01:26:00,7.2,2.6,30.44,West,262,0.0,0.0,81,0.00,,---,0.00,VWS V14.01,2013-02-25 08:26:00,
2013-02-25 01:27:00,7.2,2.6,30.44,West,262,0.0,0.0,81,0.00,,---,0.00,VWS V14.01,2013-02-25 08:27:00,
2013-02-25 01:28:00,7.1,2.5,30.44,West,262,0.0,0.0,81,0.00,,---,0.00,VWS V14.01,2013-02-25 08:28:00,
2013-02-25 01:29:00,7.1,2.8,30.44,West,262,0.0,0.0,82,0.00,,---,0.00,VWS V14.01,2013-02-25 08:29:00,
2013-02-25 01:30:00,7.1,2.8,30.44,West,262,0.0,0.0,82,0.00,,---,0.00,VWS V14.01,2013-02-25 08:30:00,
2013-02-25 01:31:00,7.1,2.8,30.44,West,262,0.0,0.0,82,0.00,,---,0.00,VWS V14.01,2013-02-25 08:31:00,
2013-02-25 01:32:00,7.1,2.8,30.44,West,262,0.0,0.0,82,0.00,,---,0.00,VWS V14.01,2013-02-25 08:32:00,
2013-02-25 01:33:00,7.2,2.9,30.44,West,262,0.0,0.0,82,0.00,,---,0.00,VWS V14.01,2013-02-25 08:33:00,
2013-02-25 01:34:00,7.3,3.0,30.44,West,262,0.0,0.0,82,0.00,,---,0.00,VWS V14.01,2013-02-25 08:34:00,
2013-02-25 01:35:00,7.3,3.0,30.44,West,262,0.0,0.0,82,0.00,,---,0.00,VWS V14.01,2013-02-25 08:35:00,
2013-02-25 01:36:00,7.3,3.0,30.44,West,262,0.0,1.0,82,0.00,,---,0.00,VWS V14.01,2013-02-25 08:36:00,
2013-02-25 01:37:00,7.3,3.0,30.44,West,262,0.0,1.0,82,0.00,,---,0.00,VWS V14.01,2013-02-25 08:37:00,
2013-02-25 01:38:00,7.3,2.7,30.44,West,259,0.0,5.0,81,0.00,,---,0.00,VWS V14.01,2013-02-25 08:38:00,
2013-02-25 01:39:00,7.4,2.8,30.44,West,259,0.0,1.0,81,0.00,,---,0.00,VWS V14.01,2013-02-25 08:39:00,
2013-02-25 01:40:00,7.4,2.8,30.44,West,259,0.0,2.0,81,0.00,,---,0.00,VWS V14.01,2013-02-25 08:40:00,
2013-02-25 01:41:00,7.4,3.1,30.44,West,259,1.0,1.0,82,0.00,,---,0.00,VWS V14.01,2013-02-25 08:41:00,
2013-02-25 01:42:00,7.4,3.1,30.44,West,259,1.0,1.0,82,0.00,,---,0.00,VWS V14.01,2013-02-25 08:42:00,
2013-02-25 01:43:00,7.5,2.9,30.44,West,259,1.0,2.0,81,0.00,,---,0.00,VWS V14.01,2013-02-25 08:43:00,
2013-02-25 01:44:00,7.5,3.2,30.45,West,259,0.0,2.0,82,0.00,,---,0.00,VWS V14.01,2013-02-25 08:44:00,
2013-02-25 01:45:00,7.6,3.0,30.45,West,259,0.0,0.0,81,0.00,,---,0.00,VWS V14.01,2013-02-25 08:45:00,
2013-02-25 01:46:00,7.6,3.0,30.45,West,259,0.0,0.0,81,0.00,,---,0.00,VWS V14.01,2013-02-25 08:46:00,
2013-02-25 01:47:00,7.6,3.0,30.45,West,259,0.0,0.0,81,0.00,,---,0.00,VWS V14.01,2013-02-25 08:47:00,
2013-02-25 01:48:00,7.8,3.2,30.45,West,259,0.0,1.0,81,0.00,,---,0.00,VWS V14.01,2013-02-25 08:48:00,
2013-02-25 01:49:00,7.8,3.2,30.45,West,259,0.0,1.0,81,0.00,,---,0.00,VWS V14.01,2013-02-25 08:49:00,
2013-02-25 01:50:00,7.9,3.3,30.45,West,259,0.0,0.0,81,0.00,,---,0.00,VWS V14.01,2013-02-25 08:50:00,
2013-02-25 01:51:00,7.9,3.3,30.45,West,259,0.0,0.0,81,0.00,,---,0.00,VWS V14.01,2013-02-25 08:51:00,
2013-02-25 01:52:00,7.9,3.3,30.45,West,259,0.0,0.0,81,0.00,,---,0.00,VWS V14.01,2013-02-25 08:52:00,
2013-02-25 01:53:00,7.9,3.3,30.45,West,259,0.0,0.0,81,0.00,,---,0.00,VWS V14.01,2013-02-25 08:53:00,
2013-02-25 01:54:00,8.0,3.4,30.45,West,259,0.0,0.0,81,0.00,,---,0.00,VWS V14.01,2013-02-25 08:54:00,
2013-02-25 01:55:00,8.0,3.1,30.45,West,259,0.0,0.0,80,0.00,,---,0.00,VWS V14.01,2013-02-25 08:55:00,
2013-02-25 01:56:00,8.0,3.4,30.45,West,259,0.0,0.0,81,0.00,,---,0.00,VWS V14.01,2013-02-25 08:56:00,
2013-02-25 01:57:00,8.0,3.4,30.45,West,259,0.0,0.0,81,0.00,,---,0.00,VWS V14.01,2013-02-25 08:57:00,
2013-02-25 01:58:00,8.0,3.4,30.45,West,259,0.0,0.0,81,0.00,,---,0.00,VWS V14.01,2013-02-25 08:58:00,
2013-02-25 01:59:00,8.0,3.1,30.45,West,259,0.0,0.0,80,0.00,,---,0.00,VWS V14.01,2013-02-25 08:59:00,
2013-02-25 02:00:00,8.0,3.1,30.45,West,259,0.0,0.0,80,0.00,,---,0.00,VWS V14.01,2013-02-25 09:00:00,
2013-02-25 02:01:00,8.0,3.1,30.45,West,259,0.0,1.0,80,0.00,,---,0.00,VWS V14.01,2013-02-25 09:01:00,
2013-02-25 02:02:00,8.0,3.1,30.45,West,259,0.0,1.0,80,0.00,,---,0.00,VWS V14.01,2013-02-25 09:02:00,
2013-02-25 02:03:00,8.0,3.1,30.45,West,259,1.0,2.0,80,0.00,,---,0.00,VWS V14.01,2013-02-25 09:03:00,
2013-02-25 02:04:00,8.0,3.1,30.45,West,259,1.0,2.0,80,0.00,,---,0.00,VWS V14.01,2013-02-25 09:04:00,
2013-02-25 02:05:00,8.0,3.1,30.45,West,259,1.0,2.0,80,0.00,,---,0.00,VWS V14.01,2013-02-25 09:05:00,
2013-02-25 02:06:00,8.0,3.1,30.45,West,259,0.0,1.0,80,0.00,,---,0.00,VWS V14.01,2013-02-25 09:06:00,
2013-02-25 02:07:00,8.0,3.1,30.45,West,259,0.0,1.0,80,0.00,,---,0.00,VWS V14.01,2013-02-25 09:07:00,
2013-02-25 02:08:00,8.1,3.2,30.45,West,259,0.0,2.0,80,0.00,,---,0.00,VWS V14.01,2013-02-25 09:08:00,
2013-02-25 02:09:00,8.1,3.2,30.45,West,259,2.0,3.0,80,0.00,,---,0.00,VWS V14.01,2013-02-25 09:09:00,
2013-02-25 02:10:00,8.0,3.1,30.45,WSW,254,3.0,4.0,80,0.00,,---,0.00,VWS V14.01,2013-02-25 09:10:00,
2013-02-25 02:11:00,8.0,2.8,30.45,West,259,5.0,6.0,79,0.00,,---,0.00,VWS V14.01,2013-02-25 09:11:00,
2013-02-25 02:12:00,8.0,2.8,30.45,West,259,5.0,6.0,79,0.00,,---,0.00,VWS V14.01,2013-02-25 09:12:00,
2013-02-25 02:13:00,8.1,3.0,30.45,WSW,246,2.0,6.0,79,0.00,,---,0.00,VWS V14.01,2013-02-25 09:13:00,
2013-02-25 02:14:00,8.1,3.0,30.45,West,280,2.0,7.0,79,0.00,,---,0.00,VWS V14.01,2013-02-25 09:14:00,
2013-02-25 02:15:00,8.2,3.0,30.45,West,272,1.0,5.0,79,0.00,,---,0.00,VWS V14.01,2013-02-25 09:15:00,
2013-02-25 02:16:00,8.2,3.0,30.45,West,263,2.0,5.0,79,0.00,,---,0.00,VWS V14.01,2013-02-25 09:16:00,
2013-02-25 02:17:00,8.2,3.0,30.45,West,263,2.0,5.0,79,0.00,,---,0.00,VWS V14.01,2013-02-25 09:17:00,
2013-02-25 02:18:00,8.3,3.1,30.45,WSW,254,4.0,4.0,79,0.00,,---,0.00,VWS V14.01,2013-02-25 09:18:00,
2013-02-25 02:19:00,8.3,3.1,30.45,West,261,3.0,6.0,79,0.00,,---,0.00,VWS V14.01,2013-02-25 09:19:00,
2013-02-25 02:20:00,8.3,3.1,30.45,WSW,256,3.0,5.0,79,0.00,,---,0.00,VWS V14.01,2013-02-25 09:20:00,
2013-02-25 02:21:00,8.3,3.1,30.45,West,281,3.0,5.0,79,0.00,,---,0.00,VWS V14.01,2013-02-25 09:21:00,
2013-02-25 02:22:00,8.3,3.1,30.45,West,281,3.0,5.0,79,0.00,,---,0.00,VWS V14.01,2013-02-25 09:22:00,
2013-02-25 02:23:00,8.3,2.9,30.45,West,261,2.0,4.0,78,0.00,,---,0.00,VWS V14.01,2013-02-25 09:23:00,
2013-02-25 02:24:00,8.3,2.9,30.45,West,261,2.0,4.0,78,0.00,,---,0.00,VWS V14.01,2013-02-25 09:24:00,
2013-02-25 02:25:00,8.3,2.9,30.45,West,261,2.0,4.0,78,0.00,,---,0.00,VWS V14.01,2013-02-25 09:25:00,
2013-02-25 02:26:00,8.3,2.9,30.45,WSW,249,1.0,6.0,78,0.00,,---,0.00,VWS V14.01,2013-02-25 09:26:00,
2013-02-25 02:27:00,8.3,2.9,30.45,WSW,249,1.0,6.0,78,0.00,,---,0.00,VWS V14.01,2013-02-25 09:27:00,
2013-02-25 02:28:00,8.3,2.9,30.45,WSW,258,4.0,7.0,78,0.00,,---,0.00,VWS V14.01,2013-02-25 09:28:00,
2013-02-25 02:29:00,8.3,2.9,30.45,WSW,256,2.0,4.0,78,0.00,,---,0.00,VWS V14.01,2013-02-25 09:29:00,
2013-02-25 02:30:00,8.2,2.8,30.45,West,263,2.0,4.0,78,0.00,,---,0.00,VWS V14.01,2013-02-25 09:30:00,
2013-02-25 02:31:00,8.2,2.8,30.45,West,264,2.0,4.0,78,0.00,,---,0.00,VWS V14.01,2013-02-25 09:31:00,
2013-02-25 02:32:00,8.2,2.8,30.45,West,264,2.0,4.0,78,0.00,,---,0.00,VWS V14.01,2013-02-25 09:32:00,
2013-02-25 02:33:00,8.2,2.8,30.45,West,263,2.0,4.0,78,0.00,,---,0.00,VWS V14.01,2013-02-25 09:33:00,
2013-02-25 02:34:00,8.2,2.8,30.44,West,259,3.0,4.0,78,0.00,,---,0.00,VWS V14.01,2013-02-25 09:34:00,
2013-02-25 02:35:00,8.3,2.9,30.44,WSW,249,4.0,5.0,78,0.00,,---,0.00,VWS V14.01,2013-02-25 09:35:00,
2013-02-25 02:36:00,8.3,2.9,30.44,West,267,4.0,5.0,78,0.00,,---,0.00,VWS V14.01,2013-02-25 09:36:00,
2013-02-25 02:37:00,8.3,2.9,30.44,West,267,4.0,5.0,78,0.00,,---,0.00,VWS V14.01,2013-02-25 09:37:00,
2013-02-25 02:38:00,8.3,2.9,30.44,West,271,5.0,5.0,78,0.00,,---,0.00,VWS V14.01,2013-02-25 09:38:00,
2013-02-25 02:39:00,8.3,2.9,30.44,WSW,254,4.0,6.0,78,0.00,,---,0.00,VWS V14.01,2013-02-25 09:39:00,
2013-02-25 02:40:00,8.3,2.9,30.44,West,266,2.0,6.0,78,0.00,,---,0.00,VWS V14.01,2013-02-25 09:40:00,
2013-02-25 02:41:00,8.3,2.9,30.44,West,279,4.0,5.0,78,0.00,,---,0.00,VWS V14.01,2013-02-25 09:41:00,
2013-02-25 02:42:00,8.3,2.9,30.44,West,279,4.0,5.0,78,0.00,,---,0.00,VWS V14.01,2013-02-25 09:42:00,
2013-02-25 02:43:00,8.3,2.9,30.44,West,275,4.0,5.0,78,0.00,,---,0.00,VWS V14.01,2013-02-25 09:43:00,
2013-02-25 02:44:00,8.3,2.9,30.44,West,271,3.0,4.0,78,0.00,,---,0.00,VWS V14.01,2013-02-25 09:44:00,
2013-02-25 02:45:00,8.3,2.9,30.44,West,271,3.0,3.0,78,0.00,,---,0.00,VWS V14.01,2013-02-25 09:45:00,
2013-02-25 02:46:00,8.3,2.9,30.44,West,271,3.0,3.0,78,0.00,,---,0.00,VWS V14.01,2013-02-25 09:46:00,
2013-02-25 02:47:00,8.3,2.9,30.44,West,271,3.0,3.0,78,0.00,,---,0.00,VWS V14.01,2013-02-25 09:47:00,
2013-02-25 02:48:00,8.3,2.9,30.44,WSW,257,4.0,6.0,78,0.00,,---,0.00,VWS V14.01,2013-02-25 09:48:00,
2013-02-25 02:49:00,8.3,2.9,30.44,West,264,2.0,6.0,78,0.00,,---,0.00,VWS V14.01,2013-02-25 09:49:00,
2013-02-25 02:50:00,8.3,2.9,30.44,West,265,2.0,5.0,78,0.00,,---,0.00,VWS V14.01,2013-02-25 09:50:00,
2013-02-25 02:51:00,8.3,2.9,30.44,West,266,4.0,5.0,78,0.00,,---,0.00,VWS V14.01,2013-02-25 09:51:00,
2013-02-25 02:52:00,8.3,2.9,30.44,West,266,4.0,5.0,78,0.00,,---,0.00,VWS V14.01,2013-02-25 09:52:00,
2013-02-25 02:53:00,8.4,3.0,30.44,West,263,2.0,4.0,78,0.00,,---,0.00,VWS V14.01,2013-02-25 09:53:00,
2013-02-25 02:54:00,8.4,3.0,30.44,West,266,5.0,5.0,78,0.00,,---,0.00,VWS V14.01,2013-02-25 09:54:00,
2013-02-25 02:55:00,8.4,3.0,30.44,West,266,2.0,5.0,78,0.00,,---,0.00,VWS V14.01,2013-02-25 09:55:00,
2013-02-25 02:56:00,8.4,3.0,30.44,West,266,2.0,4.0,78,0.00,,---,0.00,VWS V14.01,2013-02-25 09:56:00,
2013-02-25 02:57:00,8.4,3.0,30.44,West,266,2.0,4.0,78,0.00,,---,0.00,VWS V14.01,2013-02-25 09:57:00,
2013-02-25 02:58:00,8.3,2.9,30.45,West,266,1.0,1.0,78,0.00,,---,0.00,VWS V14.01,2013-02-25 09:58:00,
2013-02-25 02:59:00,8.3,2.6,30.44,West,265,0.0,2.0,77,0.00,,---,0.00,VWS V14.01,2013-02-25 09:59:00,
2013-02-25 03:00:00,8.2,2.5,30.44,West,271,4.0,4.0,77,0.00,,---,0.00,VWS V14.01,2013-02-25 10:00:00,
2013-02-25 03:01:00,8.2,2.8,30.45,West,259,0.0,4.0,78,0.00,,---,0.00,VWS V14.01,2013-02-25 10:01:00,
2013-02-25 03:02:00,8.2,2.8,30.45,West,259,0.0,4.0,78,0.00,,---,0.00,VWS V14.01,2013-02-25 10:02:00,
2013-02-25 03:03:00,8.0,2.3,30.45,West,270,1.0,6.0,77,0.00,,---,0.00,VWS V14.01,2013-02-25 10:03:00,
2013-02-25 03:04:00,7.9,2.2,30.45,West,267,2.0,4.0,77,0.00,,---,0.00,VWS V14.01,2013-02-25 10:04:00,
2013-02-25 03:05:00,7.9,2.2,30.45,West,265,2.0,3.0,77,0.00,,---,0.00,VWS V14.01,2013-02-25 10:05:00,
2013-02-25 03:06:00,7.8,2.4,30.45,West,267,1.0,4.0,78,0.00,,---,0.00,VWS V14.01,2013-02-25 10:06:00,
2013-02-25 03:07:00,7.8,2.4,30.45,West,267,1.0,4.0,78,0.00,,---,0.00,VWS V14.01,2013-02-25 10:07:00,
2013-02-25 03:08:00,7.8,2.4,30.45,West,267,2.0,5.0,78,0.00,,---,0.00,VWS V14.01,2013-02-25 10:08:00,
2013-02-25 03:09:00,7.7,2.3,30.45,West,267,4.0,5.0,78,0.00,,---,0.00,VWS V14.01,2013-02-25 10:09:00,
2013-02-25 03:10:00,7.7,2.3,30.45,West,262,3.0,4.0,78,0.00,,---,0.00,VWS V14.01,2013-02-25 10:10:00,
2013-02-25 03:11:00,7.7,2.3,30.45,West,264,2.0,4.0,78,0.00,,---,0.00,VWS V14.01,2013-02-25 10:11:00,
2013-02-25 03:12:00,7.7,2.3,30.45,West,264,2.0,4.0,78,0.00,,---,0.00,VWS V14.01,2013-02-25 10:12:00,
2013-02-25 03:13:00,7.7,2.3,30.45,West,265,4.0,5.0,78,0.00,,---,0.00,VWS V14.01,2013-02-25 10:13:00,
2013-02-25 03:14:00,7.7,2.3,30.45,West,265,3.0,5.0,78,0.00,,---,0.00,VWS V14.01,2013-02-25 10:14:00,
2013-02-25 03:15:00,7.6,2.2,30.45,WSW,242,4.0,7.0,78,0.00,,---,0.00,VWS V14.01,2013-02-25 10:15:00,
2013-02-25 03:16:00,7.6,2.2,30.45,WSW,254,2.0,5.0,78,0.00,,---,0.00,VWS V14.01,2013-02-25 10:16:00,
2013-02-25 03:17:00,7.6,2.2,30.45,WSW,254,2.0,5.0,78,0.00,,---,0.00,VWS V14.01,2013-02-25 10:17:00,
2013-02-25 03:18:00,7.4,2.0,30.45,WNW,294,2.0,3.0,78,0.00,,---,0.00,VWS V14.01,2013-02-25 10:18:00,
2013-02-25 03:19:00,7.3,1.9,30.45,WNW,293,2.0,4.0,78,0.00,,---,0.00,VWS V14.01,2013-02-25 10:19:00,
2013-02-25 03:20:00,7.2,1.8,30.45,WNW,292,2.0,3.0,78,0.00,,---,0.00,VWS V14.01,2013-02-25 10:20:00,
2013-02-25 03:21:00,7.0,1.6,30.45,WNW,292,1.0,4.0,78,0.00,,---,0.00,VWS V14.01,2013-02-25 10:21:00,
2013-02-25 03:22:00,7.0,1.6,30.45,WNW,292,1.0,4.0,78,0.00,,---,0.00,VWS V14.01,2013-02-25 10:22:00,
2013-02-25 03:23:00,6.7,1.3,30.45,WNW,292,3.0,3.0,78,0.00,,---,0.00,VWS V14.01,2013-02-25 10:23:00,
2013-02-25 03:24:00,6.6,1.5,30.45,WNW,292,1.0,4.0,79,0.00,,---,0.00,VWS V14.01,2013-02-25 10:24:00,
2013-02-25 03:25:00,6.5,1.4,30.45,WNW,292,1.0,2.0,79,0.00,,---,0.00,VWS V14.01,2013-02-25 10:25:00,
2013-02-25 03:26:00,6.5,1.4,30.45,WNW,291,0.0,2.0,79,0.00,,---,0.00,VWS V14.01,2013-02-25 10:26:00,
2013-02-25 03:27:00,6.5,1.4,30.45,WNW,291,0.0,2.0,79,0.00,,---,0.00,VWS V14.01,2013-02-25 10:27:00,
2013-02-25 03:28:00,6.4,1.3,30.45,WNW,291,1.0,1.0,79,0.00,,---,0.00,VWS V14.01,2013-02-25 10:28:00,
2013-02-25 03:29:00,6.4,1.6,30.45,WNW,291,0.0,1.0,80,0.00,,---,0.00,VWS V14.01,2013-02-25 10:29:00,
2013-02-25 03:30:00,6.4,1.6,30.45,WNW,291,2.0,2.0,80,0.00,,---,0.00,VWS V14.01,2013-02-25 10:30:00,
2013-02-25 03:31:00,6.3,1.5,30.45,WNW,291,0.0,2.0,80,0.00,,---,0.00,VWS V14.01,2013-02-25 10:31:00,
2013-02-25 03:32:00,6.3,1.5,30.45,WNW,291,0.0,2.0,80,0.00,,---,0.00,VWS V14.01,2013-02-25 10:32:00,
2013-02-25 03:33:00,6.3,1.5,30.45,WNW,286,1.0,4.0,80,0.00,,---,0.00,VWS V14.01,2013-02-25 10:33:00,
2013-02-25 03:34:00,6.3,1.5,30.45,WNW,286,0.0,1.0,80,0.00,,---,0.00,VWS V14.01,2013-02-25 10:34:00,
2013-02-25 03:35:00,6.4,1.6,30.45,WNW,288,1.0,2.0,80,0.00,,---,0.00,VWS V14.01,2013-02-25 10:35:00,
2013-02-25 03:36:00,6.4,1.6,30.45,WNW,288,0.0,2.0,80,0.00,,---,0.00,VWS V14.01,2013-02-25 10:36:00,
2013-02-25 03:37:00,6.4,1.6,30.45,WNW,288,0.0,2.0,80,0.00,,---,0.00,VWS V14.01,2013-02-25 10:37:00,
2013-02-25 03:38:00,6.4,1.6,30.45,WNW,288,0.0,1.0,80,0.00,,---,0.00,VWS V14.01,2013-02-25 10:38:00,
2013-02-25 03:39:00,6.4,1.6,30.45,WNW,287,1.0,1.0,80,0.00,,---,0.00,VWS V14.01,2013-02-25 10:39:00,
2013-02-25 03:40:00,6.4,1.6,30.45,WNW,291,2.0,2.0,80,0.00,,---,0.00,VWS V14.01,2013-02-25 10:40:00,
2013-02-25 03:41:00,6.4,1.6,30.45,SW,233,7.0,7.0,80,0.00,,---,0.00,VWS V14.01,2013-02-25 10:41:00,
2013-02-25 03:42:00,6.4,1.6,30.45,SW,233,7.0,7.0,80,0.00,,---,0.00,VWS V14.01,2013-02-25 10:42:00,
2013-02-25 03:43:00,6.5,1.7,30.45,WNW,282,0.0,4.0,80,0.00,,---,0.00,VWS V14.01,2013-02-25 10:43:00,
2013-02-25 03:44:00,6.5,1.7,30.45,WNW,282,1.0,2.0,80,0.00,,---,0.00,VWS V14.01,2013-02-25 10:44:00,
2013-02-25 03:45:00,6.5,1.7,30.45,West,281,2.0,3.0,80,0.00,,---,0.00,VWS V14.01,2013-02-25 10:45:00,
2013-02-25 03:46:00,6.6,1.8,30.45,SW,225,0.0,8.0,80,0.00,,---,0.00,VWS V14.01,2013-02-25 10:46:00,
2013-02-25 03:47:00,6.6,1.8,30.45,SW,225,0.0,8.0,80,0.00,,---,0.00,VWS V14.01,2013-02-25 10:47:00,
2013-02-25 03:48:00,6.6,1.8,30.45,SW,227,1.0,2.0,80,0.00,,---,0.00,VWS V14.01,2013-02-25 10:48:00,
2013-02-25 03:49:00,6.7,1.9,30.45,SW,227,1.0,1.0,80,0.00,,---,0.00,VWS V14.01,2013-02-25 10:49:00,
2013-02-25 03:50:00,6.7,1.9,30.45,SW,227,0.0,1.0,80,0.00,,---,0.00,VWS V14.01,2013-02-25 10:50:00,
2013-02-25 03:51:00,6.7,1.9,30.45,SW,227,0.0,2.0,80,0.00,,---,0.00,VWS V14.01,2013-02-25 10:51:00,
2013-02-25 03:52:00,6.7,1.9,30.45,SW,227,0.0,2.0,80,0.00,,---,0.00,VWS V14.01,2013-02-25 10:52:00,
2013-02-25 03:53:00,6.7,1.9,30.45,WSW,256,1.0,4.0,80,0.00,,---,0.00,VWS V14.01,2013-02-25 10:53:00,
2013-02-25 03:54:00,6.7,1.9,30.45,West,262,0.0,6.0,80,0.00,,---,0.00,VWS V14.01,2013-02-25 10:54:00,
2013-02-25 03:55:00,6.8,2.0,30.45,West,261,1.0,1.0,80,0.00,,---,0.00,VWS V14.01,2013-02-25 10:55:00,
2013-02-25 03:56:00,6.8,2.0,30.45,West,279,4.0,5.0,80,0.00,,---,0.00,VWS V14.01,2013-02-25 10:56:00,
2013-02-25 03:57:00,6.8,2.0,30.45,WSW,241,5.0,5.0,80,0.00,,---,0.00,VWS V14.01,2013-02-25 10:57:00,
2013-02-25 03:58:00,6.8,2.0,30.45,West,279,4.0,5.0,80,0.00,,---,0.00,VWS V14.01,2013-02-25 10:58:00,
2013-02-25 03:59:00,6.9,2.0,30.45,WSW,242,8.0,8.0,80,0.00,,---,0.00,VWS V14.01,2013-02-25 10:59:00,
2013-02-25 04:00:00,6.9,2.0,30.45,WSW,250,5.0,9.0,80,0.00,,---,0.00,VWS V14.01,2013-02-25 11:00:00,
2013-02-25 04:01:00,7.0,2.2,30.45,West,278,2.0,6.0,80,0.00,,---,0.00,VWS V14.01,2013-02-25 11:01:00,
2013-02-25 04:02:00,7.1,2.2,30.45,West,272,6.0,7.0,80,0.00,,---,0.00,VWS V14.01,2013-02-25 11:02:00,
2013-02-25 04:03:00,7.1,2.2,30.45,West,278,3.0,3.0,80,0.00,,---,0.00,VWS V14.01,2013-02-25 11:03:00,
2013-02-25 04:04:00,7.2,2.3,30.45,West,265,0.0,4.0,80,0.00,,---,0.00,VWS V14.01,2013-02-25 11:04:00,
2013-02-25 04:05:00,7.2,2.3,30.45,West,265,0.0,0.0,80,0.00,,---,0.00,VWS V14.01,2013-02-25 11:05:00,
2013-02-25 04:06:00,7.3,2.4,30.45,West,277,2.0,5.0,80,0.00,,---,0.00,VWS V14.01,2013-02-25 11:06:00,
2013-02-25 04:07:00,7.3,2.2,30.45,West,263,2.0,5.0,79,0.00,,---,0.00,VWS V14.01,2013-02-25 11:07:00,
2013-02-25 04:08:00,7.3,2.4,30.45,West,274,1.0,5.0,80,0.00,,---,0.00,VWS V14.01,2013-02-25 11:08:00,
2013-02-25 04:09:00,7.2,2.1,30.45,West,273,2.0,11.0,79,0.00,,---,0.00,VWS V14.01,2013-02-25 11:09:00,
2013-02-25 04:10:00,7.2,2.1,30.45,WSW,247,7.0,7.0,79,0.00,,---,0.00,VWS V14.01,2013-02-25 11:10:00,
2013-02-25 04:11:00,7.3,2.2,30.45,West,275,5.0,8.0,79,0.00,,---,0.00,VWS V14.01,2013-02-25 11:11:00,
2013-02-25 04:12:00,7.3,2.2,30.45,WNW,295,2.0,7.0,79,0.00,,---,0.00,VWS V14.01,2013-02-25 11:12:00,
2013-02-25 04:13:00,7.3,2.2,30.45,West,277,6.0,6.0,79,0.00,,---,0.00,VWS V14.01,2013-02-25 11:13:00,
2013-02-25 04:14:00,7.4,2.3,30.45,WSW,250,5.0,9.0,79,0.00,,---,0.00,VWS V14.01,2013-02-25 11:14:00,
2013-02-25 04:15:00,7.4,2.3,30.45,West,266,7.0,8.0,79,0.00,,---,0.00,VWS V14.01,2013-02-25 11:15:00,
2013-02-25 04:16:00,7.5,2.4,30.45,West,259,6.0,8.0,79,0.00,,---,0.00,VWS V14.01,2013-02-25 11:16:00,
2013-02-25 04:17:00,7.5,2.4,30.45,SW,234,1.0,9.0,79,0.00,,---,0.00,VWS V14.01,2013-02-25 11:17:00,
2013-02-25 04:18:00,7.5,2.4,30.45,West,259,4.0,9.0,79,0.00,,---,0.00,VWS V14.01,2013-02-25 11:18:00,
2013-02-25 04:19:00,7.6,2.5,30.45,West,280,10.0,10.0,79,0.00,,---,0.00,VWS V14.01,2013-02-25 11:19:00,
2013-02-25 04:20:00,7.6,2.5,30.45,West,274,6.0,10.0,79,0.00,,---,0.00,VWS V14.01,2013-02-25 11:20:00,
2013-02-25 04:21:00,7.6,2.5,30.46,WNW,295,1.0,8.0,79,0.00,,---,0.00,VWS V14.01,2013-02-25 11:21:00,
2013-02-25 04:22:00,7.6,2.5,30.46,West,273,2.0,10.0,79,0.00,,---,0.00,VWS V14.01,2013-02-25 11:22:00,
2013-02-25 04:23:00,7.6,2.5,30.46,West,279,10.0,10.0,79,0.00,,---,0.00,VWS V14.01,2013-02-25 11:23:00,
2013-02-25 04:24:00,7.6,2.5,30.46,WNW,296,6.0,10.0,79,0.00,,---,0.00,VWS V14.01,2013-02-25 11:24:00,
2013-02-25 04:25:00,7.6,2.5,30.46,WNW,283,2.0,6.0,79,0.00,,---,0.00,VWS V14.01,2013-02-25 11:25:00,
2013-02-25 04:26:00,7.6,2.5,30.46,WNW,287,5.0,8.0,79,0.00,,---,0.00,VWS V14.01,2013-02-25 11:26:00,
2013-02-25 04:27:00,7.6,2.5,30.46,West,263,2.0,10.0,79,0.00,,---,0.00,VWS V14.01,2013-02-25 11:27:00,
2013-02-25 04:28:00,7.6,2.5,30.46,NW,323,4.0,9.0,79,0.00,,---,0.00,VWS V14.01,2013-02-25 11:28:00,
2013-02-25 04:29:00,7.6,2.5,30.46,WSW,245,8.0,8.0,79,0.00,,---,0.00,VWS V14.01,2013-02-25 11:29:00,
2013-02-25 04:30:00,7.6,2.5,30.46,West,271,5.0,11.0,79,0.00,,---,0.00,VWS V14.01,2013-02-25 11:30:00,
2013-02-25 04:31:00,7.6,2.5,30.46,WNW,284,3.0,7.0,79,0.00,,---,0.00,VWS V14.01,2013-02-25 11:31:00,
2013-02-25 04:32:00,7.7,2.6,30.47,West,267,11.0,13.0,79,0.00,,---,0.00,VWS V14.01,2013-02-25 11:32:00,
2013-02-25 04:33:00,7.7,2.6,30.47,NW,307,9.0,9.0,79,0.00,,---,0.00,VWS V14.01,2013-02-25 11:33:00,
2013-02-25 04:34:00,7.8,2.7,30.47,WNW,292,4.0,10.0,79,0.00,,---,0.00,VWS V14.01,2013-02-25 11:34:00,
2013-02-25 04:35:00,7.9,2.8,30.47,WNW,298,4.0,7.0,79,0.00,,---,0.00,VWS V14.01,2013-02-25 11:35:00,
2013-02-25 04:36:00,7.9,2.8,30.47,West,268,6.0,7.0,79,0.00,,---,0.00,VWS V14.01,2013-02-25 11:36:00,
2013-02-25 04:37:00,7.9,2.8,30.47,WNW,298,0.0,6.0,79,0.00,,---,0.00,VWS V14.01,2013-02-25 11:37:00,
2013-02-25 04:38:00,7.9,2.8,30.47,WNW,299,1.0,6.0,79,0.00,,---,0.00,VWS V14.01,2013-02-25 11:38:00,
2013-02-25 04:39:00,7.8,2.4,30.47,WNW,284,2.0,9.0,78,0.00,,---,0.00,VWS V14.01,2013-02-25 11:39:00,
2013-02-25 04:40:00,7.8,2.4,30.47,West,263,6.0,9.0,78,0.00,,---,0.00,VWS V14.01,2013-02-25 11:40:00,
2013-02-25 04:41:00,7.8,2.4,30.47,WNW,296,0.0,7.0,78,0.00,,---,0.00,VWS V14.01,2013-02-25 11:41:00,
2013-02-25 04:42:00,7.8,2.7,30.47,WNW,289,1.0,8.0,79,0.00,,---,0.00,VWS V14.01,2013-02-25 11:42:00,
2013-02-25 04:43:00,7.8,2.4,30.47,WNW,288,5.0,8.0,78,0.00,,---,0.00,VWS V14.01,2013-02-25 11:43:00,
2013-02-25 04:44:00,7.7,2.6,30.47,WNW,302,6.0,10.0,79,0.00,,---,0.00,VWS V14.01,2013-02-25 11:44:00,
2013-02-25 04:45:00,7.7,2.3,30.47,WNW,289,8.0,10.0,78,0.00,,---,0.00,VWS V14.01,2013-02-25 11:45:00,
2013-02-25 04:46:00,7.7,2.3,30.47,WNW,290,2.0,8.0,78,0.00,,---,0.00,VWS V14.01,2013-02-25 11:46:00,
2013-02-25 04:47:00,7.7,2.6,30.47,West,279,6.0,7.0,79,0.00,,---,0.00,VWS V14.01,2013-02-25 11:47:00,
2013-02-25 04:48:00,7.7,2.6,30.47,West,277,5.0,5.0,79,0.00,,---,0.00,VWS V14.01,2013-02-25 11:48:00,
2013-02-25 04:49:00,7.7,2.6,30.47,NNW,327,8.0,8.0,79,0.00,,---,0.00,VWS V14.01,2013-02-25 11:49:00,
2013-02-25 04:50:00,7.6,2.5,30.47,West,268,7.0,11.0,79,0.00,,---,0.00,VWS V14.01,2013-02-25 11:50:00,
2013-02-25 04:51:00,7.6,2.5,30.47,West,275,6.0,9.0,79,0.00,,---,0.00,VWS V14.01,2013-02-25 11:51:00,
2013-02-25 04:52:00,7.6,2.5,30.47,WNW,292,4.0,7.0,79,0.00,,---,0.00,VWS V14.01,2013-02-25 11:52:00,
2013-02-25 04:53:00,7.6,2.5,30.47,WNW,291,5.0,7.0,79,0.00,,---,0.00,VWS V14.01,2013-02-25 11:53:00,
2013-02-25 04:54:00,7.6,2.5,30.47,West,279,1.0,6.0,79,0.00,,---,0.00,VWS V14.01,2013-02-25 11:54:00,
2013-02-25 04:55:00,7.6,2.5,30.47,NNW,337,2.0,7.0,79,0.00,,---,0.00,VWS V14.01,2013-02-25 11:55:00,
2013-02-25 04:56:00,7.6,2.5,30.47,West,267,4.0,5.0,79,0.00,,---,0.00,VWS V14.01,2013-02-25 11:56:00,
2013-02-25 04:57:00,7.6,2.5,30.48,WNW,288,6.0,9.0,79,0.00,,---,0.00,VWS V14.01,2013-02-25 11:57:00,
2013-02-25 04:58:00,7.6,2.5,30.48,WNW,288,6.0,9.0,79,0.00,,---,0.00,VWS V14.01,2013-02-25 11:58:00,
2013-02-25 04:59:00,7.5,2.4,30.47,WNW,285,10.0,15.0,79,0.00,,---,0.00,VWS V14.01,2013-02-25 11:59:00,
2013-02-25 05:00:00,7.6,2.5,30.47,NW,312,2.0,10.0,79,0.00,,---,0.00,VWS V14.01,2013-02-25 12:00:00,
2013-02-25 05:01:00,7.6,2.5,30.48,WNW,284,7.0,8.0,79,0.00,,---,0.00,VWS V14.01,2013-02-25 12:01:00,
2013-02-25 05:02:00,7.6,2.5,30.48,NW,309,3.0,10.0,79,0.00,,---,0.00,VWS V14.01,2013-02-25 12:02:00,
2013-02-25 05:03:00,7.6,2.5,30.48,NW,309,3.0,10.0,79,0.00,,---,0.00,VWS V14.01,2013-02-25 12:03:00,
2013-02-25 05:04:00,7.7,2.6,30.48,WNW,294,5.0,8.0,79,0.00,,---,0.00,VWS V14.01,2013-02-25 12:04:00,
2013-02-25 05:05:00,7.7,2.6,30.48,West,277,12.0,12.0,79,0.00,,---,0.00,VWS V14.01,2013-02-25 12:05:00,
2013-02-25 05:06:00,7.7,2.6,30.47,WNW,284,4.0,12.0,79,0.00,,---,0.00,VWS V14.01,2013-02-25 12:06:00,
2013-02-25 05:07:00,7.8,2.7,30.47,WNW,292,7.0,12.0,79,0.00,,---,0.00,VWS V14.01,2013-02-25 12:07:00,
2013-02-25 05:08:00,7.8,2.7,30.47,WNW,292,7.0,12.0,79,0.00,,---,0.00,VWS V14.01,2013-02-25 12:08:00,
2013-02-25 05:09:00,7.8,2.7,30.48,West,280,5.0,13.0,79,0.00,,---,0.00,VWS V14.01,2013-02-25 12:09:00,
2013-02-25 05:10:00,7.9,2.8,30.47,NW,308,10.0,12.0,79,0.00,,---,0.00,VWS V14.01,2013-02-25 12:10:00,
2013-02-25 05:11:00,8.0,2.8,30.48,West,277,4.0,11.0,79,0.00,,---,0.00,VWS V14.01,2013-02-25 12:11:00,
2013-02-25 05:12:00,8.0,2.8,30.47,WNW,282,9.0,10.0,79,0.00,,---,0.00,VWS V14.01,2013-02-25 12:12:00,
2013-02-25 05:13:00,8.0,2.8,30.47,WNW,282,9.0,10.0,79,0.00,,---,0.00,VWS V14.01,2013-02-25 12:13:00,
2013-02-25 05:14:00,8.0,2.8,30.47,SW,229,4.0,14.0,79,0.00,,---,0.00,VWS V14.01,2013-02-25 12:14:00,
2013-02-25 05:15:00,8.0,2.8,30.47,SW,236,6.0,10.0,79,0.00,,---,0.00,VWS V14.01,2013-02-25 12:15:00,
2013-02-25 05:16:00,8.0,2.6,30.47,WNW,294,6.0,10.0,78,0.00,,---,0.00,VWS V14.01,2013-02-25 12:16:00,
2013-02-25 05:17:00,8.0,2.8,30.47,WNW,285,1.0,8.0,79,0.00,,---,0.00,VWS V14.01,2013-02-25 12:17:00,
2013-02-25 05:18:00,8.0,2.6,30.47,West,270,10.0,15.0,78,0.00,,---,0.00,VWS V14.01,2013-02-25 12:18:00,
2013-02-25 05:19:00,8.0,2.8,30.47,WNW,285,1.0,8.0,79,0.00,,---,0.00,VWS V14.01,2013-02-25 12:19:00,
2013-02-25 05:20:00,8.1,3.0,30.47,WNW,302,3.0,11.0,79,0.00,,---,0.00,VWS V14.01,2013-02-25 12:20:00,
2013-02-25 05:21:00,8.1,2.7,30.47,WSW,246,6.0,14.0,78,0.00,,---,0.00,VWS V14.01,2013-02-25 12:21:00,
2013-02-25 05:22:00,8.2,2.8,30.47,WSW,244,4.0,8.0,78,0.00,,---,0.00,VWS V14.01,2013-02-25 12:22:00,
2013-02-25 05:23:00,8.2,2.8,30.47,SW,226,9.0,9.0,78,0.00,,---,0.00,VWS V14.01,2013-02-25 12:23:00,
2013-02-25 05:24:00,8.2,2.8,30.47,NW,325,5.0,5.0,78,0.00,,---,0.00,VWS V14.01,2013-02-25 12:24:00,
2013-02-25 05:25:00,8.2,2.8,30.47,WNW,294,11.0,11.0,78,0.00,,---,0.00,VWS V14.01,2013-02-25 12:25:00,
2013-02-25 05:26:00,8.2,2.8,30.47,WSW,250,6.0,11.0,78,0.00,,---,0.00,VWS V14.01,2013-02-25 12:26:00,
2013-02-25 05:27:00,8.2,2.8,30.47,West,279,7.0,10.0,78,0.00,,---,0.00,VWS V14.01,2013-02-25 12:27:00,
2013-02-25 05:28:00,8.2,2.8,30.47,WSW,245,7.0,7.0,78,0.00,,---,0.00,VWS V14.01,2013-02-25 12:28:00,
2013-02-25 05:29:00,8.2,2.8,30.47,West,273,4.0,7.0,78,0.00,,---,0.00,VWS V14.01,2013-02-25 12:29:00,
2013-02-25 05:30:00,8.1,2.7,30.47,WNW,296,0.0,7.0,78,0.00,,---,0.00,VWS V14.01,2013-02-25 12:30:00,
2013-02-25 05:31:00,8.0,2.6,30.47,WSW,258,8.0,12.0,78,0.00,,---,0.00,VWS V14.01,2013-02-25 12:31:00,
2013-02-25 05:32:00,8.0,2.6,30.47,West,270,3.0,8.0,78,0.00,,---,0.00,VWS V14.01,2013-02-25 12:32:00,
2013-02-25 05:33:00,8.1,2.7,30.47,WNW,284,0.0,7.0,78,0.00,,---,0.00,VWS V14.01,2013-02-25 12:33:00,
2013-02-25 05:34:00,8.1,2.7,30.47,WSW,252,1.0,7.0,78,0.00,,---,0.00,VWS V14.01,2013-02-25 12:34:00,
2013-02-25 05:35:00,8.0,2.6,30.47,West,279,7.0,10.0,78,0.00,,---,0.00,VWS V14.01,2013-02-25 12:35:00,
2013-02-25 05:36:00,8.0,2.6,30.47,WSW,254,14.0,14.0,78,0.00,,---,0.00,VWS V14.01,2013-02-25 12:36:00,
2013-02-25 05:37:00,8.0,2.3,30.47,WNW,292,4.0,14.0,77,0.00,,---,0.00,VWS V14.01,2013-02-25 12:37:00,
2013-02-25 05:38:00,8.0,2.3,30.47,WSW,250,1.0,4.0,77,0.00,,---,0.00,VWS V14.01,2013-02-25 12:38:00,
2013-02-25 05:39:00,8.0,2.3,30.47,WSW,250,1.0,4.0,77,0.00,,---,0.00,VWS V14.01,2013-02-25 12:39:00,
2013-02-25 05:40:00,8.0,2.6,30.47,WNW,293,5.0,7.0,78,0.00,,---,0.00,VWS V14.01,2013-02-25 12:40:00,
2013-02-25 05:41:00,8.0,2.6,30.47,WNW,294,9.0,10.0,78,0.00,,---,0.00,VWS V14.01,2013-02-25 12:41:00,
2013-02-25 05:42:00,8.0,2.6,30.47,NW,321,3.0,11.0,78,0.00,,---,0.00,VWS V14.01,2013-02-25 12:42:00,
2013-02-25 05:43:00,8.0,2.6,30.47,West,278,4.0,7.0,78,0.00,,---,0.00,VWS V14.01,2013-02-25 12:43:00,
2013-02-25 05:44:00,8.0,2.6,30.47,West,267,4.0,7.0,78,0.00,,---,0.00,VWS V14.01,2013-02-25 12:44:00,
2013-02-25 05:45:00,8.0,2.6,30.47,West,261,4.0,10.0,78,0.00,,---,0.00,VWS V14.01,2013-02-25 12:45:00,
2013-02-25 05:46:00,8.0,2.6,30.47,West,265,8.0,8.0,78,0.00,,---,0.00,VWS V14.01,2013-02-25 12:46:00,
2013-02-25 05:47:00,8.0,2.6,30.48,WNW,295,4.0,8.0,78,0.00,,---,0.00,VWS V14.01,2013-02-25 12:47:00,
2013-02-25 05:48:00,8.0,2.6,30.48,WSW,238,3.0,12.0,78,0.00,,---,0.00,VWS V14.01,2013-02-25 12:48:00,
2013-02-25 05:49:00,8.0,2.6,30.48,West,265,10.0,12.0,78,0.00,,---,0.00,VWS V14.01,2013-02-25 12:49:00,
2013-02-25 05:50:00,8.0,2.6,30.48,WNW,299,0.0,4.0,78,0.00,,---,0.00,VWS V14.01,2013-02-25 12:50:00,
2013-02-25 05:51:00,8.0,2.6,30.48,West,276,1.0,7.0,78,0.00,,---,0.00,VWS V14.01,2013-02-25 12:51:00,
2013-02-25 05:52:00,7.9,2.5,30.48,West,269,6.0,7.0,78,0.00,,---,0.00,VWS V14.01,2013-02-25 12:52:00,
2013-02-25 05:53:00,7.9,2.5,30.48,NNW,330,4.0,11.0,78,0.00,,---,0.00,VWS V14.01,2013-02-25 12:53:00,
2013-02-25 05:54:00,7.9,2.5,30.48,NNW,335,11.0,11.0,78,0.00,,---,0.00,VWS V14.01,2013-02-25 12:54:00,
2013-02-25 05:55:00,7.8,2.4,30.48,WNW,292,8.0,9.0,78,0.00,,---,0.00,VWS V14.01,2013-02-25 12:55:00,
2013-02-25 05:56:00,7.8,2.4,30.48,WNW,288,3.0,9.0,78,0.00,,---,0.00,VWS V14.01,2013-02-25 12:56:00,
2013-02-25 05:57:00,7.8,2.4,30.47,SW,229,10.0,11.0,78,0.00,,---,0.00,VWS V14.01,2013-02-25 12:57:00,
2013-02-25 05:58:00,7.8,2.4,30.47,West,270,8.0,12.0,78,0.00,,---,0.00,VWS V14.01,2013-02-25 12:58:00,
2013-02-25 05:59:00,7.8,2.4,30.47,West,261,12.0,12.0,78,0.00,,---,0.00,VWS V14.01,2013-02-25 12:59:00,
2013-02-25 06:00:00,7.9,2.5,30.47,WNW,290,5.0,12.0,78,0.00,,---,0.00,VWS V14.01,2013-02-25 13:00:00,
2013-02-25 06:01:00,8.0,2.6,30.47,West,270,9.0,10.0,78,0.00,,---,0.00,VWS V14.01,2013-02-25 13:01:00,
2013-02-25 06:02:00,8.0,2.6,30.47,West,267,5.0,11.0,78,0.00,,---,0.00,VWS V14.01,2013-02-25 13:02:00,
2013-02-25 06:03:00,8.0,2.6,30.47,WNW,290,6.0,11.0,78,0.00,,---,0.00,VWS V14.01,2013-02-25 13:03:00,
2013-02-25 06:04:00,8.0,2.6,30.47,WSW,238,2.0,11.0,78,0.00,,---,0.00,VWS V14.01,2013-02-25 13:04:00,
2013-02-25 06:05:00,8.0,2.6,30.47,North,5,4.0,14.0,78,0.00,,---,0.00,VWS V14.01,2013-02-25 13:05:00,
2013-02-25 06:06:00,8.0,2.6,30.47,West,268,6.0,10.0,78,0.00,,---,0.00,VWS V14.01,2013-02-25 13:06:00,
2013-02-25 06:07:00,8.0,2.6,30.47,WNW,292,7.0,12.0,78,0.00,,---,0.00,VWS V14.01,2013-02-25 13:07:00,
2013-02-25 06:08:00,8.0,2.6,30.48,WNW,284,10.0,10.0,78,0.00,,---,0.00,VWS V14.01,2013-02-25 13:08:00,
2013-02-25 06:09:00,8.0,2.6,30.48,WNW,284,10.0,10.0,78,0.00,,---,0.00,VWS V14.01,2013-02-25 13:09:00,
2013-02-25 06:10:00,8.0,2.6,30.48,NW,312,10.0,12.0,78,0.00,,---,0.00,VWS V14.01,2013-02-25 13:10:00,
2013-02-25 06:11:00,8.0,2.3,30.48,NW,308,11.0,15.0,77,0.00,,---,0.00,VWS V14.01,2013-02-25 13:11:00,
2013-02-25 06:12:00,8.0,2.3,30.48,NW,316,6.0,11.0,77,0.00,,---,0.00,VWS V14.01,2013-02-25 13:12:00,
2013-02-25 06:13:00,8.0,2.6,30.48,NW,314,4.0,11.0,78,0.00,,---,0.00,VWS V14.01,2013-02-25 13:13:00,
2013-02-25 06:14:00,8.0,2.6,30.48,NW,308,10.0,10.0,78,0.00,,---,0.00,VWS V14.01,2013-02-25 13:14:00,
2013-02-25 06:15:00,8.0,2.6,30.48,NW,314,4.0,11.0,78,0.00,,---,0.00,VWS V14.01,2013-02-25 13:15:00,
2013-02-25 06:16:00,8.1,2.7,30.48,NNW,335,1.0,8.0,78,0.00,,---,0.00,VWS V14.01,2013-02-25 13:16:00,
2013-02-25 06:17:00,8.1,2.7,30.48,NW,320,5.0,9.0,78,0.00,,---,0.00,VWS V14.01,2013-02-25 13:17:00,
2013-02-25 06:18:00,8.1,2.4,30.48,WNW,302,3.0,12.0,77,0.00,,---,0.00,VWS V14.01,2013-02-25 13:18:00,
2013-02-25 06:19:00,8.1,2.4,30.48,NW,321,5.0,11.0,77,0.00,,---,0.00,VWS V14.01,2013-02-25 13:19:00,
2013-02-25 06:20:00,8.1,2.4,30.48,WNW,299,4.0,4.0,77,0.00,,---,0.00,VWS V14.01,2013-02-25 13:20:00,
2013-02-25 06:21:00,8.0,2.3,30.48,WNW,299,6.0,8.0,77,0.00,,---,0.00,VWS V14.01,2013-02-25 13:21:00,
2013-02-25 06:22:00,8.0,2.3,30.48,NW,314,3.0,6.0,77,0.00,,---,0.00,VWS V14.01,2013-02-25 13:22:00,
2013-02-25 06:23:00,7.9,2.2,30.48,WNW,298,4.0,10.0,77,0.00,,---,0.00,VWS V14.01,2013-02-25 13:23:00,
2013-02-25 06:24:00,7.8,2.1,30.48,WNW,292,7.0,9.0,77,0.00,,---,0.00,VWS V14.01,2013-02-25 13:24:00,
2013-02-25 06:25:00,7.9,2.2,30.48,WNW,292,5.0,5.0,77,0.00,,---,0.00,VWS V14.01,2013-02-25 13:25:00,
2013-02-25 06:26:00,7.7,2.0,30.48,WNW,285,6.0,9.0,77,0.00,,---,0.00,VWS V14.01,2013-02-25 13:26:00,
2013-02-25 06:27:00,7.8,2.1,30.48,NNW,331,3.0,7.0,77,0.00,,---,0.00,VWS V14.01,2013-02-25 13:27:00,
2013-02-25 06:28:00,7.8,2.1,30.48,NW,306,4.0,7.0,77,0.00,,---,0.00,VWS V14.01,2013-02-25 13:28:00,
2013-02-25 06:29:00,7.8,2.1,30.48,West,267,5.0,6.0,77,0.00,,---,0.00,VWS V14.01,2013-02-25 13:29:00,
2013-02-25 06:30:00,7.8,2.1,30.48,WNW,286,5.0,5.0,77,0.00,,---,0.00,VWS V14.01,2013-02-25 13:30:00,
2013-02-25 06:31:00,7.8,2.1,30.48,NW,306,2.0,8.0,77,0.00,,---,0.00,VWS V14.01,2013-02-25 13:31:00,
2013-02-25 06:32:00,7.8,2.1,30.48,WNW,289,2.0,8.0,77,0.00,,---,0.00,VWS V14.01,2013-02-25 13:32:00,
2013-02-25 06:33:00,7.8,2.1,30.48,WNW,286,5.0,6.0,77,0.00,,---,0.00,VWS V14.01,2013-02-25 13:33:00,
2013-02-25 06:34:00,7.8,2.1,30.48,WNW,299,10.0,10.0,77,0.00,,---,0.00,VWS V14.01,2013-02-25 13:34:00,
2013-02-25 06:35:00,7.8,2.1,30.48,West,265,2.0,5.0,77,0.00,,---,0.00,VWS V14.01,2013-02-25 13:35:00,
2013-02-25 06:36:00,8.0,2.3,30.48,West,275,6.0,8.0,77,0.00,,---,0.00,VWS V14.01,2013-02-25 13:36:00,
2013-02-25 06:37:00,8.1,2.4,30.48,West,281,8.0,8.0,77,0.00,,---,0.00,VWS V14.01,2013-02-25 13:37:00,
2013-02-25 06:38:00,8.1,2.4,30.48,West,272,4.0,8.0,77,0.00,,---,0.00,VWS V14.01,2013-02-25 13:38:00,
2013-02-25 06:39:00,8.2,2.5,30.48,NNW,337,4.0,7.0,77,0.00,,---,0.00,VWS V14.01,2013-02-25 13:39:00,
2013-02-25 06:40:00,8.2,2.5,30.48,NW,317,5.0,5.0,77,0.00,,---,0.00,VWS V14.01,2013-02-25 13:40:00,
2013-02-25 06:41:00,8.3,2.3,30.48,NNW,331,5.0,9.0,76,0.00,,---,0.00,VWS V14.01,2013-02-25 13:41:00,
2013-02-25 06:42:00,8.4,2.4,30.48,WNW,294,2.0,11.0,76,0.00,,---,0.00,VWS V14.01,2013-02-25 13:42:00,
2013-02-25 06:43:00,8.5,2.5,30.48,WNW,294,6.0,8.0,76,0.00,,---,0.00,VWS V14.01,2013-02-25 13:43:00,
2013-02-25 06:44:00,8.5,2.5,30.47,NW,309,11.0,11.0,76,0.00,,---,0.00,VWS V14.01,2013-02-25 13:44:00,
2013-02-25 06:45:00,8.5,2.5,30.48,WNW,291,6.0,6.0,76,0.00,,---,0.00,VWS V14.01,2013-02-25 13:45:00,
2013-02-25 06:46:00,8.5,2.5,30.48,North,355,2.0,6.0,76,0.00,,---,0.00,VWS V14.01,2013-02-25 13:46:00,
2013-02-25 06:47:00,8.5,2.5,30.48,North,355,0.0,3.0,76,0.00,,---,0.00,VWS V14.01,2013-02-25 13:47:00,
2013-02-25 06:48:00,8.4,2.4,30.48,NW,306,7.0,7.0,76,0.00,,---,0.00,VWS V14.01,2013-02-25 13:48:00,
2013-02-25 06:49:00,8.4,2.4,30.47,NNW,329,2.0,7.0,76,0.00,,---,0.00,VWS V14.01,2013-02-25 13:49:00,
2013-02-25 06:50:00,8.4,2.4,30.47,NW,304,3.0,7.0,76,0.00,,---,0.00,VWS V14.01,2013-02-25 13:50:00,
2013-02-25 06:51:00,8.3,2.3,30.47,West,265,5.0,6.0,76,0.00,,---,0.00,VWS V14.01,2013-02-25 13:51:00,
2013-02-25 06:52:00,8.3,2.3,30.48,West,261,0.0,5.0,76,0.00,,---,0.00,VWS V14.01,2013-02-25 13:52:00,
2013-02-25 06:53:00,8.2,2.2,30.47,SW,229,4.0,6.0,76,0.00,,---,0.00,VWS V14.01,2013-02-25 13:53:00,
2013-02-25 06:54:00,8.2,2.2,30.48,WSW,238,4.0,6.0,76,0.00,,---,0.00,VWS V14.01,2013-02-25 13:54:00,
2013-02-25 06:55:00,8.2,2.2,30.47,WSW,248,4.0,6.0,76,0.00,,---,0.00,VWS V14.01,2013-02-25 13:55:00,
2013-02-25 06:56:00,8.2,2.2,30.48,WSW,254,8.0,9.0,76,0.00,,---,0.00,VWS V14.01,2013-02-25 13:56:00,
2013-02-25 06:57:00,8.3,2.3,30.48,WNW,299,8.0,14.0,76,0.00,,---,0.00,VWS V14.01,2013-02-25 13:57:00,
2013-02-25 06:58:00,8.4,2.4,30.48,WNW,286,7.0,10.0,76,0.00,,---,0.00,VWS V14.01,2013-02-25 13:58:00,
2013-02-25 06:59:00,8.5,2.5,30.48,WSW,253,14.0,14.0,76,0.00,,---,0.00,VWS V14.01,2013-02-25 13:59:00,
2013-02-25 07:00:00,8.5,2.5,30.48,WNW,294,2.0,10.0,76,0.00,,---,0.00,VWS V14.01,2013-02-25 14:00:00,
2013-02-25 07:01:00,8.9,2.9,30.48,West,275,11.0,12.0,76,0.00,,---,0.00,VWS V14.01,2013-02-25 14:01:00,
2013-02-25 07:02:00,9.0,2.7,30.48,WSW,248,10.0,11.0,75,0.00,,---,0.00,VWS V14.01,2013-02-25 14:02:00,
2013-02-25 07:03:00,9.1,2.8,30.48,WNW,283,4.0,16.0,75,0.00,,---,0.00,VWS V14.01,2013-02-25 14:03:00,
2013-02-25 07:04:00,9.2,2.9,30.48,West,261,10.0,10.0,75,0.00,,---,0.00,VWS V14.01,2013-02-25 14:04:00,
2013-02-25 07:05:00,9.2,2.9,30.48,WNW,284,0.0,6.0,75,0.00,,---,0.00,VWS V14.01,2013-02-25 14:05:00,
2013-02-25 07:06:00,9.3,3.0,30.48,WSW,251,5.0,8.0,75,0.00,,---,0.00,VWS V14.01,2013-02-25 14:06:00,
2013-02-25 07:07:00,9.4,2.8,30.48,WSW,256,1.0,9.0,74,0.00,,---,0.00,VWS V14.01,2013-02-25 14:07:00,
2013-02-25 07:08:00,9.4,3.1,30.48,WSW,251,2.0,8.0,75,0.00,,---,0.00,VWS V14.01,2013-02-25 14:08:00,
2013-02-25 07:09:00,9.4,2.8,30.48,SW,222,10.0,10.0,74,0.00,,---,0.00,VWS V14.01,2013-02-25 14:09:00,
2013-02-25 07:10:00,9.5,2.9,30.48,SW,222,6.0,10.0,74,0.00,,---,0.00,VWS V14.01,2013-02-25 14:10:00,
2013-02-25 07:11:00,9.4,2.8,30.48,WSW,238,4.0,7.0,74,0.00,,---,0.00,VWS V14.01,2013-02-25 14:11:00,
2013-02-25 07:12:00,9.5,2.9,30.48,SSW,209,1.0,6.0,74,0.00,,---,0.00,VWS V14.01,2013-02-25 14:12:00,
2013-02-25 07:13:00,9.5,2.9,30.48,SSW,209,2.0,2.0,74,0.00,,---,0.00,VWS V14.01,2013-02-25 14:13:00,
2013-02-25 07:14:00,9.5,2.9,30.48,WSW,237,5.0,8.0,74,0.00,,---,0.00,VWS V14.01,2013-02-25 14:14:00,
2013-02-25 07:15:00,9.5,2.9,30.48,WSW,237,1.0,5.0,74,0.00,,---,0.00,VWS V14.01,2013-02-25 14:15:00,
2013-02-25 07:16:00,9.5,2.9,30.48,WSW,237,2.0,5.0,74,0.00,,---,0.00,VWS V14.01,2013-02-25 14:16:00,
2013-02-25 07:17:00,9.5,2.9,30.48,WSW,243,8.0,10.0,74,0.00,,---,0.00,VWS V14.01,2013-02-25 14:17:00,
2013-02-25 07:18:00,9.5,2.6,30.48,SSW,202,4.0,8.0,73,0.00,,---,0.00,VWS V14.01,2013-02-25 14:18:00,
2013-02-25 07:19:00,9.6,2.7,30.48,WSW,254,2.0,10.0,73,0.00,,---,0.00,VWS V14.01,2013-02-25 14:19:00,
2013-02-25 07:20:00,9.6,2.7,30.48,South,191,6.0,8.0,73,0.00,,---,0.00,VWS V14.01,2013-02-25 14:20:00,
2013-02-25 07:21:00,9.6,2.7,30.48,WSW,254,2.0,2.0,73,0.00,,---,0.00,VWS V14.01,2013-02-25 14:21:00,
2013-02-25 07:22:00,9.6,2.7,30.48,West,273,4.0,4.0,73,0.00,,---,0.00,VWS V14.01,2013-02-25 14:22:00,
2013-02-25 07:23:00,9.6,2.7,30.48,WSW,255,8.0,14.0,73,0.00,,---,0.00,VWS V14.01,2013-02-25 14:23:00,
2013-02-25 07:24:00,9.6,2.7,30.48,WSW,257,5.0,11.0,73,0.00,,---,0.00,VWS V14.01,2013-02-25 14:24:00,
2013-02-25 07:25:00,9.7,2.8,30.48,SSW,209,6.0,10.0,73,0.00,,---,0.00,VWS V14.01,2013-02-25 14:25:00,
2013-02-25 07:26:00,9.6,2.7,30.48,WSW,257,5.0,11.0,73,0.00,,---,0.00,VWS V14.01,2013-02-25 14:26:00,
2013-02-25 07:27:00,9.7,2.8,30.48,SW,225,9.0,11.0,73,0.00,,---,0.00,VWS V14.01,2013-02-25 14:27:00,
2013-02-25 07:28:00,9.8,2.9,30.48,WSW,247,12.0,18.0,73,0.00,,---,0.00,VWS V14.01,2013-02-25 14:28:00,
2013-02-25 07:29:00,9.9,3.0,30.48,West,281,11.0,12.0,73,0.00,,---,0.00,VWS V14.01,2013-02-25 14:29:00,
2013-02-25 07:30:00,10.0,3.1,30.48,West,265,6.0,15.0,73,0.00,,---,0.00,VWS V14.01,2013-02-25 14:30:00,
2013-02-25 07:31:00,9.9,3.0,30.48,WNW,287,9.0,11.0,73,0.00,,---,0.00,VWS V14.01,2013-02-25 14:31:00,
2013-02-25 07:32:00,10.2,3.3,30.49,WNW,282,4.0,11.0,73,0.00,,---,0.00,VWS V14.01,2013-02-25 14:32:00,
2013-02-25 07:33:00,10.3,3.4,30.48,WSW,255,4.0,12.0,73,0.00,,---,0.00,VWS V14.01,2013-02-25 14:33:00,
2013-02-25 07:34:00,10.5,3.6,30.48,WSW,251,8.0,13.0,73,0.00,,---,0.00,VWS V14.01,2013-02-25 14:34:00,
2013-02-25 07:35:00,10.7,3.8,30.49,West,262,6.0,8.0,73,0.00,,---,0.00,VWS V14.01,2013-02-25 14:35:00,
2013-02-25 07:36:00,10.5,3.6,30.48,West,279,7.0,8.0,73,0.00,,---,0.00,VWS V14.01,2013-02-25 14:36:00,
2013-02-25 07:37:00,11.0,3.8,30.49,SW,225,11.0,14.0,72,0.00,,---,0.00,VWS V14.01,2013-02-25 14:37:00,
2013-02-25 07:38:00,11.3,4.1,30.49,SW,235,7.0,11.0,72,0.00,,---,0.00,VWS V14.01,2013-02-25 14:38:00,
2013-02-25 07:39:00,11.4,4.1,30.49,West,275,7.0,11.0,72,0.00,,---,0.00,VWS V14.01,2013-02-25 14:39:00,
2013-02-25 07:40:00,11.6,4.3,30.49,West,263,2.0,8.0,72,0.00,,---,0.00,VWS V14.01,2013-02-25 14:40:00,
2013-02-25 07:41:00,11.4,4.1,30.49,WSW,252,8.0,8.0,72,0.00,,---,0.00,VWS V14.01,2013-02-25 14:41:00,
2013-02-25 07:42:00,11.9,4.6,30.49,WSW,249,4.0,6.0,72,0.00,,---,0.00,VWS V14.01,2013-02-25 14:42:00,
2013-02-25 07:43:00,12.0,4.4,30.49,WSW,237,6.0,6.0,71,0.00,,---,0.00,VWS V14.01,2013-02-25 14:43:00,
2013-02-25 07:44:00,12.2,4.6,30.49,WSW,254,5.0,6.0,71,0.00,,---,0.00,VWS V14.01,2013-02-25 14:44:00,
2013-02-25 07:45:00,12.3,4.7,30.49,WSW,238,7.0,10.0,71,0.00,,---,0.00,VWS V14.01,2013-02-25 14:45:00,
2013-02-25 07:46:00,12.3,4.7,30.49,SW,223,6.0,7.0,71,0.00,,---,0.00,VWS V14.01,2013-02-25 14:46:00,
2013-02-25 07:47:00,12.6,4.7,30.49,WSW,249,5.0,9.0,70,0.00,,---,0.00,VWS V14.01,2013-02-25 14:47:00,
2013-02-25 07:48:00,12.7,5.1,30.49,WNW,286,2.0,5.0,71,0.00,,---,0.00,VWS V14.01,2013-02-25 14:48:00,
2013-02-25 07:49:00,12.9,5.3,30.49,West,271,4.0,5.0,71,0.00,,---,0.00,VWS V14.01,2013-02-25 14:49:00,
2013-02-25 07:50:00,13.0,5.1,30.49,SSW,198,7.0,9.0,70,0.00,,---,0.00,VWS V14.01,2013-02-25 14:50:00,
2013-02-25 07:51:00,12.9,5.3,30.49,West,269,3.0,4.0,71,0.00,,---,0.00,VWS V14.01,2013-02-25 14:51:00,
2013-02-25 07:52:00,13.2,5.3,30.49,South,180,4.0,6.0,70,0.00,,---,0.00,VWS V14.01,2013-02-25 14:52:00,
2013-02-25 07:53:00,13.3,5.4,30.49,South,180,1.0,4.0,70,0.00,,---,0.00,VWS V14.01,2013-02-25 14:53:00,
2013-02-25 07:54:00,13.5,5.6,30.49,South,188,0.0,6.0,70,0.00,,---,0.00,VWS V14.01,2013-02-25 14:54:00,
2013-02-25 07:55:00,13.6,5.7,30.49,SSW,206,4.0,4.0,70,0.00,,---,0.00,VWS V14.01,2013-02-25 14:55:00,
2013-02-25 07:56:00,13.5,5.6,30.49,SSW,205,4.0,4.0,70,0.00,,---,0.00,VWS V14.01,2013-02-25 14:56:00,
2013-02-25 07:57:00,13.9,5.6,30.49,SW,224,2.0,8.0,69,0.00,,---,0.00,VWS V14.01,2013-02-25 14:57:00,
2013-02-25 07:58:00,14.0,5.7,30.49,SW,221,1.0,6.0,69,0.00,,---,0.00,VWS V14.01,2013-02-25 14:58:00,
2013-02-25 07:59:00,14.1,6.1,30.49,SW,221,4.0,6.0,70,0.00,,---,0.00,VWS V14.01,2013-02-25 14:59:00,
2013-02-25 08:00:00,14.2,6.2,30.49,SW,221,1.0,5.0,70,0.00,,---,0.00,VWS V14.01,2013-02-25 15:00:00,
2013-02-25 08:01:00,14.2,6.2,30.49,SW,221,4.0,4.0,70,0.00,,---,0.00,VWS V14.01,2013-02-25 15:01:00,
2013-02-25 08:02:00,14.4,5.8,30.49,WSW,252,4.0,7.0,68,0.00,,---,0.00,VWS V14.01,2013-02-25 15:02:00,
2013-02-25 08:03:00,14.5,5.9,30.49,SW,218,2.0,5.0,68,0.00,,---,0.00,VWS V14.01,2013-02-25 15:03:00,
2013-02-25 08:04:00,14.6,5.7,30.49,SW,219,5.0,5.0,67,0.00,,---,0.00,VWS V14.01,2013-02-25 15:04:00,
2013-02-25 08:05:00,14.7,5.8,30.49,SW,219,4.0,5.0,67,0.00,,---,0.00,VWS V14.01,2013-02-25 15:05:00,
2013-02-25 08:06:00,14.7,5.8,30.49,SW,219,4.0,5.0,67,0.00,,---,0.00,VWS V14.01,2013-02-25 15:06:00,
2013-02-25 08:07:00,15.0,5.7,30.49,SW,216,4.0,5.0,66,0.00,,---,0.00,VWS V14.01,2013-02-25 15:07:00,
2013-02-25 08:08:00,15.1,6.1,30.49,SSW,201,2.0,6.0,67,0.00,,---,0.00,VWS V14.01,2013-02-25 15:08:00,
2013-02-25 08:09:00,15.3,6.3,30.49,SSW,201,3.0,5.0,67,0.00,,---,0.00,VWS V14.01,2013-02-25 15:09:00,
2013-02-25 08:10:00,15.4,6.4,30.49,SW,215,6.0,11.0,67,0.00,,---,0.00,VWS V14.01,2013-02-25 15:10:00,
2013-02-25 08:11:00,15.3,6.3,30.49,SW,217,8.0,11.0,67,0.00,,---,0.00,VWS V14.01,2013-02-25 15:11:00,
2013-02-25 08:12:00,15.7,6.4,30.49,WSW,246,2.0,7.0,66,0.00,,---,0.00,VWS V14.01,2013-02-25 15:12:00,
2013-02-25 08:13:00,15.8,6.1,30.49,SSW,196,6.0,7.0,65,0.00,,---,0.00,VWS V14.01,2013-02-25 15:13:00,
2013-02-25 08:14:00,15.9,6.2,30.49,SSW,209,2.0,7.0,65,0.00,,---,0.00,VWS V14.01,2013-02-25 15:14:00,
2013-02-25 08:15:00,16.0,6.3,30.49,SSW,204,7.0,7.0,65,0.00,,---,0.00,VWS V14.01,2013-02-25 15:15:00,
2013-02-25 08:16:00,16.0,6.3,30.49,SSW,208,7.0,7.0,65,0.00,,---,0.00,VWS V14.01,2013-02-25 15:16:00,
2013-02-25 08:17:00,16.3,6.3,30.49,SSW,202,2.0,4.0,64,0.00,,---,0.00,VWS V14.01,2013-02-25 15:17:00,
2013-02-25 08:18:00,16.4,6.4,30.49,SSW,202,4.0,4.0,64,0.00,,---,0.00,VWS V14.01,2013-02-25 15:18:00,
2013-02-25 08:19:00,16.5,6.5,30.49,SSW,202,1.0,5.0,64,0.00,,---,0.00,VWS V14.01,2013-02-25 15:19:00,
2013-02-25 08:20:00,16.6,6.2,30.49,SSW,202,6.0,6.0,63,0.00,,---,0.00,VWS V14.01,2013-02-25 15:20:00,
2013-02-25 08:21:00,16.6,6.2,30.49,SSW,202,5.0,6.0,63,0.00,,---,0.00,VWS V14.01,2013-02-25 15:21:00,
2013-02-25 08:22:00,16.8,6.8,30.49,SW,232,6.0,9.0,64,0.00,,---,0.00,VWS V14.01,2013-02-25 15:22:00,
2013-02-25 08:23:00,16.9,6.5,30.49,SW,232,2.0,7.0,63,0.00,,---,0.00,VWS V14.01,2013-02-25 15:23:00,
2013-02-25 08:24:00,17.0,6.9,30.49,SW,232,2.0,6.0,64,0.00,,---,0.00,VWS V14.01,2013-02-25 15:24:00,
2013-02-25 08:25:00,17.2,7.1,30.49,SW,232,2.0,3.0,64,0.00,,---,0.00,VWS V14.01,2013-02-25 15:25:00,
2013-02-25 08:26:00,17.3,7.2,30.49,SW,232,4.0,4.0,64,0.00,,---,0.00,VWS V14.01,2013-02-25 15:26:00,
2013-02-25 08:27:00,17.2,7.1,30.49,SW,232,2.0,3.0,64,0.00,,---,0.00,VWS V14.01,2013-02-25 15:27:00,
2013-02-25 08:28:00,17.5,6.7,30.49,WSW,248,8.0,9.0,62,0.00,,---,0.00,VWS V14.01,2013-02-25 15:28:00,
2013-02-25 08:29:00,17.5,6.4,30.49,SW,234,7.0,13.0,61,0.00,,---,0.00,VWS V14.01,2013-02-25 15:29:00,
2013-02-25 08:30:00,17.6,6.1,30.48,WSW,248,5.0,9.0,60,0.00,,---,0.00,VWS V14.01,2013-02-25 15:30:00,
2013-02-25 08:31:00,17.7,6.6,30.48,South,186,2.0,6.0,61,0.00,,---,0.00,VWS V14.01,2013-02-25 15:31:00,
2013-02-25 08:32:00,17.6,6.1,30.48,WSW,248,5.0,9.0,60,0.00,,---,0.00,VWS V14.01,2013-02-25 15:32:00,
2013-02-25 08:33:00,17.9,7.1,30.48,SW,225,0.0,5.0,62,0.00,,---,0.00,VWS V14.01,2013-02-25 15:33:00,
2013-02-25 08:34:00,18.0,7.5,30.48,WSW,238,6.0,6.0,63,0.00,,---,0.00,VWS V14.01,2013-02-25 15:34:00,
2013-02-25 08:35:00,18.1,7.3,30.48,WSW,247,7.0,12.0,62,0.00,,---,0.00,VWS V14.01,2013-02-25 15:35:00,
2013-02-25 08:36:00,18.2,7.0,30.48,WSW,240,6.0,9.0,61,0.00,,---,0.00,VWS V14.01,2013-02-25 15:36:00,
2013-02-25 08:37:00,18.1,7.3,30.48,WSW,247,7.0,12.0,62,0.00,,---,0.00,VWS V14.01,2013-02-25 15:37:00,
2013-02-25 08:38:00,18.3,6.8,30.48,WSW,248,16.0,19.0,60,0.00,,---,0.00,VWS V14.01,2013-02-25 15:38:00,
2013-02-25 08:39:00,18.2,6.3,30.48,WSW,249,6.0,16.0,59,0.00,,---,0.00,VWS V14.01,2013-02-25 15:39:00,
2013-02-25 08:40:00,18.2,6.3,30.48,WSW,238,6.0,13.0,59,0.00,,---,0.00,VWS V14.01,2013-02-25 15:40:00,
2013-02-25 08:41:00,18.2,6.3,30.48,West,259,10.0,10.0,59,0.00,,---,0.00,VWS V14.01,2013-02-25 15:41:00,
2013-02-25 08:42:00,18.2,6.3,30.48,SW,218,5.0,6.0,59,0.00,,---,0.00,VWS V14.01,2013-02-25 15:42:00,
2013-02-25 08:43:00,18.2,6.3,30.48,WSW,245,4.0,10.0,59,0.00,,---,0.00,VWS V14.01,2013-02-25 15:43:00,
2013-02-25 08:44:00,18.3,6.8,30.48,West,271,2.0,8.0,60,0.00,,---,0.00,VWS V14.01,2013-02-25 15:44:00,
2013-02-25 08:45:00,18.4,7.2,30.48,West,269,3.0,4.0,61,0.01,,---,0.01,VWS V14.01,2013-02-25 15:45:00,
2013-02-25 08:46:00,18.5,7.3,30.48,SW,226,9.0,9.0,61,0.01,,---,0.01,VWS V14.01,2013-02-25 15:46:00,
2013-02-25 08:47:00,18.4,7.2,30.48,West,269,1.0,3.0,61,0.01,,---,0.01,VWS V14.01,2013-02-25 15:47:00,
2013-02-25 08:48:00,18.7,7.1,30.48,WSW,248,5.0,14.0,60,0.01,,---,0.01,VWS V14.01,2013-02-25 15:48:00,
2013-02-25 08:49:00,18.7,7.1,30.48,WSW,256,8.0,14.0,60,0.01,,---,0.01,VWS V14.01,2013-02-25 15:49:00,
2013-02-25 08:50:00,18.8,6.9,30.48,SW,225,5.0,9.0,59,0.01,,---,0.01,VWS V14.01,2013-02-25 15:50:00,
2013-02-25 08:51:00,18.8,6.9,30.48,NW,306,5.0,13.0,59,0.01,,---,0.01,VWS V14.01,2013-02-25 15:51:00,
2013-02-25 08:52:00,18.8,6.9,30.48,West,279,6.0,10.0,59,0.01,,---,0.01,VWS V14.01,2013-02-25 15:52:00,
2013-02-25 08:53:00,18.9,6.9,30.48,SSW,213,7.0,12.0,59,0.02,,---,0.02,VWS V14.01,2013-02-25 15:53:00,
2013-02-25 08:54:00,18.9,6.6,30.48,WSW,239,5.0,10.0,58,0.02,,---,0.02,VWS V14.01,2013-02-25 15:54:00,
2013-02-25 08:55:00,19.0,6.7,30.48,SSW,211,7.0,11.0,58,0.02,,---,0.02,VWS V14.01,2013-02-25 15:55:00,
2013-02-25 08:56:00,19.1,7.1,30.48,WSW,255,7.0,13.0,59,0.02,,---,0.02,VWS V14.01,2013-02-25 15:56:00,
2013-02-25 08:57:00,19.0,6.7,30.48,SSW,211,1.0,7.0,58,0.02,,---,0.02,VWS V14.01,2013-02-25 15:57:00,
2013-02-25 08:58:00,19.4,7.4,30.48,West,267,7.0,13.0,59,0.02,,---,0.02,VWS V14.01,2013-02-25 15:58:00,
2013-02-25 08:59:00,19.5,7.1,30.48,SW,229,5.0,13.0,58,0.02,,---,0.02,VWS V14.01,2013-02-25 15:59:00,
2013-02-25 09:00:00,19.6,7.2,30.47,WSW,244,8.0,12.0,58,0.02,,---,0.02,VWS V14.01,2013-02-25 16:00:00,
2013-02-25 09:01:00,19.6,7.2,30.47,WNW,292,3.0,8.0,58,0.02,,---,0.02,VWS V14.01,2013-02-25 16:01:00,
2013-02-25 09:02:00,19.5,7.1,30.47,WSW,257,3.0,8.0,58,0.02,,---,0.02,VWS V14.01,2013-02-25 16:02:00,
2013-02-25 09:03:00,19.7,7.7,30.47,West,270,8.0,18.0,59,0.02,,---,0.02,VWS V14.01,2013-02-25 16:03:00,
2013-02-25 09:04:00,19.8,7.4,30.47,WSW,250,10.0,14.0,58,0.02,,---,0.02,VWS V14.01,2013-02-25 16:04:00,
2013-02-25 09:05:00,19.8,7.0,30.47,WSW,247,4.0,14.0,57,0.02,,---,0.02,VWS V14.01,2013-02-25 16:05:00,
2013-02-25 09:06:00,19.8,7.0,30.47,WSW,258,4.0,15.0,57,0.03,,---,0.03,VWS V14.01,2013-02-25 16:06:00,
2013-02-25 09:07:00,19.8,7.0,30.47,WNW,282,12.0,15.0,57,0.02,,---,0.02,VWS V14.01,2013-02-25 16:07:00,
2013-02-25 09:08:00,19.9,6.8,30.47,West,267,11.0,15.0,56,0.03,,---,0.03,VWS V14.01,2013-02-25 16:08:00,
2013-02-25 09:09:00,19.9,6.8,30.47,WSW,252,6.0,16.0,56,0.03,,---,0.03,VWS V14.01,2013-02-25 16:09:00,
2013-02-25 09:10:00,20.0,6.8,30.47,West,281,8.0,10.0,56,0.03,,---,0.03,VWS V14.01,2013-02-25 16:10:00,
2013-02-25 09:11:00,20.1,7.3,30.47,WSW,240,10.0,10.0,57,0.03,,---,0.03,VWS V14.01,2013-02-25 16:11:00,
2013-02-25 09:12:00,20.0,7.2,30.47,WNW,286,5.0,8.0,57,0.03,,---,0.03,VWS V14.01,2013-02-25 16:12:00,
2013-02-25 09:13:00,20.2,7.0,30.46,SSW,213,5.0,9.0,56,0.04,,---,0.04,VWS V14.01,2013-02-25 16:13:00,
2013-02-25 09:14:00,20.2,7.0,30.47,WSW,252,8.0,14.0,56,0.04,,---,0.04,VWS V14.01,2013-02-25 16:14:00,
2013-02-25 09:15:00,20.3,7.1,30.47,WNW,287,8.0,13.0,56,0.04,,---,0.04,VWS V14.01,2013-02-25 16:15:00,
2013-02-25 09:16:00,20.4,7.2,30.47,West,276,5.0,11.0,56,0.04,,---,0.04,VWS V14.01,2013-02-25 16:16:00,
2013-02-25 09:17:00,20.4,7.2,30.47,NW,307,9.0,11.0,56,0.04,,---,0.04,VWS V14.01,2013-02-25 16:17:00,
2013-02-25 09:18:00,20.6,7.8,30.47,West,273,4.0,9.0,57,0.04,,---,0.04,VWS V14.01,2013-02-25 16:18:00,
2013-02-25 09:19:00,20.7,7.5,30.46,West,270,2.0,8.0,56,0.04,,---,0.04,VWS V14.01,2013-02-25 16:19:00,
2013-02-25 09:20:00,20.9,7.7,30.47,SW,236,5.0,10.0,56,0.04,,---,0.04,VWS V14.01,2013-02-25 16:20:00,
2013-02-25 09:21:00,21.0,7.8,30.47,West,261,5.0,10.0,56,0.04,,---,0.04,VWS V14.01,2013-02-25 16:21:00,
2013-02-25 09:22:00,21.0,7.8,30.47,SSW,212,4.0,10.0,56,0.04,,---,0.04,VWS V14.01,2013-02-25 16:22:00,
2013-02-25 09:23:00,21.3,8.4,30.47,SW,223,8.0,8.0,57,0.05,,---,0.05,VWS V14.01,2013-02-25 16:23:00,
2013-02-25 09:24:00,21.4,8.1,30.47,West,274,1.0,10.0,56,0.05,,---,0.05,VWS V14.01,2013-02-25 16:24:00,
2013-02-25 09:25:00,21.5,7.8,30.47,West,259,5.0,6.0,55,0.05,,---,0.05,VWS V14.01,2013-02-25 16:25:00,
2013-02-25 09:26:00,21.6,7.9,30.47,West,266,8.0,10.0,55,0.05,,---,0.05,VWS V14.01,2013-02-25 16:26:00,
2013-02-25 09:27:00,21.6,7.9,30.47,WSW,243,8.0,10.0,55,0.05,,---,0.05,VWS V14.01,2013-02-25 16:27:00,
2013-02-25 09:28:00,21.7,6.8,30.46,West,259,11.0,15.0,52,0.05,,---,0.05,VWS V14.01,2013-02-25 16:28:00,
2013-02-25 09:29:00,21.7,6.8,30.46,West,259,10.0,11.0,52,0.06,,---,0.06,VWS V14.01,2013-02-25 16:29:00,
2013-02-25 09:30:00,21.8,7.3,30.46,West,265,7.0,10.0,53,0.06,,---,0.06,VWS V14.01,2013-02-25 16:30:00,
2013-02-25 09:31:00,21.8,7.7,30.46,SSW,213,12.0,12.0,54,0.06,,---,0.06,VWS V14.01,2013-02-25 16:31:00,
2013-02-25 09:32:00,21.8,7.7,30.46,WSW,249,7.0,9.0,54,0.06,,---,0.06,VWS V14.01,2013-02-25 16:32:00,
2013-02-25 09:33:00,22.0,7.5,30.46,WSW,255,11.0,13.0,53,0.06,,---,0.06,VWS V14.01,2013-02-25 16:33:00,
2013-02-25 09:34:00,22.1,7.6,30.46,West,269,5.0,11.0,53,0.06,,---,0.06,VWS V14.01,2013-02-25 16:34:00,
2013-02-25 09:35:00,22.2,7.7,30.46,West,269,1.0,5.0,53,0.06,,---,0.06,VWS V14.01,2013-02-25 16:35:00,
2013-02-25 09:36:00,22.3,8.6,30.46,West,260,0.0,7.0,55,0.06,,---,0.06,VWS V14.01,2013-02-25 16:36:00,
2013-02-25 09:37:00,22.3,8.6,30.46,West,259,5.0,7.0,55,0.06,,---,0.06,VWS V14.01,2013-02-25 16:37:00,
2013-02-25 09:38:00,22.6,8.5,30.46,WSW,242,6.0,11.0,54,0.07,,---,0.07,VWS V14.01,2013-02-25 16:38:00,
2013-02-25 09:39:00,22.7,9.0,30.46,SW,233,3.0,6.0,55,0.07,,---,0.07,VWS V14.01,2013-02-25 16:39:00,
2013-02-25 09:40:00,22.9,8.8,30.46,SW,229,5.0,8.0,54,0.07,,---,0.07,VWS V14.01,2013-02-25 16:40:00,
2013-02-25 09:41:00,23.0,8.9,30.46,NW,309,6.0,10.0,54,0.07,,---,0.07,VWS V14.01,2013-02-25 16:41:00,
2013-02-25 09:42:00,23.0,8.9,30.46,West,281,9.0,10.0,54,0.07,,---,0.07,VWS V14.01,2013-02-25 16:42:00,
2013-02-25 09:43:00,23.2,7.3,30.46,WSW,251,4.0,9.0,50,0.07,,---,0.07,VWS V14.01,2013-02-25 16:43:00,
2013-02-25 09:44:00,23.2,6.9,30.46,SSW,210,8.0,8.0,49,0.08,,---,0.08,VWS V14.01,2013-02-25 16:44:00,
2013-02-25 09:45:00,23.3,7.9,30.46,WSW,254,10.0,13.0,51,0.08,,---,0.08,VWS V14.01,2013-02-25 16:45:00,
2013-02-25 09:46:00,23.3,7.4,30.46,WSW,251,5.0,12.0,50,0.07,,---,0.08,VWS V14.01,2013-02-25 16:46:00,
2013-02-25 09:47:00,23.3,7.4,30.46,WSW,251,5.0,12.0,50,0.07,,---,0.08,VWS V14.01,2013-02-25 16:47:00,
2013-02-25 09:48:00,23.4,7.5,30.46,West,279,7.0,10.0,50,0.07,,---,0.08,VWS V14.01,2013-02-25 16:48:00,
2013-02-25 09:49:00,23.5,8.1,30.46,West,267,9.0,13.0,51,0.07,,---,0.08,VWS V14.01,2013-02-25 16:49:00,
2013-02-25 09:50:00,23.6,8.1,30.46,WSW,240,7.0,14.0,51,0.07,,---,0.08,VWS V14.01,2013-02-25 16:50:00,
2013-02-25 09:51:00,23.7,7.8,30.46,WSW,257,4.0,11.0,50,0.07,,---,0.08,VWS V14.01,2013-02-25 16:51:00,
2013-02-25 09:52:00,23.7,7.8,30.46,WSW,257,5.0,11.0,50,0.07,,---,0.08,VWS V14.01,2013-02-25 16:52:00,
2013-02-25 09:53:00,23.9,9.3,30.46,West,261,2.0,6.0,53,0.07,,---,0.08,VWS V14.01,2013-02-25 16:53:00,
2013-02-25 09:54:00,24.1,9.5,30.46,WSW,246,2.0,5.0,53,0.06,,---,0.08,VWS V14.01,2013-02-25 16:54:00,
2013-02-25 09:55:00,24.3,9.2,30.45,SW,227,6.0,8.0,52,0.07,,---,0.09,VWS V14.01,2013-02-25 16:55:00,
2013-02-25 10:46:00,29.2,10.0,30.43,SW,226,5.0,8.0,44,0.12,,---,0.14,VWS V14.01,2013-02-25 17:46:00,
2013-02-25 10:47:00,29.2,9.0,30.43,SW,224,6.0,6.0,42,0.06,,---,0.14,VWS V14.01,2013-02-25 17:47:00,
2013-02-25 10:48:00,29.2,10.0,30.43,SW,226,5.0,8.0,44,0.12,,---,0.14,VWS V14.01,2013-02-25 17:48:00,
2013-02-25 10:49:00,29.5,8.7,30.43,West,260,5.0,5.0,41,0.06,,---,0.14,VWS V14.01,2013-02-25 17:49:00,
2013-02-25 10:50:00,29.6,9.3,30.43,SW,221,2.0,5.0,42,0.06,,---,0.14,VWS V14.01,2013-02-25 17:50:00,
2013-02-25 10:51:00,29.7,11.0,30.43,SW,221,1.0,2.0,45,0.06,,---,0.14,VWS V14.01,2013-02-25 17:51:00,
2013-02-25 10:52:00,29.8,9.0,30.43,SSW,212,2.0,8.0,41,0.06,,---,0.14,VWS V14.01,2013-02-25 17:52:00,
2013-02-25 10:53:00,29.7,11.0,30.43,SW,217,8.0,8.0,45,0.06,,---,0.14,VWS V14.01,2013-02-25 17:53:00,
2013-02-25 10:54:00,29.8,9.5,30.43,WSW,246,5.0,7.0,42,0.07,,---,0.15,VWS V14.01,2013-02-25 17:54:00,
2013-02-25 10:55:00,29.8,8.4,30.43,WNW,282,8.0,11.0,40,0.07,,---,0.15,VWS V14.01,2013-02-25 17:55:00,
2013-02-25 10:56:00,29.7,8.4,30.43,West,259,8.0,10.0,40,0.06,,---,0.15,VWS V14.01,2013-02-25 17:56:00,
2013-02-25 10:57:00,29.6,7.7,30.43,NW,309,9.0,9.0,39,0.01,,---,0.15,VWS V14.01,2013-02-25 17:57:00,
2013-02-25 10:58:00,29.6,8.3,30.43,SW,234,6.0,8.0,40,0.01,,---,0.15,VWS V14.01,2013-02-25 17:58:00,
2013-02-25 10:59:00,29.5,7.6,30.43,NW,317,7.0,7.0,39,0.01,,---,0.15,VWS V14.01,2013-02-25 17:59:00,
2013-02-25 11:00:00,29.4,7.5,30.43,WNW,292,6.0,11.0,39,0.01,,---,0.15,VWS V14.01,2013-02-25 18:00:00,
2013-02-25 11:01:00,29.3,6.9,30.43,WNW,293,5.0,8.0,38,0.01,,---,0.15,VWS V14.01,2013-02-25 18:01:00,
2013-02-25 11:02:00,29.3,9.1,30.43,West,271,2.0,5.0,42,0.02,,---,0.16,VWS V14.01,2013-02-25 18:02:00,
2013-02-25 11:03:00,29.3,7.4,30.43,WNW,301,2.0,5.0,39,0.01,,---,0.15,VWS V14.01,2013-02-25 18:03:00,
2013-02-25 11:04:00,29.4,9.2,30.43,SW,225,2.0,6.0,42,0.02,,---,0.16,VWS V14.01,2013-02-25 18:04:00,
2013-02-25 11:05:00,29.5,8.7,30.43,SW,225,3.0,5.0,41,0.02,,---,0.16,VWS V14.01,2013-02-25 18:05:00,
2013-02-25 11:06:00,29.6,8.8,30.43,WSW,248,2.0,4.0,41,0.02,,---,0.16,VWS V14.01,2013-02-25 18:06:00,
2013-02-25 11:07:00,29.7,8.9,30.42,SSW,202,6.0,8.0,41,0.02,,---,0.16,VWS V14.01,2013-02-25 18:07:00,
2013-02-25 11:08:00,29.7,9.4,30.42,West,270,6.0,12.0,42,0.02,,---,0.16,VWS V14.01,2013-02-25 18:08:00,
2013-02-25 11:09:00,29.7,9.4,30.42,WSW,248,8.0,12.0,42,0.02,,---,0.16,VWS V14.01,2013-02-25 18:09:00,
2013-02-25 11:10:00,29.8,9.5,30.42,West,270,5.0,10.0,42,0.02,,---,0.16,VWS V14.01,2013-02-25 18:10:00,
2013-02-25 11:11:00,29.8,9.0,30.42,WSW,248,5.0,8.0,41,0.02,,---,0.16,VWS V14.01,2013-02-25 18:11:00,
2013-02-25 11:12:00,29.8,9.5,30.42,SW,225,5.0,9.0,42,0.03,,---,0.17,VWS V14.01,2013-02-25 18:12:00,
2013-02-25 11:13:00,29.8,9.5,30.42,SSW,202,7.0,12.0,42,0.03,,---,0.17,VWS V14.01,2013-02-25 18:13:00,
2013-02-25 11:14:00,29.8,9.0,30.42,SSW,202,7.0,10.0,41,0.03,,---,0.17,VWS V14.01,2013-02-25 18:14:00,
2013-02-25 11:15:00,29.7,8.9,30.42,WSW,248,6.0,9.0,41,0.03,,---,0.17,VWS V14.01,2013-02-25 18:15:00,
2013-02-25 11:16:00,29.7,8.9,30.42,WSW,248,7.0,10.0,41,0.03,,---,0.17,VWS V14.01,2013-02-25 18:16:00,
2013-02-25 11:17:00,29.7,7.8,30.42,SSW,202,7.0,10.0,39,0.03,,---,0.17,VWS V14.01,2013-02-25 18:17:00,
2013-02-25 11:18:00,29.7,9.4,30.42,SSW,202,6.0,9.0,42,0.03,,---,0.17,VWS V14.01,2013-02-25 18:18:00,
2013-02-25 11:19:00,29.7,10.0,30.42,South,180,7.0,9.0,43,0.03,,---,0.17,VWS V14.01,2013-02-25 18:19:00,
2013-02-25 11:20:00,29.7,10.0,30.42,South,180,5.0,8.0,43,0.03,,---,0.17,VWS V14.01,2013-02-25 18:20:00,
2013-02-25 11:21:00,29.8,10.1,30.42,South,180,5.0,9.0,43,0.03,,---,0.17,VWS V14.01,2013-02-25 18:21:00,
2013-02-25 11:22:00,29.9,9.6,30.42,South,180,6.0,10.0,42,0.03,,---,0.17,VWS V14.01,2013-02-25 18:22:00,
2013-02-25 11:23:00,30.0,9.7,30.42,South,180,3.0,6.0,42,0.04,,---,0.18,VWS V14.01,2013-02-25 18:23:00,
2013-02-25 11:24:00,30.0,9.7,30.42,South,180,2.0,4.0,42,0.04,,---,0.18,VWS V14.01,2013-02-25 18:24:00,
2013-02-25 11:25:00,30.1,9.8,30.42,South,180,3.0,6.0,42,0.04,,---,0.18,VWS V14.01,2013-02-25 18:25:00,
2013-02-25 11:26:00,30.2,8.8,30.42,SW,225,6.0,8.0,40,0.04,,---,0.18,VWS V14.01,2013-02-25 18:26:00,
2013-02-25 11:27:00,30.2,7.7,30.42,SW,225,4.0,6.0,38,0.04,,---,0.18,VWS V14.01,2013-02-25 18:27:00,
2013-02-25 11:28:00,30.2,8.8,30.42,SSW,202,5.0,7.0,40,0.04,,---,0.18,VWS V14.01,2013-02-25 18:28:00,
2013-02-25 11:29:00,30.2,8.8,30.42,SSW,202,4.0,5.0,40,0.04,,---,0.18,VWS V14.01,2013-02-25 18:29:00,
2013-02-25 11:30:00,30.2,8.8,30.42,SSW,202,6.0,9.0,40,0.04,,---,0.18,VWS V14.01,2013-02-25 18:30:00,
2013-02-25 11:31:00,30.2,8.2,30.42,SW,225,8.0,11.0,39,0.04,,---,0.18,VWS V14.01,2013-02-25 18:31:00,
2013-02-25 11:32:00,30.2,8.2,30.42,SW,225,7.0,10.0,39,0.04,,---,0.18,VWS V14.01,2013-02-25 18:32:00,
2013-02-25 11:33:00,30.1,7.6,30.42,SW,225,7.0,10.0,38,0.04,,---,0.18,VWS V14.01,2013-02-25 18:33:00,
2013-02-25 11:34:00,29.9,7.4,30.42,SSW,202,8.0,12.0,38,0.04,,---,0.18,VWS V14.01,2013-02-25 18:34:00,
2013-02-25 11:35:00,29.9,7.4,30.42,SSW,202,7.0,10.0,38,0.04,,---,0.18,VWS V14.01,2013-02-25 18:35:00,
2013-02-25 11:36:00,29.8,7.9,30.42,West,270,6.0,8.0,39,0.04,,---,0.18,VWS V14.01,2013-02-25 18:36:00,
2013-02-25 11:37:00,29.8,9.0,30.42,SW,225,5.0,9.0,41,0.04,,---,0.18,VWS V14.01,2013-02-25 18:37:00,
2013-02-25 11:38:00,29.8,10.1,30.42,SSW,202,3.0,7.0,43,0.04,,---,0.18,VWS V14.01,2013-02-25 18:38:00,
2013-02-25 11:39:00,29.9,9.1,30.42,West,270,6.0,9.0,41,0.05,,---,0.19,VWS V14.01,2013-02-25 18:39:00,
2013-02-25 11:40:00,29.9,8.5,30.42,SW,225,9.0,13.0,40,0.05,,---,0.19,VWS V14.01,2013-02-25 18:40:00,
2013-02-25 11:41:00,29.9,8.5,30.41,WSW,248,9.0,11.0,40,0.05,,---,0.19,VWS V14.01,2013-02-25 18:41:00,
2013-02-25 11:42:00,29.9,8.0,30.41,WSW,248,8.0,14.0,39,0.05,,---,0.19,VWS V14.01,2013-02-25 18:42:00,
2013-02-25 11:43:00,29.9,8.0,30.41,West,270,5.0,12.0,39,0.05,,---,0.19,VWS V14.01,2013-02-25 18:43:00,
2013-02-25 11:44:00,29.8,7.9,30.41,West,270,8.0,12.0,39,0.05,,---,0.19,VWS V14.01,2013-02-25 18:44:00,
2013-02-25 11:45:00,29.8,7.9,30.41,West,270,4.0,6.0,39,0.05,,---,0.19,VWS V14.01,2013-02-25 18:45:00,
2013-02-25 11:46:00,29.8,6.7,30.41,SSW,202,7.0,10.0,37,0.05,,---,0.19,VWS V14.01,2013-02-25 18:46:00,
2013-02-25 11:47:00,29.7,5.4,30.41,SW,225,5.0,7.0,35,0.05,,---,0.19,VWS V14.01,2013-02-25 18:47:00,
2013-02-25 11:48:00,29.7,6.6,30.42,West,270,7.0,12.0,37,0.05,,---,0.19,VWS V14.01,2013-02-25 18:48:00,
2013-02-25 11:49:00,29.7,7.8,30.41,WNW,292,7.0,12.0,39,0.05,,---,0.19,VWS V14.01,2013-02-25 18:49:00,
2013-02-25 11:50:00,29.7,7.2,30.41,WNW,292,6.0,9.0,38,0.05,,---,0.19,VWS V14.01,2013-02-25 18:50:00,
2013-02-25 11:51:00,29.6,7.1,30.42,SW,225,3.0,8.0,38,0.05,,---,0.19,VWS V14.01,2013-02-25 18:51:00,
2013-02-25 11:52:00,29.6,7.1,30.41,SW,225,8.0,11.0,38,0.05,,---,0.19,VWS V14.01,2013-02-25 18:52:00,
2013-02-25 11:53:00,29.7,7.8,30.41,SW,225,8.0,16.0,39,0.05,,---,0.19,VWS V14.01,2013-02-25 18:53:00,
2013-02-25 11:54:00,29.6,7.1,30.41,SW,225,7.0,12.0,38,0.06,,---,0.20,VWS V14.01,2013-02-25 18:54:00,
2013-02-25 11:55:00,29.6,8.3,30.41,WNW,292,6.0,9.0,40,0.05,,---,0.20,VWS V14.01,2013-02-25 18:55:00,
2013-02-25 11:56:00,29.6,8.3,30.41,West,270,8.0,13.0,40,0.05,,---,0.20,VWS V14.01,2013-02-25 18:56:00,
2013-02-25 11:57:00,29.7,7.2,30.41,WSW,248,9.0,13.0,38,0.05,,---,0.20,VWS V14.01,2013-02-25 18:57:00,
2013-02-25 11:58:00,29.6,6.5,30.41,SW,225,8.0,12.0,37,0.05,,---,0.20,VWS V14.01,2013-02-25 18:58:00,
2013-02-25 11:59:00,29.6,6.5,30.41,WSW,248,7.0,11.0,37,0.05,,---,0.20,VWS V14.01,2013-02-25 18:59:00,
2013-02-25 12:00:00,29.6,7.1,30.41,WSW,248,3.0,7.0,38,0.05,,---,0.20,VWS V14.01,2013-02-25 19:00:00,
2013-02-25 12:01:00,29.7,8.4,30.41,West,270,6.0,10.0,40,0.05,,---,0.20,VWS V14.01,2013-02-25 19:01:00,
2013-02-25 12:02:00,29.9,8.5,30.40,SW,225,7.0,8.0,40,0.05,,---,0.20,VWS V14.01,2013-02-25 19:02:00,
2013-02-25 12:03:00,30.0,8.1,30.40,West,270,6.0,8.0,39,0.04,,---,0.20,VWS V14.01,2013-02-25 19:03:00,
2013-02-25 12:04:00,30.1,7.0,30.40,WSW,248,7.0,12.0,37,0.04,,---,0.20,VWS V14.01,2013-02-25 19:04:00,
2013-02-25 12:05:00,30.1,6.4,30.40,WSW,248,7.0,10.0,36,0.04,,---,0.20,VWS V14.01,2013-02-25 19:05:00,
2013-02-25 12:06:00,30.2,7.1,30.40,SW,225,4.0,7.0,37,0.04,,---,0.20,VWS V14.01,2013-02-25 19:06:00,
2013-02-25 12:07:00,30.2,7.7,30.40,West,270,1.0,3.0,38,0.04,,---,0.20,VWS V14.01,2013-02-25 19:07:00,
2013-02-25 12:08:00,30.3,7.8,30.40,West,270,2.0,5.0,38,0.04,,---,0.20,VWS V14.01,2013-02-25 19:08:00,
2013-02-25 12:09:00,30.4,7.8,30.40,WSW,248,7.0,12.0,38,0.04,,---,0.20,VWS V14.01,2013-02-25 19:09:00,
2013-02-25 12:10:00,30.5,7.3,30.40,WSW,248,6.0,9.0,37,0.04,,---,0.20,VWS V14.01,2013-02-25 19:10:00,
2013-02-25 12:11:00,30.5,7.3,30.39,WSW,248,5.0,7.0,37,0.04,,---,0.20,VWS V14.01,2013-02-25 19:11:00,
2013-02-25 12:12:00,30.6,8.6,30.40,WSW,248,6.0,11.0,39,0.04,,---,0.20,VWS V14.01,2013-02-25 19:12:00,
2013-02-25 12:13:00,30.7,8.7,30.40,SW,225,7.0,10.0,39,0.03,,---,0.20,VWS V14.01,2013-02-25 19:13:00,
2013-02-25 12:14:00,30.7,8.1,30.39,SW,225,5.0,13.0,38,0.03,,---,0.20,VWS V14.01,2013-02-25 19:14:00,
2013-02-25 12:15:00,30.8,7.6,30.39,SSW,202,9.0,12.0,37,0.03,,---,0.20,VWS V14.01,2013-02-25 19:15:00,
2013-02-25 12:16:00,30.8,8.2,30.39,SW,225,8.0,13.0,38,0.03,,---,0.20,VWS V14.01,2013-02-25 19:16:00,
2013-02-25 12:17:00,30.7,6.9,30.39,West,270,8.0,12.0,36,0.03,,---,0.20,VWS V14.01,2013-02-25 19:17:00,
2013-02-25 12:18:00,30.7,8.1,30.39,West,270,6.0,9.0,38,0.03,,---,0.20,VWS V14.01,2013-02-25 19:18:00,
2013-02-25 12:19:00,30.7,7.5,30.39,WSW,248,8.0,11.0,37,0.03,,---,0.20,VWS V14.01,2013-02-25 19:19:00,
2013-02-25 12:20:00,30.6,7.4,30.39,WSW,248,7.0,10.0,37,0.03,,---,0.20,VWS V14.01,2013-02-25 19:20:00,
2013-02-25 12:21:00,30.7,8.1,30.38,WSW,248,4.0,7.0,38,0.03,,---,0.20,VWS V14.01,2013-02-25 19:21:00,
2013-02-25 12:22:00,30.7,8.1,30.38,SW,225,8.0,12.0,38,0.03,,---,0.20,VWS V14.01,2013-02-25 19:22:00,
2013-02-25 12:23:00,30.6,7.4,30.38,West,270,7.0,10.0,37,0.03,,---,0.20,VWS V14.01,2013-02-25 19:23:00,
2013-02-25 12:24:00,30.6,8.0,30.38,WSW,248,6.0,11.0,38,0.02,,---,0.20,VWS V14.01,2013-02-25 19:24:00,
2013-02-25 12:25:00,30.6,7.4,30.38,WSW,248,4.0,11.0,37,0.02,,---,0.20,VWS V14.01,2013-02-25 19:25:00,
2013-02-25 12:26:00,30.6,7.4,30.38,West,270,6.0,9.0,37,0.03,,---,0.21,VWS V14.01,2013-02-25 19:26:00,
2013-02-25 12:27:00,30.6,7.4,30.38,West,270,6.0,10.0,37,0.03,,---,0.21,VWS V14.01,2013-02-25 19:27:00,
2013-02-25 12:28:00,30.6,8.0,30.38,SW,225,10.0,13.0,38,0.03,,---,0.21,VWS V14.01,2013-02-25 19:28:00,
2013-02-25 12:29:00,30.6,7.4,30.38,SW,225,5.0,8.0,37,0.03,,---,0.21,VWS V14.01,2013-02-25 19:29:00,
2013-02-25 12:30:00,30.6,8.6,30.38,WSW,248,4.0,6.0,39,0.03,,---,0.21,VWS V14.01,2013-02-25 19:30:00,
2013-02-25 12:31:00,30.6,8.6,30.38,SW,225,9.0,13.0,39,0.03,,---,0.21,VWS V14.01,2013-02-25 19:31:00,
2013-02-25 12:32:00,30.7,8.1,30.37,WSW,248,6.0,14.0,38,0.03,,---,0.21,VWS V14.01,2013-02-25 19:32:00,
2013-02-25 12:33:00,30.8,8.8,30.37,West,270,7.0,9.0,39,0.03,,---,0.21,VWS V14.01,2013-02-25 19:33:00,
2013-02-25 12:34:00,30.9,8.3,30.37,West,270,7.0,10.0,38,0.03,,---,0.21,VWS V14.01,2013-02-25 19:34:00,
2013-02-25 12:35:00,30.9,7.7,30.37,SSW,202,5.0,9.0,37,0.03,,---,0.21,VWS V14.01,2013-02-25 19:35:00,
2013-02-25 12:36:00,30.9,7.1,30.37,SW,225,8.0,13.0,36,0.03,,---,0.21,VWS V14.01,2013-02-25 19:36:00,
2013-02-25 12:37:00,30.9,8.3,30.37,SW,225,7.0,11.0,38,0.03,,---,0.21,VWS V14.01,2013-02-25 19:37:00,
2013-02-25 12:38:00,30.9,7.7,30.37,WSW,248,8.0,11.0,37,0.03,,---,0.21,VWS V14.01,2013-02-25 19:38:00,
2013-02-25 12:39:00,30.9,8.3,30.37,SSW,202,6.0,10.0,38,0.03,,---,0.21,VWS V14.01,2013-02-25 19:39:00,
2013-02-25 12:40:00,31.0,7.2,30.37,SSW,202,8.0,11.0,36,0.02,,---,0.21,VWS V14.01,2013-02-25 19:40:00,
2013-02-25 12:41:00,31.0,7.2,30.37,SSW,202,7.0,9.0,36,0.02,,---,0.21,VWS V14.01,2013-02-25 19:41:00,
2013-02-25 12:42:00,31.1,7.9,30.36,SW,225,8.0,11.0,37,0.02,,---,0.21,VWS V14.01,2013-02-25 19:42:00,
2013-02-25 12:43:00,31.1,6.7,30.37,SW,225,9.0,13.0,35,0.02,,---,0.21,VWS V14.01,2013-02-25 19:43:00,
2013-02-25 12:44:00,31.1,7.3,30.36,SW,225,8.0,11.0,36,0.02,,---,0.21,VWS V14.01,2013-02-25 19:44:00,
2013-02-25 12:45:00,31.1,7.3,30.36,SW,225,10.0,12.0,36,0.02,,---,0.21,VWS V14.01,2013-02-25 19:45:00,
2013-02-25 12:46:00,31.0,6.6,30.36,WSW,248,9.0,11.0,35,0.02,,---,0.21,VWS V14.01,2013-02-25 19:46:00,
2013-02-25 12:47:00,31.0,6.6,30.36,SSW,202,6.0,9.0,35,0.02,,---,0.21,VWS V14.01,2013-02-25 19:47:00,
2013-02-25 12:48:00,30.9,7.1,30.36,SW,225,8.0,10.0,36,0.02,,---,0.21,VWS V14.01,2013-02-25 19:48:00,
2013-02-25 12:49:00,30.9,6.5,30.36,SSW,202,8.0,11.0,35,0.02,,---,0.21,VWS V14.01,2013-02-25 19:49:00,
2013-02-25 12:50:00,30.8,7.0,30.36,SW,225,7.0,12.0,36,0.02,,---,0.21,VWS V14.01,2013-02-25 19:50:00,
2013-02-25 12:51:00,30.8,7.0,30.36,West,270,4.0,8.0,36,0.02,,---,0.21,VWS V14.01,2013-02-25 19:51:00,
2013-02-25 12:52:00,30.8,8.2,30.36,SW,225,7.0,10.0,38,0.02,,---,0.21,VWS V14.01,2013-02-25 19:52:00,
2013-02-25 12:53:00,30.9,8.3,30.36,SW,225,4.0,7.0,38,0.02,,---,0.21,VWS V14.01,2013-02-25 19:53:00,
2013-02-25 12:54:00,31.0,8.4,30.36,SW,225,10.0,18.0,38,0.02,,---,0.21,VWS V14.01,2013-02-25 19:54:00,
2013-02-25 12:55:00,31.1,7.3,30.36,SW,225,10.0,16.0,36,0.01,,---,0.21,VWS V14.01,2013-02-25 19:55:00,
2013-02-25 12:56:00,31.1,7.3,30.36,WSW,248,8.0,14.0,36,0.02,,---,0.22,VWS V14.01,2013-02-25 19:56:00,
2013-02-25 12:57:00,31.1,6.7,30.36,WSW,248,9.0,18.0,35,0.02,,---,0.22,VWS V14.01,2013-02-25 19:57:00,
2013-02-25 12:58:00,31.2,6.8,30.36,SW,225,5.0,8.0,35,0.02,,---,0.22,VWS V14.01,2013-02-25 19:58:00,
2013-02-25 12:59:00,31.2,6.8,30.35,WSW,248,7.0,12.0,35,0.02,,---,0.22,VWS V14.01,2013-02-25 19:59:00,
2013-02-25 13:00:00,31.3,8.1,30.36,West,270,6.0,10.0,37,0.02,,---,0.22,VWS V14.01,2013-02-25 20:00:00,
2013-02-25 13:01:00,31.4,8.1,30.35,SW,225,8.0,11.0,37,0.02,,---,0.22,VWS V14.01,2013-02-25 20:01:00,
2013-02-25 13:02:00,31.4,6.9,30.35,WSW,248,7.0,10.0,35,0.02,,---,0.22,VWS V14.01,2013-02-25 20:02:00,
2013-02-25 13:03:00,31.5,7.0,30.35,SW,225,6.0,9.0,35,0.02,,---,0.22,VWS V14.01,2013-02-25 20:03:00,
2013-02-25 13:04:00,31.5,7.0,30.35,West,270,8.0,12.0,35,0.02,,---,0.22,VWS V14.01,2013-02-25 20:04:00,
2013-02-25 13:05:00,31.4,6.3,30.35,WNW,292,9.0,14.0,34,0.02,,---,0.22,VWS V14.01,2013-02-25 20:05:00,
2013-02-25 13:06:00,31.4,6.9,30.35,West,270,8.0,14.0,35,0.02,,---,0.22,VWS V14.01,2013-02-25 20:06:00,
2013-02-25 13:07:00,31.4,8.1,30.35,SW,225,8.0,13.0,37,0.02,,---,0.22,VWS V14.01,2013-02-25 20:07:00,
2013-02-25 13:08:00,31.4,6.9,30.35,SW,225,6.0,9.0,35,0.02,,---,0.22,VWS V14.01,2013-02-25 20:08:00,
2013-02-25 13:09:00,31.5,7.6,30.35,West,270,9.0,15.0,36,0.02,,---,0.22,VWS V14.01,2013-02-25 20:09:00,
2013-02-25 13:10:00,31.5,7.0,30.35,WSW,248,9.0,13.0,35,0.02,,---,0.22,VWS V14.01,2013-02-25 20:10:00,
2013-02-25 13:11:00,31.5,7.0,30.34,WSW,248,9.0,13.0,35,0.02,,---,0.22,VWS V14.01,2013-02-25 20:11:00,
2013-02-25 13:12:00,31.5,6.4,30.35,SW,225,10.0,13.0,34,0.02,,---,0.22,VWS V14.01,2013-02-25 20:12:00,
2013-02-25 13:13:00,31.5,7.0,30.34,WSW,248,10.0,15.0,35,0.02,,---,0.22,VWS V14.01,2013-02-25 20:13:00,
2013-02-25 13:14:00,31.4,6.9,30.34,WNW,292,8.0,12.0,35,0.02,,---,0.22,VWS V14.01,2013-02-25 20:14:00,
2013-02-25 13:15:00,31.4,6.9,30.34,West,270,8.0,13.0,35,0.02,,---,0.22,VWS V14.01,2013-02-25 20:15:00,
2013-02-25 13:16:00,31.5,7.0,30.34,WNW,292,7.0,14.0,35,0.02,,---,0.22,VWS V14.01,2013-02-25 20:16:00,
2013-02-25 13:17:00,31.5,7.0,30.34,West,270,9.0,15.0,35,0.02,,---,0.22,VWS V14.01,2013-02-25 20:17:00,
2013-02-25 13:18:00,31.5,7.0,30.34,WSW,248,9.0,13.0,35,0.02,,---,0.22,VWS V14.01,2013-02-25 20:18:00,
2013-02-25 13:19:00,31.5,5.7,30.34,West,270,8.0,15.0,33,0.02,,---,0.22,VWS V14.01,2013-02-25 20:19:00,
2013-02-25 13:20:00,31.4,6.3,30.34,WSW,248,10.0,16.0,34,0.02,,---,0.22,VWS V14.01,2013-02-25 20:20:00,
2013-02-25 13:21:00,31.4,6.3,30.34,SW,225,9.0,18.0,34,0.02,,---,0.22,VWS V14.01,2013-02-25 20:21:00,
2013-02-25 13:22:00,31.4,6.3,30.34,SW,225,11.0,16.0,34,0.02,,---,0.22,VWS V14.01,2013-02-25 20:22:00,
2013-02-25 13:23:00,31.4,6.3,30.34,SW,225,7.0,11.0,34,0.02,,---,0.22,VWS V14.01,2013-02-25 20:23:00,
2013-02-25 13:24:00,31.4,6.3,30.34,West,270,10.0,15.0,34,0.02,,---,0.22,VWS V14.01,2013-02-25 20:24:00,
2013-02-25 13:25:00,31.3,6.2,30.34,West,270,10.0,15.0,34,0.02,,---,0.22,VWS V14.01,2013-02-25 20:25:00,
2013-02-25 13:26:00,31.3,5.6,30.34,West,270,10.0,19.0,33,0.02,,---,0.22,VWS V14.01,2013-02-25 20:26:00,
2013-02-25 13:27:00,31.3,6.2,30.34,WSW,248,9.0,15.0,34,0.01,,---,0.22,VWS V14.01,2013-02-25 20:27:00,
2013-02-25 13:28:00,31.2,6.1,30.34,WSW,248,10.0,14.0,34,0.01,,---,0.22,VWS V14.01,2013-02-25 20:28:00,
2013-02-25 13:29:00,31.2,6.1,30.34,West,270,9.0,15.0,34,0.01,,---,0.22,VWS V14.01,2013-02-25 20:29:00,
2013-02-25 13:30:00,31.3,6.2,30.34,WSW,248,12.0,18.0,34,0.01,,---,0.22,VWS V14.01,2013-02-25 20:30:00,
2013-02-25 13:31:00,31.4,5.6,30.34,West,270,9.0,13.0,33,0.01,,---,0.22,VWS V14.01,2013-02-25 20:31:00,
2013-02-25 13:32:00,31.4,5.6,30.34,WNW,292,11.0,19.0,33,0.01,,---,0.22,VWS V14.01,2013-02-25 20:32:00,
2013-02-25 13:33:00,31.4,5.6,30.33,West,270,10.0,15.0,33,0.01,,---,0.22,VWS V14.01,2013-02-25 20:33:00,
2013-02-25 13:34:00,31.3,5.6,30.34,WSW,248,9.0,16.0,33,0.01,,---,0.22,VWS V14.01,2013-02-25 20:34:00,
2013-02-25 13:35:00,31.3,5.6,30.33,WSW,248,11.0,16.0,33,0.01,,---,0.22,VWS V14.01,2013-02-25 20:35:00,
2013-02-25 13:36:00,31.3,5.6,30.34,WSW,248,11.0,18.0,33,0.01,,---,0.22,VWS V14.01,2013-02-25 20:36:00,
2013-02-25 13:37:00,31.2,5.5,30.33,West,270,12.0,22.0,33,0.01,,---,0.22,VWS V14.01,2013-02-25 20:37:00,
2013-02-25 13:38:00,31.1,5.4,30.33,West,270,9.0,18.0,33,0.01,,---,0.22,VWS V14.01,2013-02-25 20:38:00,
2013-02-25 13:39:00,31.1,5.4,30.33,West,270,6.0,22.0,33,0.01,,---,0.22,VWS V14.01,2013-02-25 20:39:00,
2013-02-25 13:40:00,31.1,6.7,30.33,West,270,10.0,18.0,35,0.01,,---,0.22,VWS V14.01,2013-02-25 20:40:00,
2013-02-25 13:41:00,31.1,7.3,30.33,West,270,9.0,18.0,36,0.01,,---,0.22,VWS V14.01,2013-02-25 20:41:00,
2013-02-25 13:42:00,31.2,6.1,30.33,SW,225,8.0,12.0,34,0.01,,---,0.22,VWS V14.01,2013-02-25 20:42:00,
2013-02-25 13:43:00,31.3,6.8,30.33,WNW,292,9.0,15.0,35,0.01,,---,0.22,VWS V14.01,2013-02-25 20:43:00,
2013-02-25 13:44:00,31.4,6.3,30.33,WSW,248,10.0,16.0,34,0.01,,---,0.22,VWS V14.01,2013-02-25 20:44:00,
2013-02-25 13:45:00,31.4,6.9,30.33,WSW,248,9.0,14.0,35,0.01,,---,0.22,VWS V14.01,2013-02-25 20:45:00,
2013-02-25 13:46:00,31.4,6.9,30.33,WSW,248,9.0,21.0,35,0.01,,---,0.22,VWS V14.01,2013-02-25 20:46:00,
2013-02-25 13:47:00,31.4,6.9,30.33,WSW,248,12.0,18.0,35,0.01,,---,0.22,VWS V14.01,2013-02-25 20:47:00,
2013-02-25 13:48:00,31.3,5.6,30.33,WSW,248,12.0,20.0,33,0.01,,---,0.22,VWS V14.01,2013-02-25 20:48:00,
2013-02-25 13:49:00,31.2,6.1,30.33,WNW,292,10.0,14.0,34,0.01,,---,0.22,VWS V14.01,2013-02-25 20:49:00,
2013-02-25 13:50:00,31.1,6.0,30.33,West,270,10.0,16.0,34,0.01,,---,0.22,VWS V14.01,2013-02-25 20:50:00,
2013-02-25 13:51:00,31.0,6.6,30.33,WSW,248,13.0,20.0,35,0.01,,---,0.22,VWS V14.01,2013-02-25 20:51:00,
2013-02-25 13:52:00,30.8,5.1,30.33,WSW,248,12.0,20.0,33,0.01,,---,0.22,VWS V14.01,2013-02-25 20:52:00,
2013-02-25 13:53:00,30.7,5.7,30.33,WSW,248,8.0,16.0,34,0.01,,---,0.22,VWS V14.01,2013-02-25 20:53:00,
2013-02-25 13:54:00,30.6,5.6,30.32,West,270,11.0,16.0,34,0.01,,---,0.22,VWS V14.01,2013-02-25 20:54:00,
2013-02-25 13:55:00,30.5,5.5,30.32,West,270,9.0,14.0,34,0.01,,---,0.22,VWS V14.01,2013-02-25 20:55:00,
2013-02-25 13:56:00,30.5,6.7,30.32,WSW,248,9.0,18.0,36,0.01,,---,0.22,VWS V14.01,2013-02-25 20:56:00,
2013-02-25 13:57:00,30.6,6.2,30.32,WSW,248,8.0,13.0,35,0.00,,---,0.22,VWS V14.01,2013-02-25 20:57:00,
2013-02-25 13:58:00,30.7,6.3,30.32,WSW,248,9.0,18.0,35,0.00,,---,0.22,VWS V14.01,2013-02-25 20:58:00,
2013-02-25 13:59:00,30.7,5.0,30.33,WSW,248,12.0,18.0,33,0.00,,---,0.22,VWS V14.01,2013-02-25 20:59:00,
2013-02-25 14:00:00,30.8,5.1,30.32,SW,225,5.0,9.0,33,0.00,,---,0.22,VWS V14.01,2013-02-25 21:00:00,
2013-02-25 14:01:00,30.8,5.8,30.32,West,270,11.0,18.0,34,0.00,,---,0.22,VWS V14.01,2013-02-25 21:01:00,
2013-02-25 14:02:00,30.9,5.2,30.32,WSW,248,12.0,18.0,33,0.00,,---,0.22,VWS V14.01,2013-02-25 21:02:00,
2013-02-25 14:03:00,30.9,5.2,30.32,WSW,248,12.0,16.0,33,0.00,,---,0.22,VWS V14.01,2013-02-25 21:03:00,
2013-02-25 14:04:00,30.9,4.5,30.32,WSW,248,9.0,15.0,32,0.00,,---,0.22,VWS V14.01,2013-02-25 21:04:00,
2013-02-25 14:05:00,30.9,4.5,30.32,WSW,248,12.0,18.0,32,0.00,,---,0.22,VWS V14.01,2013-02-25 21:05:00,
2013-02-25 14:06:00,30.9,5.2,30.32,WSW,248,11.0,18.0,33,0.00,,---,0.22,VWS V14.01,2013-02-25 21:06:00,
2013-02-25 14:07:00,30.9,6.5,30.33,WSW,248,13.0,23.0,35,0.00,,---,0.22,VWS V14.01,2013-02-25 21:07:00,
2013-02-25 14:08:00,30.8,5.1,30.32,West,270,10.0,23.0,33,0.00,,---,0.22,VWS V14.01,2013-02-25 21:08:00,
2013-02-25 14:09:00,30.8,5.1,30.32,West,270,11.0,16.0,33,0.00,,---,0.22,VWS V14.01,2013-02-25 21:09:00,
2013-02-25 14:10:00,30.7,5.7,30.32,SW,225,9.0,21.0,34,0.00,,---,0.22,VWS V14.01,2013-02-25 21:10:00,
2013-02-25 14:11:00,30.7,5.0,30.32,West,270,10.0,19.0,33,0.00,,---,0.22,VWS V14.01,2013-02-25 21:11:00,
2013-02-25 14:12:00,30.6,4.9,30.32,WSW,248,10.0,19.0,33,0.00,,---,0.22,VWS V14.01,2013-02-25 21:12:00,
2013-02-25 14:13:00,30.6,4.9,30.32,SSW,196,10.0,10.0,33,0.00,,---,0.22,VWS V14.01,2013-02-25 21:13:00,
2013-02-25 14:14:00,30.6,4.9,30.32,SSW,203,11.0,15.0,33,0.00,,---,0.22,VWS V14.01,2013-02-25 21:14:00,
2013-02-25 14:15:00,30.6,4.9,30.32,WSW,248,10.0,19.0,33,0.00,,---,0.22,VWS V14.01,2013-02-25 21:15:00,
2013-02-25 14:16:00,30.5,4.8,30.32,West,269,10.0,22.0,33,0.00,,---,0.22,VWS V14.01,2013-02-25 21:16:00,
2013-02-25 14:17:00,30.5,4.2,30.32,West,267,1.0,10.0,32,0.00,,---,0.22,VWS V14.01,2013-02-25 21:17:00,
2013-02-25 14:18:00,30.5,4.8,30.32,West,265,9.0,9.0,33,0.00,,---,0.22,VWS V14.01,2013-02-25 21:18:00,
2013-02-25 14:19:00,30.6,5.6,30.32,WNW,300,11.0,11.0,34,0.00,,---,0.22,VWS V14.01,2013-02-25 21:19:00,
2013-02-25 14:20:00,30.5,5.5,30.32,WSW,240,5.0,9.0,34,0.00,,---,0.22,VWS V14.01,2013-02-25 21:20:00,
2013-02-25 14:21:00,30.8,3.8,30.32,West,259,11.0,15.0,31,0.00,,---,0.22,VWS V14.01,2013-02-25 21:21:00,
2013-02-25 14:22:00,30.8,4.4,30.32,WSW,239,15.0,19.0,32,0.00,,---,0.22,VWS V14.01,2013-02-25 21:22:00,
2013-02-25 14:23:00,30.9,3.8,30.32,West,271,18.0,20.0,31,0.00,,---,0.22,VWS V14.01,2013-02-25 21:23:00,
2013-02-25 14:24:00,30.9,3.8,30.32,WSW,244,11.0,18.0,31,0.00,,---,0.22,VWS V14.01,2013-02-25 21:24:00,
2013-02-25 14:25:00,30.9,3.8,30.32,WNW,284,5.0,18.0,31,0.00,,---,0.22,VWS V14.01,2013-02-25 21:25:00,
2013-02-25 14:26:00,30.9,3.8,30.32,WSW,251,12.0,15.0,31,0.00,,---,0.22,VWS V14.01,2013-02-25 21:26:00,
2013-02-25 14:27:00,30.9,4.5,30.32,WNW,286,7.0,12.0,32,0.00,,---,0.22,VWS V14.01,2013-02-25 21:27:00,
2013-02-25 14:28:00,30.9,3.8,30.31,West,271,10.0,16.0,31,0.00,,---,0.22,VWS V14.01,2013-02-25 21:28:00,
2013-02-25 14:29:00,30.9,3.8,30.32,West,270,8.0,23.0,31,0.00,,---,0.22,VWS V14.01,2013-02-25 21:29:00,
2013-02-25 14:30:00,30.9,3.8,30.32,West,275,12.0,23.0,31,0.00,,---,0.22,VWS V14.01,2013-02-25 21:30:00,
2013-02-25 14:31:00,30.9,3.8,30.32,SW,223,8.0,14.0,31,0.00,,---,0.22,VWS V14.01,2013-02-25 21:31:00,
2013-02-25 14:32:00,30.9,3.1,30.32,SW,236,14.0,14.0,30,0.00,,---,0.22,VWS V14.01,2013-02-25 21:32:00,
2013-02-25 14:33:00,30.9,3.1,30.32,SSW,213,7.0,14.0,30,0.00,,---,0.22,VWS V14.01,2013-02-25 21:33:00,
2013-02-25 14:34:00,30.9,3.8,30.32,SW,229,4.0,10.0,31,0.00,,---,0.22,VWS V14.01,2013-02-25 21:34:00,
2013-02-25 14:35:00,30.9,3.8,30.32,SW,229,4.0,10.0,31,0.00,,---,0.22,VWS V14.01,2013-02-25 21:35:00,
2013-02-25 14:36:00,31.0,4.6,30.32,SW,217,11.0,11.0,32,0.00,,---,0.22,VWS V14.01,2013-02-25 21:36:00,
2013-02-25 14:37:00,31.1,4.0,30.32,WNW,296,5.0,11.0,31,0.00,,---,0.22,VWS V14.01,2013-02-25 21:37:00,
2013-02-25 14:38:00,31.2,3.4,30.31,SW,234,18.0,18.0,30,0.00,,---,0.22,VWS V14.01,2013-02-25 21:38:00,
2013-02-25 14:39:00,31.2,4.1,30.31,SW,223,4.0,18.0,31,0.00,,---,0.22,VWS V14.01,2013-02-25 21:39:00,
2013-02-25 14:40:00,31.2,4.1,30.31,SW,223,4.0,18.0,31,0.00,,---,0.22,VWS V14.01,2013-02-25 21:40:00,
2013-02-25 14:41:00,31.4,4.3,30.31,WSW,244,8.0,12.0,31,0.00,,---,0.22,VWS V14.01,2013-02-25 21:41:00,
2013-02-25 14:42:00,31.4,3.6,30.32,WSW,251,4.0,12.0,30,0.00,,---,0.22,VWS V14.01,2013-02-25 21:42:00,
2013-02-25 14:43:00,31.5,4.4,30.31,SW,219,2.0,7.0,31,0.00,,---,0.22,VWS V14.01,2013-02-25 21:43:00,
2013-02-25 14:44:00,31.6,3.7,30.32,WNW,296,7.0,9.0,30,0.00,,---,0.22,VWS V14.01,2013-02-25 21:44:00,
2013-02-25 14:45:00,31.6,3.7,30.32,WNW,296,7.0,9.0,30,0.00,,---,0.22,VWS V14.01,2013-02-25 21:45:00,
2013-02-25 14:46:00,31.6,3.7,30.31,NNW,333,10.0,19.0,30,0.00,,---,0.22,VWS V14.01,2013-02-25 21:46:00,
2013-02-25 14:47:00,31.6,3.7,30.31,West,259,10.0,16.0,30,0.00,,---,0.22,VWS V14.01,2013-02-25 21:47:00,
2013-02-25 14:48:00,31.6,3.7,30.31,WNW,292,11.0,16.0,30,0.00,,---,0.22,VWS V14.01,2013-02-25 21:48:00,
2013-02-25 14:49:00,31.5,3.7,30.32,SW,229,7.0,16.0,30,0.00,,---,0.22,VWS V14.01,2013-02-25 21:49:00,
2013-02-25 14:50:00,31.5,3.7,30.32,SSW,193,2.0,9.0,30,0.00,,---,0.22,VWS V14.01,2013-02-25 21:50:00,
2013-02-25 14:51:00,31.5,3.7,30.31,WSW,239,8.0,16.0,30,0.00,,---,0.22,VWS V14.01,2013-02-25 21:51:00,
2013-02-25 14:52:00,31.4,3.6,30.32,SSW,207,6.0,11.0,30,0.00,,---,0.22,VWS V14.01,2013-02-25 21:52:00,
2013-02-25 14:53:00,31.5,4.4,30.32,West,266,0.0,6.0,31,0.00,,---,0.22,VWS V14.01,2013-02-25 21:53:00,
2013-02-25 14:54:00,31.5,3.7,30.32,SW,221,8.0,16.0,30,0.00,,---,0.22,VWS V14.01,2013-02-25 21:54:00,
2013-02-25 14:55:00,31.6,3.0,30.31,WNW,295,6.0,10.0,29,0.00,,---,0.22,VWS V14.01,2013-02-25 21:55:00,
2013-02-25 14:56:00,31.5,3.7,30.31,WSW,242,8.0,8.0,30,0.00,,---,0.22,VWS V14.01,2013-02-25 21:56:00,
2013-02-25 14:57:00,31.7,4.5,30.31,WSW,246,6.0,7.0,31,0.00,,---,0.22,VWS V14.01,2013-02-25 21:57:00,
2013-02-25 14:58:00,31.8,3.9,30.32,WSW,242,9.0,9.0,30,0.00,,---,0.22,VWS V14.01,2013-02-25 21:58:00,
2013-02-25 14:59:00,31.9,3.3,30.31,SSW,207,5.0,11.0,29,0.00,,---,0.22,VWS V14.01,2013-02-25 21:59:00,
2013-02-25 15:00:00,32.0,4.1,30.31,SW,233,6.0,12.0,30,0.00,,---,0.22,VWS V14.01,2013-02-25 22:00:00,
2013-02-25 15:01:00,31.9,3.3,30.31,SSW,200,5.0,5.0,29,0.00,,---,0.22,VWS V14.01,2013-02-25 22:01:00,
2013-02-25 15:02:00,32.2,3.5,30.31,SW,224,7.0,9.0,29,0.00,,---,0.22,VWS V14.01,2013-02-25 22:02:00,
2013-02-25 15:03:00,32.2,2.8,30.31,SW,236,6.0,13.0,28,0.00,,---,0.22,VWS V14.01,2013-02-25 22:03:00,
2013-02-25 15:04:00,32.2,2.8,30.31,SW,236,6.0,11.0,28,0.00,,---,0.22,VWS V14.01,2013-02-25 22:04:00,
2013-02-25 15:05:00,32.1,2.7,30.31,WSW,237,1.0,12.0,28,0.00,,---,0.22,VWS V14.01,2013-02-25 22:05:00,
2013-02-25 15:06:00,32.1,2.7,30.31,West,265,7.0,12.0,28,0.00,,---,0.22,VWS V14.01,2013-02-25 22:06:00,
2013-02-25 15:07:00,32.2,3.5,30.31,SW,215,7.0,11.0,29,0.00,,---,0.22,VWS V14.01,2013-02-25 22:07:00,
2013-02-25 15:08:00,32.2,2.8,30.31,SW,236,1.0,9.0,28,0.00,,---,0.22,VWS V14.01,2013-02-25 22:08:00,
2013-02-25 15:09:00,32.2,3.5,30.30,SSW,209,5.0,6.0,29,0.00,,---,0.22,VWS V14.01,2013-02-25 22:09:00,
2013-02-25 15:10:00,32.2,3.5,30.30,WNW,285,6.0,11.0,29,0.00,,---,0.22,VWS V14.01,2013-02-25 22:10:00,
2013-02-25 15:11:00,32.2,3.5,30.30,WSW,242,7.0,11.0,29,0.00,,---,0.22,VWS V14.01,2013-02-25 22:11:00,
2013-02-25 15:12:00,32.3,2.9,30.30,WSW,241,9.0,10.0,28,0.00,,---,0.22,VWS V14.01,2013-02-25 22:12:00,
2013-02-25 15:13:00,32.2,2.0,30.30,SW,231,6.0,19.0,27,0.00,,---,0.22,VWS V14.01,2013-02-25 22:13:00,
2013-02-25 15:14:00,32.1,1.9,30.30,West,271,5.0,13.0,27,0.00,,---,0.22,VWS V14.01,2013-02-25 22:14:00,
2013-02-25 15:15:00,32.1,1.9,30.30,SW,227,10.0,10.0,27,0.00,,---,0.22,VWS V14.01,2013-02-25 22:15:00,
2013-02-25 15:16:00,32.1,1.9,30.30,West,269,9.0,9.0,27,0.00,,---,0.22,VWS V14.01,2013-02-25 22:16:00,
2013-02-25 15:17:00,32.0,3.3,30.30,West,276,6.0,12.0,29,0.00,,---,0.22,VWS V14.01,2013-02-25 22:17:00,
2013-02-25 15:18:00,31.9,1.7,30.30,West,265,5.0,10.0,27,0.00,,---,0.22,VWS V14.01,2013-02-25 22:18:00,
2013-02-25 15:19:00,32.0,3.3,30.30,WNW,292,2.0,9.0,29,0.00,,---,0.22,VWS V14.01,2013-02-25 22:19:00,
2013-02-25 15:20:00,32.0,3.3,30.30,NW,311,15.0,19.0,29,0.00,,---,0.22,VWS V14.01,2013-02-25 22:20:00,
2013-02-25 15:21:00,32.0,3.3,30.30,WNW,288,6.0,8.0,29,0.00,,---,0.22,VWS V14.01,2013-02-25 22:21:00,
2013-02-25 15:22:00,32.0,1.8,30.30,NNW,330,6.0,11.0,27,0.00,,---,0.22,VWS V14.01,2013-02-25 22:22:00,
2013-02-25 15:23:00,32.1,1.9,30.30,WNW,290,7.0,12.0,27,0.00,,---,0.22,VWS V14.01,2013-02-25 22:23:00,
2013-02-25 15:24:00,32.2,2.0,30.30,WSW,245,8.0,19.0,27,0.00,,---,0.22,VWS V14.01,2013-02-25 22:24:00,
2013-02-25 15:25:00,32.2,2.0,30.30,WSW,250,5.0,10.0,27,0.00,,---,0.22,VWS V14.01,2013-02-25 22:25:00,
2013-02-25 15:26:00,32.2,2.0,30.30,SSW,208,2.0,10.0,27,0.00,,---,0.22,VWS V14.01,2013-02-25 22:26:00,
2013-02-25 15:27:00,32.5,4.5,30.30,WNW,300,9.0,10.0,30,0.00,,---,0.22,VWS V14.01,2013-02-25 22:27:00,
2013-02-25 15:28:00,32.6,3.1,30.30,SW,229,5.0,13.0,28,0.00,,---,0.22,VWS V14.01,2013-02-25 22:28:00,
2013-02-25 15:29:00,32.7,3.2,30.30,West,270,7.0,11.0,28,0.00,,---,0.22,VWS V14.01,2013-02-25 22:29:00,
2013-02-25 15:30:00,32.8,3.3,30.30,WSW,249,4.0,9.0,28,0.00,,---,0.22,VWS V14.01,2013-02-25 22:30:00,
2013-02-25 15:31:00,32.8,3.3,30.30,West,263,5.0,9.0,28,0.00,,---,0.22,VWS V14.01,2013-02-25 22:31:00,
2013-02-25 15:32:00,33.1,2.8,30.30,West,269,5.0,8.0,27,0.00,,---,0.22,VWS V14.01,2013-02-25 22:32:00,
2013-02-25 15:33:00,33.2,2.8,30.30,West,260,9.0,9.0,27,0.00,,---,0.22,VWS V14.01,2013-02-25 22:33:00,
2013-02-25 15:34:00,33.3,2.1,30.30,WSW,245,8.0,11.0,26,0.00,,---,0.22,VWS V14.01,2013-02-25 22:34:00,
2013-02-25 15:35:00,33.4,2.2,30.30,WNW,290,4.0,15.0,26,0.00,,---,0.22,VWS V14.01,2013-02-25 22:35:00,
2013-02-25 15:36:00,33.4,2.2,30.30,WNW,290,4.0,15.0,26,0.00,,---,0.22,VWS V14.01,2013-02-25 22:36:00,
2013-02-25 15:37:00,33.4,2.2,30.30,WSW,247,6.0,11.0,26,0.00,,---,0.22,VWS V14.01,2013-02-25 22:37:00,
2013-02-25 15:38:00,33.4,1.4,30.30,WSW,249,4.0,10.0,25,0.00,,---,0.22,VWS V14.01,2013-02-25 22:38:00,
2013-02-25 15:39:00,33.4,2.2,30.30,SW,234,12.0,12.0,26,0.00,,---,0.22,VWS V14.01,2013-02-25 22:39:00,
2013-02-25 15:40:00,33.4,2.2,30.29,WSW,241,10.0,12.0,26,0.00,,---,0.22,VWS V14.01,2013-02-25 22:40:00,
2013-02-25 15:41:00,33.4,2.2,30.29,WSW,241,10.0,12.0,26,0.00,,---,0.22,VWS V14.01,2013-02-25 22:41:00,
2013-02-25 15:42:00,33.4,2.2,30.29,SSW,213,5.0,10.0,26,0.00,,---,0.22,VWS V14.01,2013-02-25 22:42:00,
2013-02-25 15:43:00,33.4,2.2,30.29,SSW,207,3.0,7.0,26,0.00,,---,0.22,VWS V14.01,2013-02-25 22:43:00,
2013-02-25 15:44:00,33.5,3.1,30.29,WSW,244,9.0,11.0,27,0.00,,---,0.22,VWS V14.01,2013-02-25 22:44:00,
2013-02-25 15:45:00,33.6,2.4,30.29,SW,236,6.0,10.0,26,0.00,,---,0.22,VWS V14.01,2013-02-25 22:45:00,
2013-02-25 15:46:00,33.6,2.4,30.29,SW,236,6.0,10.0,26,0.00,,---,0.22,VWS V14.01,2013-02-25 22:46:00,
2013-02-25 15:47:00,33.8,2.6,30.29,WSW,257,6.0,11.0,26,0.00,,---,0.22,VWS V14.01,2013-02-25 22:47:00,
2013-02-25 15:48:00,33.8,2.6,30.29,WSW,240,13.0,13.0,26,0.00,,---,0.22,VWS V14.01,2013-02-25 22:48:00,
2013-02-25 15:49:00,33.7,1.6,30.29,SW,232,6.0,13.0,25,0.00,,---,0.22,VWS V14.01,2013-02-25 22:49:00,
2013-02-25 15:50:00,33.7,2.5,30.29,SW,231,5.0,7.0,26,0.00,,---,0.22,VWS V14.01,2013-02-25 22:50:00,
2013-02-25 15:51:00,33.7,2.5,30.29,SW,231,5.0,7.0,26,0.00,,---,0.22,VWS V14.01,2013-02-25 22:51:00,
2013-02-25 15:52:00,33.7,1.6,30.29,SW,219,5.0,8.0,25,0.00,,---,0.22,VWS V14.01,2013-02-25 22:52:00,
2013-02-25 15:53:00,33.8,1.7,30.30,NNW,333,7.0,7.0,25,0.00,,---,0.22,VWS V14.01,2013-02-25 22:53:00,
2013-02-25 15:54:00,33.8,2.6,30.30,WNW,283,10.0,15.0,26,0.00,,---,0.22,VWS V14.01,2013-02-25 22:54:00,
2013-02-25 15:55:00,33.9,2.6,30.30,WSW,238,3.0,10.0,26,0.00,,---,0.22,VWS V14.01,2013-02-25 22:55:00,
2013-02-25 15:56:00,33.9,2.7,30.30,WSW,238,3.0,10.0,26,0.00,,---,0.22,VWS V14.01,2013-02-25 22:56:00,
2013-02-25 15:57:00,33.9,2.6,30.30,West,259,9.0,11.0,26,0.00,,---,0.22,VWS V14.01,2013-02-25 22:57:00,
2013-02-25 15:58:00,33.8,1.7,30.30,WSW,252,9.0,19.0,25,0.00,,---,0.22,VWS V14.01,2013-02-25 22:58:00,
2013-02-25 15:59:00,33.6,2.4,30.30,West,277,4.0,12.0,26,0.00,,---,0.22,VWS V14.01,2013-02-25 22:59:00,
2013-02-25 16:00:00,33.4,1.4,30.30,West,277,2.0,8.0,25,0.00,,---,0.22,VWS V14.01,2013-02-25 23:00:00,
2013-02-25 16:01:00,33.4,1.4,30.30,West,277,2.0,8.0,25,0.00,,---,0.22,VWS V14.01,2013-02-25 23:01:00,
2013-02-25 16:02:00,33.0,1.9,30.30,SW,217,7.0,25.0,26,0.00,,---,0.22,VWS V14.01,2013-02-25 23:02:00,
2013-02-25 16:03:00,32.8,1.7,30.29,WNW,301,5.0,10.0,26,0.00,,---,0.22,VWS V14.01,2013-02-25 23:03:00,
2013-02-25 16:04:00,32.6,2.3,30.29,SW,226,9.0,19.0,27,0.00,,---,0.22,VWS V14.01,2013-02-25 23:04:00,
2013-02-25 16:05:00,32.5,3.0,30.29,West,264,5.0,16.0,28,0.00,,---,0.22,VWS V14.01,2013-02-25 23:05:00,
2013-02-25 16:06:00,32.5,3.0,30.29,West,264,5.0,16.0,28,0.00,,---,0.22,VWS V14.01,2013-02-25 23:06:00,
2013-02-25 16:07:00,32.3,2.1,30.29,WSW,245,5.0,12.0,27,0.00,,---,0.22,VWS V14.01,2013-02-25 23:07:00,
2013-02-25 16:08:00,32.2,2.0,30.29,West,265,10.0,19.0,27,0.00,,---,0.22,VWS V14.01,2013-02-25 23:08:00,
2013-02-25 16:09:00,32.1,1.9,30.29,SW,227,4.0,16.0,27,0.00,,---,0.22,VWS V14.01,2013-02-25 23:09:00,
2013-02-25 16:10:00,31.9,0.9,30.29,WSW,242,8.0,12.0,26,0.00,,---,0.22,VWS V14.01,2013-02-25 23:10:00,
2013-02-25 16:11:00,31.9,0.9,30.29,WSW,242,8.0,12.0,26,0.00,,---,0.22,VWS V14.01,2013-02-25 23:11:00,
2013-02-25 16:12:00,31.8,1.6,30.29,West,272,5.0,12.0,27,0.00,,---,0.22,VWS V14.01,2013-02-25 23:12:00,
2013-02-25 16:13:00,31.7,1.6,30.29,WSW,244,9.0,15.0,27,0.00,,---,0.22,VWS V14.01,2013-02-25 23:13:00,
2013-02-25 16:14:00,31.7,1.6,30.29,WSW,240,2.0,9.0,27,0.00,,---,0.22,VWS V14.01,2013-02-25 23:14:00,
2013-02-25 16:15:00,31.6,2.2,30.29,SW,234,6.0,6.0,28,0.00,,---,0.22,VWS V14.01,2013-02-25 23:15:00,
2013-02-25 16:16:00,31.6,2.2,30.29,SW,234,6.0,6.0,28,0.00,,---,0.22,VWS V14.01,2013-02-25 23:16:00,
2013-02-25 16:17:00,31.7,2.3,30.28,SW,236,8.0,10.0,28,0.00,,---,0.22,VWS V14.01,2013-02-25 23:17:00,
2013-02-25 16:18:00,31.7,0.8,30.28,WSW,250,6.0,13.0,26,0.00,,---,0.22,VWS V14.01,2013-02-25 23:18:00,
2013-02-25 16:19:00,31.7,0.8,30.28,SW,228,11.0,14.0,26,0.00,,---,0.22,VWS V14.01,2013-02-25 23:19:00,
2013-02-25 16:20:00,31.7,0.8,30.28,SSW,206,6.0,11.0,26,0.00,,---,0.22,VWS V14.01,2013-02-25 23:20:00,
2013-02-25 16:21:00,31.7,0.8,30.28,SSW,206,6.0,11.0,26,0.00,,---,0.22,VWS V14.01,2013-02-25 23:21:00,
2013-02-25 16:22:00,31.6,1.5,30.28,SW,221,5.0,10.0,27,0.00,,---,0.22,VWS V14.01,2013-02-25 23:22:00,
2013-02-25 16:23:00,31.6,1.5,30.28,WNW,285,5.0,12.0,27,0.00,,---,0.22,VWS V14.01,2013-02-25 23:23:00,
2013-02-25 16:24:00,31.6,2.2,30.28,WSW,257,5.0,9.0,28,0.00,,---,0.22,VWS V14.01,2013-02-25 23:24:00,
2013-02-25 16:25:00,31.6,2.2,30.28,SW,215,5.0,9.0,28,0.00,,---,0.22,VWS V14.01,2013-02-25 23:25:00,
2013-02-25 16:26:00,31.6,2.2,30.28,SW,215,5.0,9.0,28,0.00,,---,0.22,VWS V14.01,2013-02-25 23:26:00,
2013-02-25 16:27:00,31.7,1.6,30.28,West,261,2.0,9.0,27,0.00,,---,0.22,VWS V14.01,2013-02-25 23:27:00,
2013-02-25 16:28:00,31.7,1.6,30.28,WSW,250,6.0,7.0,27,0.00,,---,0.22,VWS V14.01,2013-02-25 23:28:00,
2013-02-25 16:29:00,31.7,2.3,30.28,SSW,200,9.0,12.0,28,0.00,,---,0.22,VWS V14.01,2013-02-25 23:29:00,
2013-02-25 16:30:00,31.7,1.6,30.28,SSW,205,6.0,10.0,27,0.00,,---,0.22,VWS V14.01,2013-02-25 23:30:00,
2013-02-25 16:31:00,31.7,1.6,30.28,SSW,193,9.0,9.0,27,0.00,,---,0.22,VWS V14.01,2013-02-25 23:31:00,
2013-02-25 16:32:00,31.7,1.6,30.28,SSW,205,2.0,10.0,27,0.00,,---,0.22,VWS V14.01,2013-02-25 23:32:00,
2013-02-25 16:33:00,31.5,1.4,30.28,SSW,202,10.0,12.0,27,0.00,,---,0.22,VWS V14.01,2013-02-25 23:33:00,
2013-02-25 16:34:00,31.4,2.1,30.28,SSW,200,7.0,12.0,28,0.00,,---,0.22,VWS V14.01,2013-02-25 23:34:00,
2013-02-25 16:35:00,31.3,1.2,30.28,SW,219,10.0,12.0,27,0.00,,---,0.22,VWS V14.01,2013-02-25 23:35:00,
2013-02-25 16:36:00,31.2,0.3,30.28,SSW,208,6.0,10.0,26,0.00,,---,0.22,VWS V14.01,2013-02-25 23:36:00,
2013-02-25 16:37:00,31.3,2.0,30.28,SW,215,8.0,10.0,28,0.00,,---,0.22,VWS V14.01,2013-02-25 23:37:00,
2013-02-25 16:38:00,31.0,1.7,30.28,WNW,288,9.0,13.0,28,0.00,,---,0.22,VWS V14.01,2013-02-25 23:38:00,
2013-02-25 16:39:00,30.8,1.5,30.28,West,265,5.0,11.0,28,0.00,,---,0.22,VWS V14.01,2013-02-25 23:39:00,
2013-02-25 16:40:00,30.7,1.5,30.28,SW,231,5.0,7.0,28,0.00,,---,0.22,VWS V14.01,2013-02-25 23:40:00,
2013-02-25 16:41:00,30.6,2.9,30.28,South,186,9.0,9.0,30,0.00,,---,0.22,VWS V14.01,2013-02-25 23:41:00,
2013-02-25 16:42:00,30.7,1.5,30.28,SSW,200,7.0,7.0,28,0.00,,---,0.22,VWS V14.01,2013-02-25 23:42:00,
2013-02-25 16:43:00,30.5,2.8,30.28,SSW,205,11.0,11.0,30,0.00,,---,0.22,VWS V14.01,2013-02-25 23:43:00,
2013-02-25 16:44:00,30.5,2.8,30.28,South,173,8.0,11.0,30,0.00,,---,0.22,VWS V14.01,2013-02-25 23:44:00,
2013-02-25 16:45:00,30.3,1.1,30.28,SSE,168,3.0,11.0,28,0.00,,---,0.22,VWS V14.01,2013-02-25 23:45:00,
2013-02-25 16:46:00,30.3,1.1,30.28,South,184,2.0,9.0,28,0.00,,---,0.22,VWS V14.01,2013-02-25 23:46:00,
2013-02-25 16:47:00,30.3,1.1,30.28,South,183,7.0,9.0,28,0.00,,---,0.22,VWS V14.01,2013-02-25 23:47:00,
2013-02-25 16:48:00,30.1,1.7,30.28,SW,218,7.0,11.0,29,0.00,,---,0.22,VWS V14.01,2013-02-25 23:48:00,
2013-02-25 16:49:00,29.9,1.5,30.28,WSW,248,6.0,8.0,29,0.00,,---,0.22,VWS V14.01,2013-02-25 23:49:00,
2013-02-25 16:50:00,29.9,1.5,30.28,SW,223,6.0,10.0,29,0.00,,---,0.22,VWS V14.01,2013-02-25 23:50:00,
2013-02-25 16:51:00,29.9,0.8,30.28,SSW,196,1.0,6.0,28,0.00,,---,0.22,VWS V14.01,2013-02-25 23:51:00,
2013-02-25 16:52:00,29.9,1.5,30.28,SW,223,2.0,6.0,29,0.00,,---,0.22,VWS V14.01,2013-02-25 23:52:00,
2013-02-25 16:53:00,29.8,2.9,30.28,South,188,5.0,7.0,31,0.00,,---,0.22,VWS V14.01,2013-02-25 23:53:00,
2013-02-25 16:54:00,29.8,2.9,30.28,South,182,2.0,8.0,31,0.00,,---,0.22,VWS V14.01,2013-02-25 23:54:00,
2013-02-25 16:55:00,29.7,3.5,30.28,SSW,192,6.0,9.0,32,0.00,,---,0.22,VWS V14.01,2013-02-25 23:55:00,
2013-02-25 16:56:00,29.6,3.4,30.28,SSW,206,6.0,8.0,32,0.00,,---,0.22,VWS V14.01,2013-02-25 23:56:00,
2013-02-25 16:57:00,29.7,3.5,30.28,South,173,7.0,8.0,32,0.00,,---,0.22,VWS V14.01,2013-02-25 23:57:00,
2013-02-25 16:58:00,29.5,2.6,30.28,South,184,8.0,8.0,31,0.00,,---,0.22,VWS V14.01,2013-02-25 23:58:00,
2013-02-25 16:59:00,29.4,1.8,30.28,SSW,205,10.0,11.0,30,0.00,,---,0.22,VWS V14.01,2013-02-25 23:59:00,
2013-02-25 17:00:00,29.3,1.0,30.28,South,188,5.0,10.0,29,0.00,,---,0.22,VWS V14.01,2013-02-26 00:00:00,
2013-02-25 17:01:00,29.2,1.6,30.28,South,182,5.0,9.0,30,0.00,,---,0.22,VWS V14.01,2013-02-26 00:01:00,
2013-02-25 17:02:00,29.3,1.0,30.28,South,180,8.0,8.0,29,0.00,,---,0.22,VWS V14.01,2013-02-26 00:02:00,
2013-02-25 17:03:00,29.1,1.5,30.28,SSW,202,7.0,9.0,30,0.00,,---,0.22,VWS V14.01,2013-02-26 00:03:00,
2013-02-25 17:04:00,28.9,1.4,30.28,SSW,202,4.0,8.0,30,0.00,,---,0.22,VWS V14.01,2013-02-26 00:04:00,
2013-02-25 17:05:00,28.9,1.4,30.28,SSE,163,7.0,7.0,30,0.00,,---,0.22,VWS V14.01,2013-02-26 00:05:00,
2013-02-25 17:06:00,28.8,1.3,30.28,South,181,11.0,13.0,30,0.00,,---,0.22,VWS V14.01,2013-02-26 00:06:00,
2013-02-25 17:07:00,28.8,1.3,30.28,South,175,13.0,13.0,30,0.00,,---,0.22,VWS V14.01,2013-02-26 00:07:00,
2013-02-25 17:08:00,28.5,1.7,30.28,SW,236,6.0,8.0,31,0.00,,---,0.22,VWS V14.01,2013-02-26 00:08:00,
2013-02-25 17:09:00,28.4,1.6,30.28,SW,236,0.0,6.0,31,0.00,,---,0.22,VWS V14.01,2013-02-26 00:09:00,
2013-02-25 17:10:00,28.3,0.9,30.28,SSW,194,7.0,7.0,30,0.00,,---,0.22,VWS V14.01,2013-02-26 00:10:00,
2013-02-25 17:11:00,28.3,0.9,30.28,South,191,2.0,7.0,30,0.00,,---,0.22,VWS V14.01,2013-02-26 00:11:00,
2013-02-25 17:12:00,28.3,0.9,30.28,South,191,1.0,7.0,30,0.00,,---,0.22,VWS V14.01,2013-02-26 00:12:00,
2013-02-25 17:13:00,28.2,0.8,30.28,WNW,287,12.0,12.0,30,0.00,,---,0.22,VWS V14.01,2013-02-26 00:13:00,
2013-02-25 17:14:00,28.0,0.6,30.28,NW,323,7.0,12.0,30,0.00,,---,0.22,VWS V14.01,2013-02-26 00:14:00,
2013-02-25 17:15:00,27.9,1.2,30.28,SSW,210,5.0,7.0,31,0.00,,---,0.22,VWS V14.01,2013-02-26 00:15:00,
2013-02-25 17:16:00,27.8,1.1,30.28,SSW,210,2.0,5.0,31,0.00,,---,0.22,VWS V14.01,2013-02-26 00:16:00,
2013-02-25 17:17:00,27.8,1.1,30.28,SSW,210,2.0,5.0,31,0.00,,---,0.22,VWS V14.01,2013-02-26 00:17:00,
2013-02-25 17:18:00,27.5,0.2,30.28,SSW,210,1.0,1.0,30,0.00,,---,0.22,VWS V14.01,2013-02-26 00:18:00,
2013-02-25 17:19:00,27.5,0.2,30.28,SSW,211,4.0,6.0,30,0.00,,---,0.22,VWS V14.01,2013-02-26 00:19:00,
2013-02-25 17:20:00,27.4,0.8,30.28,SSW,211,2.0,5.0,31,0.00,,---,0.22,VWS V14.01,2013-02-26 00:20:00,
2013-02-25 17:21:00,27.4,0.1,30.28,SSW,211,0.0,2.0,30,0.00,,---,0.22,VWS V14.01,2013-02-26 00:21:00,
2013-02-25 17:22:00,27.4,2.1,30.28,SSW,211,1.0,1.0,33,0.00,,---,0.22,VWS V14.01,2013-02-26 00:22:00,
2013-02-25 17:23:00,27.4,0.1,30.28,SSW,211,0.0,2.0,30,0.00,,---,0.22,VWS V14.01,2013-02-26 00:23:00,
2013-02-25 17:24:00,27.4,2.1,30.28,WSW,248,2.0,4.0,33,0.00,,---,0.22,VWS V14.01,2013-02-26 00:24:00,
2013-02-25 17:25:00,27.3,1.4,30.28,WSW,248,4.0,4.0,32,0.00,,---,0.22,VWS V14.01,2013-02-26 00:25:00,
2013-02-25 17:26:00,27.3,1.4,30.28,WSW,247,5.0,6.0,32,0.00,,---,0.22,VWS V14.01,2013-02-26 00:26:00,
2013-02-25 17:27:00,27.2,0.6,30.28,West,260,2.0,6.0,31,0.00,,---,0.22,VWS V14.01,2013-02-26 00:27:00,
2013-02-25 17:28:00,27.3,1.4,30.28,WSW,247,4.0,5.0,32,0.00,,---,0.22,VWS V14.01,2013-02-26 00:28:00,
2013-02-25 17:29:00,27.0,0.4,30.27,SW,228,4.0,6.0,31,0.00,,---,0.22,VWS V14.01,2013-02-26 00:29:00,
2013-02-25 17:30:00,26.8,0.2,30.28,South,174,5.0,9.0,31,0.00,,---,0.22,VWS V14.01,2013-02-26 00:30:00,
2013-02-25 17:31:00,26.7,1.5,30.27,South,189,9.0,10.0,33,0.00,,---,0.22,VWS V14.01,2013-02-26 00:31:00,
2013-02-25 17:32:00,26.5,1.9,30.28,SSW,213,7.0,10.0,34,0.00,,---,0.22,VWS V14.01,2013-02-26 00:32:00,
2013-02-25 17:33:00,26.7,1.5,30.27,South,189,9.0,10.0,33,0.00,,---,0.22,VWS V14.01,2013-02-26 00:33:00,
2013-02-25 17:34:00,26.1,0.3,30.28,WSW,245,5.0,9.0,32,0.00,,---,0.22,VWS V14.01,2013-02-26 00:34:00,
2013-02-25 17:35:00,25.8,0.7,30.28,WSW,243,4.0,6.0,33,0.00,,---,0.22,VWS V14.01,2013-02-26 00:35:00,
2013-02-25 17:36:00,25.7,1.2,30.27,WSW,242,4.0,5.0,34,0.00,,---,0.22,VWS V14.01,2013-02-26 00:36:00,
2013-02-25 17:37:00,25.5,0.4,30.27,WSW,242,0.0,5.0,33,0.00,,---,0.22,VWS V14.01,2013-02-26 00:37:00,
2013-02-25 17:38:00,25.7,1.2,30.27,WSW,242,4.0,5.0,34,0.00,,---,0.22,VWS V14.01,2013-02-26 00:38:00,
2013-02-25 17:39:00,25.2,0.8,30.27,SSE,153,5.0,6.0,34,0.00,,---,0.22,VWS V14.01,2013-02-26 00:39:00,
2013-02-25 17:40:00,25.1,2.5,30.27,SSE,155,7.0,7.0,37,0.00,,---,0.22,VWS V14.01,2013-02-26 00:40:00,
2013-02-25 17:41:00,24.8,1.0,30.27,South,170,2.0,8.0,35,0.00,,---,0.22,VWS V14.01,2013-02-26 00:41:00,
2013-02-25 17:42:00,24.7,0.9,30.27,South,170,4.0,4.0,35,0.00,,---,0.22,VWS V14.01,2013-02-26 00:42:00,
2013-02-25 17:43:00,24.8,1.0,30.27,South,170,2.0,8.0,35,0.00,,---,0.22,VWS V14.01,2013-02-26 00:43:00,
2013-02-25 17:44:00,24.4,1.9,30.27,SE,139,5.0,10.0,37,0.00,,---,0.22,VWS V14.01,2013-02-26 00:44:00,
2013-02-25 17:45:00,24.2,1.7,30.27,South,186,3.0,5.0,37,0.00,,---,0.22,VWS V14.01,2013-02-26 00:45:00,
2013-02-25 17:46:00,24.0,0.9,30.27,WNW,286,3.0,6.0,36,0.00,,---,0.22,VWS V14.01,2013-02-26 00:46:00,
2013-02-25 17:47:00,23.9,0.2,30.27,WNW,285,0.0,3.0,35,0.00,,---,0.22,VWS V14.01,2013-02-26 00:47:00,
2013-02-25 17:48:00,24.0,0.9,30.27,WNW,286,3.0,6.0,36,0.00,,---,0.22,VWS V14.01,2013-02-26 00:48:00,
2013-02-25 17:49:00,23.7,1.2,30.27,South,174,1.0,5.0,37,0.00,,---,0.22,VWS V14.01,2013-02-26 00:49:00,
2013-02-25 17:50:00,23.6,1.2,30.27,South,174,4.0,5.0,37,0.00,,---,0.22,VWS V14.01,2013-02-26 00:50:00,
2013-02-25 17:51:00,23.5,1.6,30.27,South,174,4.0,5.0,38,0.00,,---,0.22,VWS V14.01,2013-02-26 00:51:00,
2013-02-25 17:52:00,23.4,1.0,30.27,NNW,331,0.0,5.0,37,0.00,,---,0.22,VWS V14.01,2013-02-26 00:52:00,
2013-02-25 17:53:00,23.5,1.6,30.27,South,174,2.0,4.0,38,0.00,,---,0.22,VWS V14.01,2013-02-26 00:53:00,
2013-02-25 17:54:00,23.3,0.9,30.27,SW,229,2.0,8.0,37,0.00,,---,0.22,VWS V14.01,2013-02-26 00:54:00,
2013-02-25 17:55:00,23.2,-0.4,30.27,SW,229,3.0,4.0,35,0.00,,---,0.22,VWS V14.01,2013-02-26 00:55:00,
2013-02-25 17:56:00,23.1,0.1,30.27,SW,229,2.0,5.0,36,0.00,,---,0.22,VWS V14.01,2013-02-26 00:56:00,
2013-02-25 17:57:00,23.1,0.1,30.27,West,265,1.0,5.0,36,0.00,,---,0.22,VWS V14.01,2013-02-26 00:57:00,
2013-02-25 17:58:00,23.1,0.1,30.27,SW,229,2.0,3.0,36,0.00,,---,0.22,VWS V14.01,2013-02-26 00:58:00,
2013-02-25 17:59:00,23.0,0.0,30.27,West,260,6.0,9.0,36,0.00,,---,0.22,VWS V14.01,2013-02-26 00:59:00,
2013-02-25 18:00:00,22.9,-0.1,30.26,West,269,5.0,12.0,36,0.00,,---,0.22,VWS V14.01,2013-02-26 01:00:00,
2013-02-25 18:01:00,22.9,0.5,30.26,SW,231,4.0,7.0,37,0.00,,---,0.22,VWS V14.01,2013-02-26 01:01:00,
2013-02-25 18:02:00,22.9,1.1,30.26,WSW,244,6.0,7.0,38,0.00,,---,0.22,VWS V14.01,2013-02-26 01:02:00,
2013-02-25 18:03:00,22.9,1.1,30.26,SW,234,5.0,6.0,38,0.00,,---,0.22,VWS V14.01,2013-02-26 01:03:00,
2013-02-25 18:04:00,22.8,0.4,30.26,West,268,5.0,10.0,37,0.00,,---,0.22,VWS V14.01,2013-02-26 01:04:00,
2013-02-25 18:05:00,22.8,0.4,30.26,WSW,245,6.0,10.0,37,0.00,,---,0.22,VWS V14.01,2013-02-26 01:05:00,
2013-02-25 18:06:00,22.8,0.4,30.26,WSW,252,11.0,13.0,37,0.00,,---,0.22,VWS V14.01,2013-02-26 01:06:00,
2013-02-25 18:07:00,22.7,0.3,30.26,WSW,256,5.0,13.0,37,0.00,,---,0.22,VWS V14.01,2013-02-26 01:07:00,
2013-02-25 18:08:00,22.7,0.3,30.26,WSW,252,12.0,13.0,37,0.00,,---,0.22,VWS V14.01,2013-02-26 01:08:00,
2013-02-25 18:09:00,22.7,0.9,30.26,West,260,8.0,8.0,38,0.00,,---,0.22,VWS V14.01,2013-02-26 01:09:00,
2013-02-25 18:10:00,22.7,0.3,30.26,WSW,255,6.0,12.0,37,0.00,,---,0.22,VWS V14.01,2013-02-26 01:10:00,
2013-02-25 18:11:00,22.7,0.3,30.26,WSW,252,8.0,12.0,37,0.00,,---,0.22,VWS V14.01,2013-02-26 01:11:00,
2013-02-25 18:12:00,22.7,0.3,30.26,WSW,246,8.0,14.0,37,0.00,,---,0.22,VWS V14.01,2013-02-26 01:12:00,
2013-02-25 18:13:00,22.7,0.3,30.26,West,261,5.0,8.0,37,0.00,,---,0.22,VWS V14.01,2013-02-26 01:13:00,
2013-02-25 18:14:00,22.6,0.3,30.26,WSW,245,9.0,12.0,37,0.00,,---,0.22,VWS V14.01,2013-02-26 01:14:00,
2013-02-25 18:15:00,22.6,0.8,30.26,WNW,283,12.0,15.0,38,0.00,,---,0.22,VWS V14.01,2013-02-26 01:15:00,
2013-02-25 18:16:00,22.6,0.8,30.26,WSW,238,11.0,14.0,38,0.00,,---,0.22,VWS V14.01,2013-02-26 01:16:00,
2013-02-25 18:17:00,22.6,0.8,30.26,WSW,256,6.0,14.0,38,0.00,,---,0.22,VWS V14.01,2013-02-26 01:17:00,
2013-02-25 18:18:00,22.6,0.8,30.26,SW,219,5.0,14.0,38,0.00,,---,0.22,VWS V14.01,2013-02-26 01:18:00,
2013-02-25 18:19:00,22.5,1.3,30.26,WSW,242,5.0,14.0,39,0.00,,---,0.22,VWS V14.01,2013-02-26 01:19:00,
2013-02-25 18:20:00,22.5,1.3,30.26,SW,236,6.0,10.0,39,0.00,,---,0.22,VWS V14.01,2013-02-26 01:20:00,
2013-02-25 18:21:00,22.5,1.3,30.26,West,279,9.0,20.0,39,0.00,,---,0.22,VWS V14.01,2013-02-26 01:21:00,
2013-02-25 18:22:00,22.5,1.3,30.26,West,269,7.0,13.0,39,0.00,,---,0.22,VWS V14.01,2013-02-26 01:22:00,
2013-02-25 18:23:00,22.5,1.3,30.26,WSW,256,11.0,13.0,39,0.00,,---,0.22,VWS V14.01,2013-02-26 01:23:00,
2013-02-25 18:24:00,22.4,1.8,30.26,WSW,254,9.0,13.0,40,0.00,,---,0.22,VWS V14.01,2013-02-26 01:24:00,
2013-02-25 18:25:00,22.4,1.8,30.26,West,265,10.0,14.0,40,0.00,,---,0.22,VWS V14.01,2013-02-26 01:25:00,
2013-02-25 18:26:00,22.4,1.8,30.26,WNW,284,10.0,10.0,40,0.00,,---,0.22,VWS V14.01,2013-02-26 01:26:00,
2013-02-25 18:27:00,22.4,1.8,30.26,West,263,8.0,11.0,40,0.00,,---,0.22,VWS V14.01,2013-02-26 01:27:00,
2013-02-25 18:28:00,22.4,1.2,30.26,WSW,238,8.0,11.0,39,0.00,,---,0.22,VWS V14.01,2013-02-26 01:28:00,
2013-02-25 18:29:00,22.3,1.7,30.26,West,259,5.0,11.0,40,0.00,,---,0.22,VWS V14.01,2013-02-26 01:29:00,
2013-02-25 18:30:00,22.3,1.7,30.26,WNW,298,6.0,9.0,40,0.00,,---,0.22,VWS V14.01,2013-02-26 01:30:00,
2013-02-25 18:31:00,22.2,1.6,30.26,West,277,10.0,10.0,40,0.00,,---,0.22,VWS V14.01,2013-02-26 01:31:00,
2013-02-25 18:32:00,22.2,1.6,30.26,WNW,284,5.0,10.0,40,0.00,,---,0.22,VWS V14.01,2013-02-26 01:32:00,
2013-02-25 18:33:00,22.2,1.6,30.26,WNW,285,5.0,10.0,40,0.00,,---,0.22,VWS V14.01,2013-02-26 01:33:00,
2013-02-25 18:34:00,22.1,1.5,30.26,WNW,296,6.0,9.0,40,0.00,,---,0.22,VWS V14.01,2013-02-26 01:34:00,
2013-02-25 18:35:00,22.1,1.5,30.26,SW,236,4.0,15.0,40,0.00,,---,0.22,VWS V14.01,2013-02-26 01:35:00,
2013-02-25 18:36:00,22.0,1.4,30.26,West,277,9.0,12.0,40,0.00,,---,0.22,VWS V14.01,2013-02-26 01:36:00,
2013-02-25 18:37:00,22.0,1.4,30.26,WSW,246,5.0,10.0,40,0.00,,---,0.22,VWS V14.01,2013-02-26 01:37:00,
2013-02-25 18:38:00,22.0,1.4,30.26,West,260,10.0,10.0,40,0.00,,---,0.22,VWS V14.01,2013-02-26 01:38:00,
2013-02-25 18:39:00,22.0,1.4,30.26,West,264,7.0,12.0,40,0.00,,---,0.22,VWS V14.01,2013-02-26 01:39:00,
2013-02-25 18:40:00,22.0,1.9,30.26,SW,229,11.0,14.0,41,0.00,,---,0.22,VWS V14.01,2013-02-26 01:40:00,
2013-02-25 18:41:00,21.9,1.8,30.26,West,261,5.0,12.0,41,0.00,,---,0.22,VWS V14.01,2013-02-26 01:41:00,
2013-02-25 18:42:00,21.9,1.8,30.26,SW,229,8.0,9.0,41,0.00,,---,0.22,VWS V14.01,2013-02-26 01:42:00,
2013-02-25 18:43:00,21.9,1.8,30.26,WSW,243,4.0,9.0,41,0.00,,---,0.22,VWS V14.01,2013-02-26 01:43:00,
2013-02-25 18:44:00,21.9,1.8,30.26,WSW,248,9.0,9.0,41,0.00,,---,0.22,VWS V14.01,2013-02-26 01:44:00,
2013-02-25 18:45:00,21.8,1.7,30.26,West,259,5.0,9.0,41,0.00,,---,0.22,VWS V14.01,2013-02-26 01:45:00,
2013-02-25 18:46:00,21.8,1.7,30.26,WSW,237,5.0,9.0,41,0.00,,---,0.22,VWS V14.01,2013-02-26 01:46:00,
2013-02-25 18:47:00,21.7,1.6,30.26,WSW,242,0.0,7.0,41,0.00,,---,0.22,VWS V14.01,2013-02-26 01:47:00,
2013-02-25 18:48:00,21.7,1.6,30.26,WSW,242,2.0,7.0,41,0.00,,---,0.22,VWS V14.01,2013-02-26 01:48:00,
2013-02-25 18:49:00,21.7,1.6,30.26,West,271,6.0,11.0,41,0.00,,---,0.22,VWS V14.01,2013-02-26 01:49:00,
2013-02-25 18:50:00,21.6,1.5,30.25,WSW,258,5.0,7.0,41,0.00,,---,0.22,VWS V14.01,2013-02-26 01:50:00,
2013-02-25 18:51:00,21.6,1.5,30.25,WNW,290,10.0,11.0,41,0.00,,---,0.22,VWS V14.01,2013-02-26 01:51:00,
2013-02-25 18:52:00,21.6,1.5,30.25,WNW,286,7.0,12.0,41,0.00,,---,0.22,VWS V14.01,2013-02-26 01:52:00,
2013-02-25 18:53:00,21.6,1.5,30.25,WSW,253,9.0,12.0,41,0.00,,---,0.22,VWS V14.01,2013-02-26 01:53:00,
2013-02-25 18:54:00,21.6,1.5,30.25,WSW,248,7.0,10.0,41,0.00,,---,0.22,VWS V14.01,2013-02-26 01:54:00,
2013-02-25 18:55:00,21.6,1.5,30.25,West,273,5.0,9.0,41,0.00,,---,0.22,VWS V14.01,2013-02-26 01:55:00,
2013-02-25 18:56:00,21.6,1.5,30.25,WSW,258,9.0,10.0,41,0.00,,---,0.22,VWS V14.01,2013-02-26 01:56:00,
2013-02-25 18:57:00,21.7,1.6,30.25,West,259,7.0,10.0,41,0.00,,---,0.22,VWS V14.01,2013-02-26 01:57:00,
2013-02-25 18:58:00,21.6,1.5,30.25,WSW,257,9.0,10.0,41,0.00,,---,0.22,VWS V14.01,2013-02-26 01:58:00,
2013-02-25 18:59:00,21.6,1.5,30.25,West,277,4.0,10.0,41,0.00,,---,0.22,VWS V14.01,2013-02-26 01:59:00,
2013-02-25 19:00:00,21.6,1.5,30.25,WSW,258,9.0,9.0,41,0.00,,---,0.22,VWS V14.01,2013-02-26 02:00:00,
2013-02-25 19:01:00,21.5,1.5,30.25,WSW,254,4.0,9.0,41,0.00,,---,0.22,VWS V14.01,2013-02-26 02:01:00,
2013-02-25 19:02:00,21.5,1.5,30.25,WSW,238,7.0,7.0,41,0.00,,---,0.22,VWS V14.01,2013-02-26 02:02:00,
2013-02-25 19:03:00,21.5,1.5,30.25,WSW,255,4.0,7.0,41,0.00,,---,0.22,VWS V14.01,2013-02-26 02:03:00,
2013-02-25 19:04:00,21.4,1.4,30.25,WSW,252,4.0,8.0,41,0.00,,---,0.22,VWS V14.01,2013-02-26 02:04:00,
2013-02-25 19:05:00,21.3,1.3,30.25,WSW,240,7.0,8.0,41,0.00,,---,0.22,VWS V14.01,2013-02-26 02:05:00,
2013-02-25 19:06:00,21.3,1.3,30.25,WSW,249,6.0,7.0,41,0.00,,---,0.22,VWS V14.01,2013-02-26 02:06:00,
2013-02-25 19:07:00,21.2,1.2,30.25,WSW,254,4.0,8.0,41,0.00,,---,0.22,VWS V14.01,2013-02-26 02:07:00,
2013-02-25 19:08:00,21.2,1.2,30.25,West,271,7.0,8.0,41,0.00,,---,0.22,VWS V14.01,2013-02-26 02:08:00,
2013-02-25 19:09:00,21.2,1.2,30.25,WSW,254,4.0,8.0,41,0.00,,---,0.22,VWS V14.01,2013-02-26 02:09:00,
2013-02-25 19:10:00,21.1,1.1,30.25,WSW,246,7.0,9.0,41,0.00,,---,0.22,VWS V14.01,2013-02-26 02:10:00,
2013-02-25 19:11:00,21.1,1.1,30.25,WSW,243,7.0,12.0,41,0.00,,---,0.22,VWS V14.01,2013-02-26 02:11:00,
2013-02-25 19:12:00,21.1,1.1,30.25,WSW,252,8.0,8.0,41,0.00,,---,0.22,VWS V14.01,2013-02-26 02:12:00,
2013-02-25 19:13:00,21.1,1.1,30.25,West,271,8.0,13.0,41,0.00,,---,0.22,VWS V14.01,2013-02-26 02:13:00,
2013-02-25 19:14:00,21.1,1.1,30.25,WSW,252,8.0,8.0,41,0.00,,---,0.22,VWS V14.01,2013-02-26 02:14:00,
2013-02-25 19:15:00,21.1,1.1,30.25,SW,224,8.0,10.0,41,0.00,,---,0.22,VWS V14.01,2013-02-26 02:15:00,
2013-02-25 19:16:00,21.1,1.1,30.24,WSW,248,9.0,10.0,41,0.00,,---,0.22,VWS V14.01,2013-02-26 02:16:00,
2013-02-25 19:17:00,21.2,1.2,30.24,WSW,249,8.0,12.0,41,0.00,,---,0.22,VWS V14.01,2013-02-26 02:17:00,
2013-02-25 19:18:00,21.2,1.2,30.24,WSW,257,9.0,10.0,41,0.00,,---,0.22,VWS V14.01,2013-02-26 02:18:00,
2013-02-25 19:19:00,21.2,1.2,30.24,WSW,249,8.0,12.0,41,0.00,,---,0.22,VWS V14.01,2013-02-26 02:19:00,
2013-02-25 19:20:00,21.3,1.3,30.24,WSW,246,5.0,8.0,41,0.00,,---,0.22,VWS V14.01,2013-02-26 02:20:00,
2013-02-25 19:21:00,21.3,1.3,30.24,WSW,238,11.0,11.0,41,0.00,,---,0.22,VWS V14.01,2013-02-26 02:21:00,
2013-02-25 19:22:00,21.3,1.3,30.24,WSW,244,9.0,13.0,41,0.00,,---,0.22,VWS V14.01,2013-02-26 02:22:00,
2013-02-25 19:23:00,21.3,1.3,30.24,SW,227,6.0,9.0,41,0.00,,---,0.22,VWS V14.01,2013-02-26 02:23:00,
2013-02-25 19:24:00,21.3,1.3,30.24,SW,236,9.0,9.0,41,0.00,,---,0.22,VWS V14.01,2013-02-26 02:24:00,
2013-02-25 19:25:00,21.3,1.3,30.24,WSW,242,5.0,12.0,41,0.00,,---,0.22,VWS V14.01,2013-02-26 02:25:00,
2013-02-25 19:26:00,21.3,1.3,30.24,WSW,257,8.0,10.0,41,0.00,,---,0.22,VWS V14.01,2013-02-26 02:26:00,
2013-02-25 19:27:00,21.3,1.3,30.24,West,280,10.0,10.0,41,0.00,,---,0.22,VWS V14.01,2013-02-26 02:27:00,
2013-02-25 19:28:00,21.3,1.3,30.24,SW,234,8.0,13.0,41,0.00,,---,0.22,VWS V14.01,2013-02-26 02:28:00,
2013-02-25 19:29:00,21.3,1.3,30.24,West,280,10.0,10.0,41,0.00,,---,0.22,VWS V14.01,2013-02-26 02:29:00,
2013-02-25 19:30:00,21.3,1.3,30.24,West,265,5.0,11.0,41,0.00,,---,0.22,VWS V14.01,2013-02-26 02:30:00,
2013-02-25 19:31:00,21.3,1.8,30.24,West,272,8.0,10.0,42,0.00,,---,0.22,VWS V14.01,2013-02-26 02:31:00,
2013-02-25 19:32:00,21.3,1.8,30.23,WSW,258,6.0,9.0,42,0.00,,---,0.22,VWS V14.01,2013-02-26 02:32:00,
2013-02-25 19:33:00,21.2,1.2,30.23,WSW,246,9.0,9.0,41,0.00,,---,0.22,VWS V14.01,2013-02-26 02:33:00,
2013-02-25 19:34:00,21.3,1.8,30.23,WSW,258,6.0,9.0,42,0.00,,---,0.22,VWS V14.01,2013-02-26 02:34:00,
2013-02-25 19:35:00,21.2,1.2,30.23,WSW,241,8.0,11.0,41,0.00,,---,0.22,VWS V14.01,2013-02-26 02:35:00,
2013-02-25 19:36:00,21.1,1.6,30.23,West,273,5.0,8.0,42,0.00,,---,0.22,VWS V14.01,2013-02-26 02:36:00,
2013-02-25 19:37:00,21.1,1.6,30.23,SW,236,10.0,10.0,42,0.00,,---,0.22,VWS V14.01,2013-02-26 02:37:00,
2013-02-25 19:38:00,21.1,1.1,30.23,West,281,10.0,10.0,41,0.00,,---,0.22,VWS V14.01,2013-02-26 02:38:00,
2013-02-25 19:39:00,21.1,1.6,30.23,West,262,5.0,10.0,42,0.00,,---,0.22,VWS V14.01,2013-02-26 02:39:00,
2013-02-25 19:40:00,21.1,1.6,30.23,West,279,9.0,11.0,42,0.00,,---,0.22,VWS V14.01,2013-02-26 02:40:00,
2013-02-25 19:41:00,21.1,1.1,30.24,West,277,8.0,10.0,41,0.00,,---,0.22,VWS V14.01,2013-02-26 02:41:00,
2013-02-25 19:42:00,21.2,1.2,30.24,West,269,4.0,10.0,41,0.00,,---,0.22,VWS V14.01,2013-02-26 02:42:00,
2013-02-25 19:43:00,21.2,1.2,30.24,West,261,6.0,9.0,41,0.00,,---,0.22,VWS V14.01,2013-02-26 02:43:00,
2013-02-25 19:44:00,21.2,1.7,30.24,WNW,288,8.0,8.0,42,0.00,,---,0.22,VWS V14.01,2013-02-26 02:44:00,
2013-02-25 19:45:00,21.2,1.2,30.24,West,267,7.0,12.0,41,0.00,,---,0.22,VWS V14.01,2013-02-26 02:45:00,
2013-02-25 19:46:00,21.2,1.2,30.24,West,272,4.0,8.0,41,0.00,,---,0.22,VWS V14.01,2013-02-26 02:46:00,
2013-02-25 19:47:00,21.2,1.7,30.24,West,277,9.0,10.0,42,0.00,,---,0.22,VWS V14.01,2013-02-26 02:47:00,
2013-02-25 19:48:00,21.3,1.8,30.24,WSW,247,4.0,13.0,42,0.00,,---,0.22,VWS V14.01,2013-02-26 02:48:00,
2013-02-25 19:49:00,21.3,1.8,30.24,NW,304,12.0,12.0,42,0.00,,---,0.22,VWS V14.01,2013-02-26 02:49:00,
2013-02-25 19:50:00,21.3,1.8,30.24,West,260,7.0,18.0,42,0.00,,---,0.22,VWS V14.01,2013-02-26 02:50:00,
2013-02-25 19:51:00,21.5,2.0,30.24,WNW,296,3.0,7.0,42,0.00,,---,0.22,VWS V14.01,2013-02-26 02:51:00,
2013-02-25 19:52:00,21.5,2.0,30.24,WNW,290,8.0,8.0,42,0.00,,---,0.22,VWS V14.01,2013-02-26 02:52:00,
2013-02-25 19:53:00,21.6,1.5,30.24,West,277,4.0,9.0,41,0.00,,---,0.22,VWS V14.01,2013-02-26 02:53:00,
2013-02-25 19:54:00,21.5,1.5,30.24,WNW,298,4.0,8.0,41,0.00,,---,0.22,VWS V14.01,2013-02-26 02:54:00,
2013-02-25 19:55:00,21.6,2.1,30.24,West,260,12.0,12.0,42,0.00,,---,0.22,VWS V14.01,2013-02-26 02:55:00,
2013-02-25 19:56:00,21.6,2.1,30.24,SW,220,8.0,15.0,42,0.00,,---,0.22,VWS V14.01,2013-02-26 02:56:00,
2013-02-25 19:57:00,21.7,2.2,30.24,WSW,240,9.0,15.0,42,0.00,,---,0.22,VWS V14.01,2013-02-26 02:57:00,
2013-02-25 19:58:00,21.7,1.6,30.24,WSW,257,5.0,10.0,41,0.00,,---,0.22,VWS V14.01,2013-02-26 02:58:00,
2013-02-25 19:59:00,21.7,1.6,30.24,WSW,250,9.0,9.0,41,0.00,,---,0.22,VWS V14.01,2013-02-26 02:59:00,
2013-02-25 20:00:00,21.8,2.2,30.24,WSW,242,5.0,6.0,42,0.00,,---,0.22,VWS V14.01,2013-02-26 03:00:00,
2013-02-25 20:01:00,21.7,2.2,30.24,SW,221,7.0,9.0,42,0.00,,---,0.22,VWS V14.01,2013-02-26 03:01:00,
2013-02-25 20:02:00,21.7,2.2,30.24,SW,229,9.0,9.0,42,0.00,,---,0.22,VWS V14.01,2013-02-26 03:02:00,
2013-02-25 20:03:00,21.7,1.6,30.24,SW,223,3.0,9.0,41,0.00,,---,0.22,VWS V14.01,2013-02-26 03:03:00,
2013-02-25 20:04:00,21.7,1.6,30.24,SW,222,3.0,9.0,41,0.00,,---,0.22,VWS V14.01,2013-02-26 03:04:00,
2013-02-25 20:05:00,21.7,1.6,30.24,West,261,4.0,5.0,41,0.00,,---,0.22,VWS V14.01,2013-02-26 03:05:00,
2013-02-25 20:06:00,21.7,1.6,30.24,West,261,2.0,4.0,41,0.00,,---,0.22,VWS V14.01,2013-02-26 03:06:00,
2013-02-25 20:07:00,21.6,2.1,30.24,South,169,10.0,10.0,42,0.00,,---,0.22,VWS V14.01,2013-02-26 03:07:00,
2013-02-25 20:08:00,21.6,2.1,30.24,SW,225,5.0,10.0,42,0.00,,---,0.22,VWS V14.01,2013-02-26 03:08:00,
2013-02-25 20:09:00,21.6,2.1,30.24,SW,220,8.0,10.0,42,0.00,,---,0.22,VWS V14.01,2013-02-26 03:09:00,
2013-02-25 20:10:00,21.6,2.1,30.24,SW,235,8.0,8.0,42,0.00,,---,0.22,VWS V14.01,2013-02-26 03:10:00,
2013-02-25 20:11:00,21.5,2.0,30.24,WSW,247,1.0,9.0,42,0.00,,---,0.22,VWS V14.01,2013-02-26 03:11:00,
2013-02-25 20:12:00,21.6,2.1,30.24,SW,217,8.0,11.0,42,0.00,,---,0.22,VWS V14.01,2013-02-26 03:12:00,
2013-02-25 20:13:00,21.6,2.1,30.24,SW,233,4.0,8.0,42,0.00,,---,0.22,VWS V14.01,2013-02-26 03:13:00,
2013-02-25 20:14:00,21.6,2.1,30.24,WSW,238,8.0,8.0,42,0.00,,---,0.22,VWS V14.01,2013-02-26 03:14:00,
2013-02-25 20:15:00,21.5,2.5,30.23,WSW,255,3.0,8.0,43,0.00,,---,0.22,VWS V14.01,2013-02-26 03:15:00,
2013-02-25 20:16:00,21.5,2.5,30.23,WSW,242,7.0,9.0,43,0.00,,---,0.22,VWS V14.01,2013-02-26 03:16:00,
2013-02-25 20:17:00,21.5,2.5,30.23,WSW,254,5.0,7.0,43,0.00,,---,0.22,VWS V14.01,2013-02-26 03:17:00,
2013-02-25 20:18:00,21.5,2.5,30.23,WSW,250,3.0,5.0,43,0.00,,---,0.22,VWS V14.01,2013-02-26 03:18:00,
2013-02-25 20:19:00,21.5,2.5,30.23,WSW,250,4.0,5.0,43,0.00,,---,0.22,VWS V14.01,2013-02-26 03:19:00,
2013-02-25 20:20:00,21.4,2.9,30.23,West,275,6.0,6.0,44,0.00,,---,0.22,VWS V14.01,2013-02-26 03:20:00,
2013-02-25 20:21:00,21.4,2.9,30.23,West,281,1.0,6.0,44,0.00,,---,0.22,VWS V14.01,2013-02-26 03:21:00,
2013-02-25 20:22:00,21.4,2.9,30.23,WNW,287,5.0,7.0,44,0.00,,---,0.22,VWS V14.01,2013-02-26 03:22:00,
2013-02-25 20:23:00,21.4,2.9,30.23,West,276,1.0,7.0,44,0.00,,---,0.22,VWS V14.01,2013-02-26 03:23:00,
2013-02-25 20:24:00,21.4,2.9,30.23,West,276,1.0,7.0,44,0.00,,---,0.22,VWS V14.01,2013-02-26 03:24:00,
2013-02-25 20:25:00,21.3,3.3,30.23,WSW,243,10.0,11.0,45,0.00,,---,0.22,VWS V14.01,2013-02-26 03:25:00,
2013-02-25 20:26:00,21.3,2.8,30.23,WSW,244,6.0,10.0,44,0.00,,---,0.22,VWS V14.01,2013-02-26 03:26:00,
2013-02-25 20:27:00,21.3,3.3,30.23,WNW,287,4.0,12.0,45,0.00,,---,0.22,VWS V14.01,2013-02-26 03:27:00,
2013-02-25 20:28:00,21.2,3.2,30.23,WNW,282,5.0,9.0,45,0.00,,---,0.22,VWS V14.01,2013-02-26 03:28:00,
2013-02-25 20:29:00,21.2,3.2,30.23,WSW,255,6.0,7.0,45,0.00,,---,0.22,VWS V14.01,2013-02-26 03:29:00,
2013-02-25 20:30:00,21.2,3.2,30.23,WNW,282,5.0,9.0,45,0.00,,---,0.22,VWS V14.01,2013-02-26 03:30:00,
2013-02-25 20:31:00,21.3,3.3,30.23,SW,217,7.0,9.0,45,0.00,,---,0.22,VWS V14.01,2013-02-26 03:31:00,
2013-02-25 20:32:00,21.3,3.3,30.23,SSW,213,9.0,12.0,45,0.00,,---,0.22,VWS V14.01,2013-02-26 03:32:00,
2013-02-25 20:33:00,21.3,3.8,30.23,WSW,251,8.0,11.0,46,0.00,,---,0.22,VWS V14.01,2013-02-26 03:33:00,
2013-02-25 20:34:00,21.3,3.8,30.23,WSW,244,2.0,8.0,46,0.00,,---,0.22,VWS V14.01,2013-02-26 03:34:00,
2013-02-25 20:35:00,21.3,3.8,30.23,WSW,251,8.0,11.0,46,0.00,,---,0.22,VWS V14.01,2013-02-26 03:35:00,
2013-02-25 20:36:00,21.3,3.8,30.23,South,190,4.0,5.0,46,0.00,,---,0.22,VWS V14.01,2013-02-26 03:36:00,
2013-02-25 20:37:00,21.3,3.8,30.23,South,190,2.0,4.0,46,0.00,,---,0.22,VWS V14.01,2013-02-26 03:37:00,
2013-02-25 20:38:00,21.3,3.8,30.23,South,173,8.0,8.0,46,0.00,,---,0.22,VWS V14.01,2013-02-26 03:38:00,
2013-02-25 20:39:00,21.2,3.2,30.23,SSE,164,1.0,10.0,45,0.00,,---,0.22,VWS V14.01,2013-02-26 03:39:00,
2013-02-25 20:40:00,21.3,3.8,30.23,South,173,8.0,8.0,46,0.00,,---,0.22,VWS V14.01,2013-02-26 03:40:00,
2013-02-25 20:41:00,21.1,3.6,30.23,SSW,209,7.0,7.0,46,0.00,,---,0.22,VWS V14.01,2013-02-26 03:41:00,
2013-02-25 20:42:00,21.1,3.6,30.23,WSW,238,6.0,11.0,46,0.00,,---,0.22,VWS V14.01,2013-02-26 03:42:00,
2013-02-25 20:43:00,21.1,3.6,30.23,SW,236,8.0,8.0,46,0.00,,---,0.22,VWS V14.01,2013-02-26 03:43:00,
2013-02-25 20:44:00,21.1,3.6,30.23,SW,236,2.0,8.0,46,0.00,,---,0.22,VWS V14.01,2013-02-26 03:44:00,
2013-02-25 20:45:00,21.1,3.6,30.23,SW,236,8.0,8.0,46,0.00,,---,0.22,VWS V14.01,2013-02-26 03:45:00,
2013-02-25 20:46:00,21.1,3.6,30.23,SW,216,10.0,11.0,46,0.00,,---,0.22,VWS V14.01,2013-02-26 03:46:00,
2013-02-25 20:47:00,21.1,4.0,30.23,SW,232,6.0,11.0,47,0.00,,---,0.22,VWS V14.01,2013-02-26 03:47:00,
2013-02-25 20:48:00,21.1,4.0,30.23,SW,222,8.0,11.0,47,0.00,,---,0.22,VWS V14.01,2013-02-26 03:48:00,
2013-02-25 20:49:00,21.1,4.0,30.23,SW,217,5.0,8.0,47,0.00,,---,0.22,VWS V14.01,2013-02-26 03:49:00,
2013-02-25 20:50:00,21.1,4.0,30.23,WSW,244,8.0,8.0,47,0.00,,---,0.22,VWS V14.01,2013-02-26 03:50:00,
2013-02-25 20:51:00,21.1,4.0,30.23,SW,234,2.0,5.0,47,0.00,,---,0.22,VWS V14.01,2013-02-26 03:51:00,
2013-02-25 20:52:00,21.2,4.1,30.23,South,188,7.0,8.0,47,0.00,,---,0.22,VWS V14.01,2013-02-26 03:52:00,
2013-02-25 20:53:00,21.2,4.1,30.22,South,184,11.0,11.0,47,0.00,,---,0.22,VWS V14.01,2013-02-26 03:53:00,
2013-02-25 20:54:00,21.1,4.0,30.22,South,174,1.0,11.0,47,0.00,,---,0.22,VWS V14.01,2013-02-26 03:54:00,
2013-02-25 20:55:00,21.2,4.1,30.22,SSW,198,11.0,11.0,47,0.00,,---,0.22,VWS V14.01,2013-02-26 03:55:00,
2013-02-25 20:56:00,21.1,4.0,30.22,SSW,212,9.0,10.0,47,0.00,,---,0.22,VWS V14.01,2013-02-26 03:56:00,
2013-02-25 20:57:00,21.1,4.0,30.22,South,170,4.0,9.0,47,0.00,,---,0.22,VWS V14.01,2013-02-26 03:57:00,
2013-02-25 20:58:00,21.1,4.0,30.22,SSW,197,1.0,6.0,47,0.00,,---,0.22,VWS V14.01,2013-02-26 03:58:00,
2013-02-25 20:59:00,21.1,4.0,30.22,SSW,198,3.0,4.0,47,0.00,,---,0.22,VWS V14.01,2013-02-26 03:59:00,
2013-02-25 21:00:00,21.1,4.0,30.22,SSW,198,2.0,2.0,47,0.00,,---,0.22,VWS V14.01,2013-02-26 04:00:00,
2013-02-25 21:01:00,21.1,4.0,30.22,SSW,198,2.0,4.0,47,0.00,,---,0.22,VWS V14.01,2013-02-26 04:01:00,
2013-02-25 21:02:00,21.1,4.0,30.23,SSW,198,2.0,5.0,47,0.00,,---,0.22,VWS V14.01,2013-02-26 04:02:00,
2013-02-25 21:03:00,21.1,4.0,30.22,SW,214,6.0,6.0,47,0.00,,---,0.22,VWS V14.01,2013-02-26 04:03:00,
2013-02-25 21:04:00,21.0,3.9,30.22,SW,215,6.0,7.0,47,0.00,,---,0.22,VWS V14.01,2013-02-26 04:04:00,
2013-02-25 21:05:00,21.1,4.0,30.22,SW,214,6.0,6.0,47,0.00,,---,0.22,VWS V14.01,2013-02-26 04:05:00,
2013-02-25 21:06:00,21.0,3.9,30.22,SSW,192,4.0,7.0,47,0.00,,---,0.22,VWS V14.01,2013-02-26 04:06:00,
2013-02-25 21:07:00,21.0,3.9,30.22,SSW,209,11.0,11.0,47,0.00,,---,0.22,VWS V14.01,2013-02-26 04:07:00,
2013-02-25 21:08:00,20.9,4.3,30.22,SSW,202,5.0,11.0,48,0.00,,---,0.22,VWS V14.01,2013-02-26 04:08:00,
2013-02-25 21:09:00,21.0,4.4,30.23,SW,222,2.0,9.0,48,0.00,,---,0.22,VWS V14.01,2013-02-26 04:09:00,
2013-02-25 21:10:00,21.0,4.4,30.22,SSW,192,8.0,8.0,48,0.00,,---,0.22,VWS V14.01,2013-02-26 04:10:00,
2013-02-25 21:11:00,21.0,4.4,30.22,SW,222,2.0,5.0,48,0.00,,---,0.22,VWS V14.01,2013-02-26 04:11:00,
2013-02-25 21:12:00,21.0,4.4,30.22,SW,219,4.0,5.0,48,0.00,,---,0.22,VWS V14.01,2013-02-26 04:12:00,
2013-02-25 21:13:00,21.0,4.4,30.22,SW,219,0.0,4.0,48,0.00,,---,0.22,VWS V14.01,2013-02-26 04:13:00,
2013-02-25 21:14:00,21.0,4.4,30.22,SW,220,1.0,1.0,48,0.00,,---,0.22,VWS V14.01,2013-02-26 04:14:00,
2013-02-25 21:15:00,21.0,4.4,30.22,SW,219,0.0,0.0,48,0.00,,---,0.22,VWS V14.01,2013-02-26 04:15:00,
2013-02-25 21:16:00,20.9,4.3,30.22,WSW,248,2.0,7.0,48,0.00,,---,0.22,VWS V14.01,2013-02-26 04:16:00,
2013-02-25 21:17:00,20.9,4.8,30.22,WSW,248,1.0,2.0,49,0.00,,---,0.22,VWS V14.01,2013-02-26 04:17:00,
2013-02-25 21:18:00,20.9,4.3,30.22,WSW,248,4.0,4.0,48,0.00,,---,0.22,VWS V14.01,2013-02-26 04:18:00,
2013-02-25 21:19:00,20.9,4.3,30.22,WSW,248,0.0,5.0,48,0.00,,---,0.22,VWS V14.01,2013-02-26 04:19:00,
2013-02-25 21:20:00,20.9,4.3,30.22,WSW,248,4.0,5.0,48,0.00,,---,0.22,VWS V14.01,2013-02-26 04:20:00,
2013-02-25 21:21:00,20.8,4.7,30.22,WSW,248,2.0,3.0,49,0.00,,---,0.22,VWS V14.01,2013-02-26 04:21:00,
2013-02-25 21:22:00,20.8,4.7,30.22,WSW,248,2.0,2.0,49,0.00,,---,0.22,VWS V14.01,2013-02-26 04:22:00,
2013-02-25 21:23:00,20.8,4.7,30.22,WSW,248,1.0,2.0,49,0.00,,---,0.22,VWS V14.01,2013-02-26 04:23:00,
2013-02-25 21:24:00,20.7,4.6,30.21,WSW,248,1.0,4.0,49,0.00,,---,0.22,VWS V14.01,2013-02-26 04:24:00,
2013-02-25 21:25:00,20.8,4.7,30.22,WSW,248,2.0,2.0,49,0.00,,---,0.22,VWS V14.01,2013-02-26 04:25:00,
2013-02-25 21:26:00,20.6,4.5,30.22,WSW,248,4.0,5.0,49,0.00,,---,0.22,VWS V14.01,2013-02-26 04:26:00,
2013-02-25 21:27:00,20.6,4.5,30.21,WSW,248,1.0,4.0,49,0.00,,---,0.22,VWS V14.01,2013-02-26 04:27:00,
2013-02-25 21:28:00,20.6,4.5,30.21,WSW,244,4.0,7.0,49,0.00,,---,0.22,VWS V14.01,2013-02-26 04:28:00,
2013-02-25 21:29:00,20.5,4.4,30.21,WSW,244,3.0,5.0,49,0.00,,---,0.22,VWS V14.01,2013-02-26 04:29:00,
2013-02-25 21:30:00,20.5,4.4,30.21,WSW,243,2.0,5.0,49,0.00,,---,0.22,VWS V14.01,2013-02-26 04:30:00,
2013-02-25 21:31:00,20.4,4.3,30.21,WSW,243,2.0,4.0,49,0.00,,---,0.22,VWS V14.01,2013-02-26 04:31:00,
2013-02-25 21:32:00,20.4,4.3,30.21,WSW,243,1.0,2.0,49,0.00,,---,0.22,VWS V14.01,2013-02-26 04:32:00,
2013-02-25 21:33:00,20.4,4.3,30.21,WSW,243,4.0,4.0,49,0.00,,---,0.22,VWS V14.01,2013-02-26 04:33:00,
2013-02-25 21:34:00,20.3,4.2,30.21,WSW,243,0.0,4.0,49,0.00,,---,0.22,VWS V14.01,2013-02-26 04:34:00,
2013-02-25 21:35:00,20.3,4.2,30.21,WSW,243,2.0,4.0,49,0.00,,---,0.22,VWS V14.01,2013-02-26 04:35:00,
2013-02-25 21:36:00,20.3,4.2,30.21,WSW,243,0.0,2.0,49,0.00,,---,0.22,VWS V14.01,2013-02-26 04:36:00,
2013-02-25 21:37:00,20.3,4.6,30.21,WSW,243,3.0,4.0,50,0.00,,---,0.22,VWS V14.01,2013-02-26 04:37:00,
2013-02-25 21:38:00,20.2,4.6,30.20,WSW,244,2.0,4.0,50,0.00,,---,0.22,VWS V14.01,2013-02-26 04:38:00,
2013-02-25 21:39:00,20.2,4.6,30.20,WSW,246,3.0,6.0,50,0.00,,---,0.22,VWS V14.01,2013-02-26 04:39:00,
2013-02-25 21:40:00,20.2,4.6,30.20,WSW,245,5.0,5.0,50,0.00,,---,0.22,VWS V14.01,2013-02-26 04:40:00,
2013-02-25 21:41:00,20.2,4.6,30.20,West,275,5.0,6.0,50,0.00,,---,0.22,VWS V14.01,2013-02-26 04:41:00,
2013-02-25 21:42:00,20.2,4.6,30.20,WNW,294,2.0,6.0,50,0.00,,---,0.22,VWS V14.01,2013-02-26 04:42:00,
2013-02-25 21:43:00,20.2,4.6,30.20,West,269,5.0,7.0,50,0.00,,---,0.22,VWS V14.01,2013-02-26 04:43:00,
2013-02-25 21:44:00,20.2,4.6,30.20,WNW,288,3.0,5.0,50,0.00,,---,0.22,VWS V14.01,2013-02-26 04:44:00,
2013-02-25 21:45:00,20.2,4.6,30.20,WNW,288,2.0,5.0,50,0.00,,---,0.22,VWS V14.01,2013-02-26 04:45:00,
2013-02-25 21:46:00,20.3,4.6,30.20,WNW,284,1.0,4.0,50,0.00,,---,0.22,VWS V14.01,2013-02-26 04:46:00,
2013-02-25 21:47:00,20.3,4.6,30.20,WNW,284,0.0,2.0,50,0.00,,---,0.22,VWS V14.01,2013-02-26 04:47:00,
2013-02-25 21:48:00,20.3,4.6,30.20,WNW,284,0.0,1.0,50,0.00,,---,0.22,VWS V14.01,2013-02-26 04:48:00,
2013-02-25 21:49:00,20.3,4.6,30.20,WNW,284,0.0,0.0,50,0.00,,---,0.22,VWS V14.01,2013-02-26 04:49:00,
2013-02-25 21:50:00,20.3,4.6,30.20,WNW,284,0.0,0.0,50,0.00,,---,0.22,VWS V14.01,2013-02-26 04:50:00,
2013-02-25 21:51:00,20.2,4.6,30.20,West,281,1.0,2.0,50,0.00,,---,0.22,VWS V14.01,2013-02-26 04:51:00,
2013-02-25 21:52:00,20.2,4.6,30.20,West,269,2.0,4.0,50,0.00,,---,0.22,VWS V14.01,2013-02-26 04:52:00,
2013-02-25 21:53:00,20.2,4.6,30.20,West,269,0.0,2.0,50,0.00,,---,0.22,VWS V14.01,2013-02-26 04:53:00,
2013-02-25 21:54:00,20.2,4.6,30.20,SW,227,5.0,6.0,50,0.00,,---,0.22,VWS V14.01,2013-02-26 04:54:00,
2013-02-25 21:55:00,20.2,4.6,30.20,SW,228,5.0,5.0,50,0.00,,---,0.22,VWS V14.01,2013-02-26 04:55:00,
2013-02-25 21:56:00,20.2,4.6,30.19,SW,227,0.0,4.0,50,0.00,,---,0.22,VWS V14.01,2013-02-26 04:56:00,
2013-02-25 21:57:00,20.2,4.6,30.19,SW,219,5.0,6.0,50,0.00,,---,0.22,VWS V14.01,2013-02-26 04:57:00,
2013-02-25 21:58:00,20.2,4.6,30.19,SW,219,0.0,5.0,50,0.00,,---,0.22,VWS V14.01,2013-02-26 04:58:00,
2013-02-25 21:59:00,20.2,4.6,30.19,SW,219,2.0,2.0,50,0.00,,---,0.22,VWS V14.01,2013-02-26 04:59:00,
2013-02-25 22:00:00,20.2,4.6,30.19,SW,219,0.0,5.0,50,0.00,,---,0.22,VWS V14.01,2013-02-26 05:00:00,
2013-02-25 22:01:00,20.2,4.6,30.19,SW,219,5.0,5.0,50,0.00,,---,0.22,VWS V14.01,2013-02-26 05:01:00,
2013-02-25 22:02:00,20.2,4.6,30.19,SW,229,4.0,5.0,50,0.00,,---,0.22,VWS V14.01,2013-02-26 05:02:00,
2013-02-25 22:03:00,20.2,4.6,30.19,WSW,253,5.0,8.0,50,0.00,,---,0.22,VWS V14.01,2013-02-26 05:03:00,
2013-02-25 22:04:00,20.3,4.6,30.19,WSW,240,3.0,6.0,50,0.00,,---,0.22,VWS V14.01,2013-02-26 05:04:00,
2013-02-25 22:05:00,20.3,4.6,30.19,SW,215,1.0,7.0,50,0.00,,---,0.22,VWS V14.01,2013-02-26 05:05:00,
2013-02-25 22:06:00,20.3,4.6,30.19,SW,215,5.0,7.0,50,0.00,,---,0.22,VWS V14.01,2013-02-26 05:06:00,
2013-02-25 22:07:00,20.3,4.6,30.18,West,280,7.0,7.0,50,0.00,,---,0.22,VWS V14.01,2013-02-26 05:07:00,
2013-02-25 22:08:00,20.3,4.6,30.18,WNW,288,7.0,8.0,50,0.00,,---,0.22,VWS V14.01,2013-02-26 05:08:00,
2013-02-25 22:09:00,20.3,4.6,30.19,WNW,287,5.0,7.0,50,0.00,,---,0.22,VWS V14.01,2013-02-26 05:09:00,
2013-02-25 22:10:00,20.3,4.6,30.18,West,275,0.0,7.0,50,0.00,,---,0.22,VWS V14.01,2013-02-26 05:10:00,
2013-02-25 22:11:00,20.3,4.6,30.19,West,275,3.0,7.0,50,0.00,,---,0.22,VWS V14.01,2013-02-26 05:11:00,
2013-02-25 22:12:00,20.3,4.6,30.18,WSW,240,1.0,5.0,50,0.00,,---,0.22,VWS V14.01,2013-02-26 05:12:00,
2013-02-25 22:13:00,20.3,4.6,30.18,WSW,240,0.0,1.0,50,0.00,,---,0.22,VWS V14.01,2013-02-26 05:13:00,
2013-02-25 22:14:00,20.3,4.6,30.18,WSW,240,2.0,3.0,50,0.00,,---,0.22,VWS V14.01,2013-02-26 05:14:00,
2013-02-25 22:15:00,20.3,4.6,30.18,WSW,240,2.0,4.0,50,0.00,,---,0.22,VWS V14.01,2013-02-26 05:15:00,
2013-02-25 22:16:00,20.3,4.6,30.18,WSW,240,3.0,4.0,50,0.00,,---,0.22,VWS V14.01,2013-02-26 05:16:00,
2013-02-25 22:17:00,20.3,4.6,30.18,WSW,257,6.0,6.0,50,0.00,,---,0.22,VWS V14.01,2013-02-26 05:17:00,
2013-02-25 22:18:00,20.2,4.6,30.18,West,279,7.0,7.0,50,0.00,,---,0.22,VWS V14.01,2013-02-26 05:18:00,
2013-02-25 22:19:00,20.2,4.6,30.18,West,279,5.0,7.0,50,0.00,,---,0.22,VWS V14.01,2013-02-26 05:19:00,
2013-02-25 22:20:00,20.2,4.6,30.18,WNW,288,6.0,6.0,50,0.00,,---,0.22,VWS V14.01,2013-02-26 05:20:00,
2013-02-25 22:21:00,20.2,4.6,30.18,WNW,282,6.0,6.0,50,0.00,,---,0.22,VWS V14.01,2013-02-26 05:21:00,
2013-02-25 22:22:00,20.1,4.5,30.18,WNW,289,6.0,7.0,50,0.00,,---,0.22,VWS V14.01,2013-02-26 05:22:00,
2013-02-25 22:23:00,20.1,4.5,30.18,WNW,290,7.0,7.0,50,0.00,,---,0.22,VWS V14.01,2013-02-26 05:23:00,
2013-02-25 22:24:00,20.1,4.5,30.17,WNW,284,6.0,7.0,50,0.00,,---,0.22,VWS V14.01,2013-02-26 05:24:00,
2013-02-25 22:25:00,20.1,4.5,30.17,West,274,5.0,7.0,50,0.00,,---,0.22,VWS V14.01,2013-02-26 05:25:00,
2013-02-25 22:26:00,20.1,4.5,30.17,West,273,6.0,7.0,50,0.00,,---,0.22,VWS V14.01,2013-02-26 05:26:00,
2013-02-25 22:27:00,20.2,4.6,30.17,West,269,5.0,5.0,50,0.00,,---,0.22,VWS V14.01,2013-02-26 05:27:00,
2013-02-25 22:28:00,20.2,4.6,30.18,West,270,4.0,6.0,50,0.00,,---,0.22,VWS V14.01,2013-02-26 05:28:00,
2013-02-25 22:29:00,20.2,4.6,30.17,West,270,3.0,5.0,50,0.00,,---,0.22,VWS V14.01,2013-02-26 05:29:00,
2013-02-25 22:30:00,20.3,4.6,30.17,West,270,3.0,5.0,50,0.00,,---,0.22,VWS V14.01,2013-02-26 05:30:00,
2013-02-25 22:31:00,20.3,4.6,30.17,WSW,248,4.0,6.0,50,0.00,,---,0.22,VWS V14.01,2013-02-26 05:31:00,
2013-02-25 22:32:00,20.3,4.6,30.17,WSW,248,2.0,3.0,50,0.00,,---,0.22,VWS V14.01,2013-02-26 05:32:00,
2013-02-25 22:33:00,20.3,4.6,30.17,WSW,248,1.0,2.0,50,0.00,,---,0.22,VWS V14.01,2013-02-26 05:33:00,
2013-02-25 22:34:00,20.3,4.6,30.17,WSW,248,1.0,2.0,50,0.00,,---,0.22,VWS V14.01,2013-02-26 05:34:00,
2013-02-25 22:35:00,20.4,4.7,30.17,WSW,248,3.0,5.0,50,0.00,,---,0.22,VWS V14.01,2013-02-26 05:35:00,
2013-02-25 22:36:00,20.4,4.7,30.17,WSW,248,4.0,6.0,50,0.00,,---,0.22,VWS V14.01,2013-02-26 05:36:00,
2013-02-25 22:37:00,20.4,4.7,30.17,WSW,248,4.0,5.0,50,0.00,,---,0.22,VWS V14.01,2013-02-26 05:37:00,
2013-02-25 22:38:00,20.4,4.7,30.17,WSW,248,5.0,5.0,50,0.00,,---,0.22,VWS V14.01,2013-02-26 05:38:00,
2013-02-25 22:39:00,20.4,4.7,30.17,WSW,248,4.0,5.0,50,0.00,,---,0.22,VWS V14.01,2013-02-26 05:39:00,
2013-02-25 22:40:00,20.5,4.8,30.17,WSW,248,4.0,5.0,50,0.00,,---,0.22,VWS V14.01,2013-02-26 05:40:00,
2013-02-25 22:41:00,20.5,4.4,30.17,WSW,248,4.0,5.0,49,0.00,,---,0.22,VWS V14.01,2013-02-26 05:41:00,
2013-02-25 22:42:00,20.5,4.4,30.17,WSW,248,2.0,4.0,49,0.00,,---,0.22,VWS V14.01,2013-02-26 05:42:00,
2013-02-25 22:43:00,20.5,4.4,30.17,WSW,248,2.0,4.0,49,0.00,,---,0.22,VWS V14.01,2013-02-26 05:43:00,
2013-02-25 22:44:00,20.5,4.4,30.17,WSW,248,2.0,4.0,49,0.00,,---,0.22,VWS V14.01,2013-02-26 05:44:00,
2013-02-25 22:45:00,20.5,4.8,30.17,WSW,248,4.0,5.0,50,0.00,,---,0.22,VWS V14.01,2013-02-26 05:45:00,
2013-02-25 22:46:00,20.5,4.4,30.17,WSW,248,4.0,5.0,49,0.00,,---,0.22,VWS V14.01,2013-02-26 05:46:00,
2013-02-25 22:47:00,20.5,4.4,30.17,WSW,248,2.0,4.0,49,0.00,,---,0.22,VWS V14.01,2013-02-26 05:47:00,
2013-02-25 22:48:00,20.5,4.4,30.17,WSW,248,1.0,1.0,49,0.00,,---,0.22,VWS V14.01,2013-02-26 05:48:00,
2013-02-25 22:49:00,20.5,4.4,30.16,WSW,248,1.0,4.0,49,0.00,,---,0.22,VWS V14.01,2013-02-26 05:49:00,
2013-02-25 22:50:00,20.6,4.5,30.16,WSW,248,3.0,5.0,49,0.00,,---,0.22,VWS V14.01,2013-02-26 05:50:00,
2013-02-25 22:51:00,20.6,4.5,30.17,WSW,248,2.0,4.0,49,0.00,,---,0.22,VWS V14.01,2013-02-26 05:51:00,
2013-02-25 22:52:00,20.6,4.5,30.17,WSW,248,0.0,2.0,49,0.00,,---,0.22,VWS V14.01,2013-02-26 05:52:00,
2013-02-25 22:53:00,20.6,4.5,30.16,WSW,248,0.0,1.0,49,0.00,,---,0.22,VWS V14.01,2013-02-26 05:53:00,
2013-02-25 22:54:00,20.6,4.5,30.16,WSW,248,0.0,2.0,49,0.00,,---,0.22,VWS V14.01,2013-02-26 05:54:00,
2013-02-25 22:55:00,20.6,4.5,30.16,WSW,248,0.0,1.0,49,0.00,,---,0.22,VWS V14.01,2013-02-26 05:55:00,
2013-02-25 22:56:00,20.6,4.5,30.16,WSW,248,1.0,4.0,49,0.00,,---,0.22,VWS V14.01,2013-02-26 05:56:00,
2013-02-25 22:57:00,20.6,4.5,30.16,WSW,248,2.0,4.0,49,0.00,,---,0.22,VWS V14.01,2013-02-26 05:57:00,
2013-02-25 22:58:00,20.5,4.4,30.16,WSW,248,2.0,4.0,49,0.00,,---,0.22,VWS V14.01,2013-02-26 05:58:00,
2013-02-25 22:59:00,20.5,4.4,30.16,WSW,248,2.0,4.0,49,0.00,,---,0.22,VWS V14.01,2013-02-26 05:59:00,
2013-02-25 23:00:00,20.5,4.4,30.16,WSW,248,4.0,5.0,49,0.00,,---,0.22,VWS V14.01,2013-02-26 06:00:00,
2013-02-25 23:01:00,20.6,4.5,30.16,WSW,248,1.0,3.0,49,0.00,,---,0.22,VWS V14.01,2013-02-26 06:01:00,
2013-02-25 23:02:00,20.6,4.5,30.16,WSW,248,1.0,4.0,49,0.00,,---,0.22,VWS V14.01,2013-02-26 06:02:00,
2013-02-25 23:03:00,20.6,4.5,30.16,WSW,248,2.0,4.0,49,0.00,,---,0.22,VWS V14.01,2013-02-26 06:03:00,
2013-02-25 23:04:00,20.6,4.5,30.16,WSW,248,2.0,4.0,49,0.00,,---,0.22,VWS V14.01,2013-02-26 06:04:00,
2013-02-25 23:05:00,20.7,4.6,30.16,WSW,248,0.0,1.0,49,0.00,,---,0.22,VWS V14.01,2013-02-26 06:05:00,
2013-02-25 23:06:00,20.7,4.6,30.16,SW,225,3.0,5.0,49,0.00,,---,0.22,VWS V14.01,2013-02-26 06:06:00,
2013-02-25 23:07:00,20.7,4.6,30.16,SW,225,2.0,4.0,49,0.00,,---,0.22,VWS V14.01,2013-02-26 06:07:00,
2013-02-25 23:08:00,20.7,4.6,30.16,SW,225,1.0,2.0,49,0.00,,---,0.22,VWS V14.01,2013-02-26 06:08:00,
2013-02-25 23:09:00,20.8,4.7,30.16,SW,225,1.0,2.0,49,0.00,,---,0.22,VWS V14.01,2013-02-26 06:09:00,
2013-02-25 23:10:00,20.8,4.7,30.15,SW,225,2.0,6.0,49,0.00,,---,0.22,VWS V14.01,2013-02-26 06:10:00,
2013-02-25 23:11:00,20.8,4.7,30.16,WSW,248,3.0,5.0,49,0.00,,---,0.22,VWS V14.01,2013-02-26 06:11:00,
2013-02-25 23:12:00,20.9,4.3,30.16,WSW,248,2.0,5.0,48,0.00,,---,0.22,VWS V14.01,2013-02-26 06:12:00,
2013-02-25 23:13:00,20.9,4.3,30.16,WSW,248,1.0,3.0,48,0.00,,---,0.22,VWS V14.01,2013-02-26 06:13:00,
2013-02-25 23:14:00,20.9,4.3,30.16,WSW,248,4.0,6.0,48,0.00,,---,0.22,VWS V14.01,2013-02-26 06:14:00,
2013-02-25 23:15:00,20.9,4.3,30.15,West,270,5.0,6.0,48,0.00,,---,0.22,VWS V14.01,2013-02-26 06:15:00,
2013-02-25 23:16:00,20.9,4.3,30.16,West,270,5.0,7.0,48,0.00,,---,0.22,VWS V14.01,2013-02-26 06:16:00,
2013-02-25 23:17:00,21.0,4.4,30.15,WSW,248,4.0,5.0,48,0.00,,---,0.22,VWS V14.01,2013-02-26 06:17:00,
2013-02-25 23:18:00,21.0,4.4,30.15,WSW,248,2.0,5.0,48,0.00,,---,0.22,VWS V14.01,2013-02-26 06:18:00,
2013-02-25 23:19:00,21.0,4.4,30.15,WSW,248,2.0,3.0,48,0.00,,---,0.22,VWS V14.01,2013-02-26 06:19:00,
2013-02-25 23:20:00,21.1,4.5,30.15,WSW,248,1.0,4.0,48,0.00,,---,0.22,VWS V14.01,2013-02-26 06:20:00,
2013-02-25 23:21:00,21.1,4.5,30.15,WSW,248,2.0,4.0,48,0.00,,---,0.22,VWS V14.01,2013-02-26 06:21:00,
2013-02-25 23:22:00,21.1,4.5,30.15,WSW,248,3.0,4.0,48,0.00,,---,0.22,VWS V14.01,2013-02-26 06:22:00,
2013-02-25 23:23:00,21.1,4.5,30.15,WSW,248,1.0,2.0,48,0.00,,---,0.22,VWS V14.01,2013-02-26 06:23:00,
2013-02-25 23:24:00,21.1,4.5,30.15,WSW,248,0.0,1.0,48,0.00,,---,0.22,VWS V14.01,2013-02-26 06:24:00,
2013-02-25 23:25:00,21.1,4.9,30.15,WSW,248,1.0,2.0,49,0.00,,---,0.22,VWS V14.01,2013-02-26 06:25:00,
2013-02-25 23:26:00,21.1,4.5,30.15,WSW,248,1.0,2.0,48,0.00,,---,0.22,VWS V14.01,2013-02-26 06:26:00,
2013-02-25 23:27:00,21.0,4.4,30.15,WSW,248,0.0,0.0,48,0.00,,---,0.22,VWS V14.01,2013-02-26 06:27:00,
2013-02-25 23:28:00,21.0,4.4,30.14,WSW,248,0.0,1.0,48,0.00,,---,0.22,VWS V14.01,2013-02-26 06:28:00,
2013-02-25 23:29:00,20.9,4.3,30.15,WSW,248,0.0,0.0,48,0.00,,---,0.22,VWS V14.01,2013-02-26 06:29:00,
2013-02-25 23:30:00,20.9,4.3,30.15,WSW,248,0.0,0.0,48,0.00,,---,0.22,VWS V14.01,2013-02-26 06:30:00,
2013-02-25 23:31:00,20.8,4.7,30.14,WSW,248,0.0,0.0,49,0.00,,---,0.22,VWS V14.01,2013-02-26 06:31:00,
2013-02-25 23:32:00,20.7,4.6,30.14,WSW,248,0.0,0.0,49,0.00,,---,0.22,VWS V14.01,2013-02-26 06:32:00,
2013-02-25 23:33:00,20.7,4.6,30.14,WSW,248,0.0,1.0,49,0.00,,---,0.22,VWS V14.01,2013-02-26 06:33:00,
2013-02-25 23:34:00,20.6,4.5,30.14,WSW,248,0.0,0.0,49,0.00,,---,0.22,VWS V14.01,2013-02-26 06:34:00,
2013-02-25 23:35:00,20.5,4.4,30.14,WSW,248,0.0,0.0,49,0.00,,---,0.22,VWS V14.01,2013-02-26 06:35:00,
2013-02-25 23:36:00,20.4,4.7,30.14,WSW,248,0.0,0.0,50,0.00,,---,0.22,VWS V14.01,2013-02-26 06:36:00,
2013-02-25 23:37:00,20.3,4.6,30.14,WSW,248,0.0,1.0,50,0.00,,---,0.22,VWS V14.01,2013-02-26 06:37:00,
2013-02-25 23:38:00,20.2,4.6,30.14,WSW,248,2.0,4.0,50,0.00,,---,0.22,VWS V14.01,2013-02-26 06:38:00,
2013-02-25 23:39:00,20.2,4.6,30.14,WSW,248,1.0,3.0,50,0.00,,---,0.22,VWS V14.01,2013-02-26 06:39:00,
2013-02-25 23:40:00,20.1,4.5,30.14,WSW,248,0.0,1.0,50,0.00,,---,0.22,VWS V14.01,2013-02-26 06:40:00,
2013-02-25 23:41:00,20.1,4.5,30.14,WSW,248,0.0,1.0,50,0.00,,---,0.22,VWS V14.01,2013-02-26 06:41:00,
2013-02-25 23:42:00,20.1,4.5,30.14,WSW,248,0.0,0.0,50,0.00,,---,0.22,VWS V14.01,2013-02-26 06:42:00,
2013-02-25 23:43:00,20.0,4.4,30.14,WSW,248,2.0,4.0,50,0.00,,---,0.22,VWS V14.01,2013-02-26 06:43:00,
2013-02-25 23:44:00,20.0,4.4,30.14,WSW,248,1.0,4.0,50,0.00,,---,0.22,VWS V14.01,2013-02-26 06:44:00,
2013-02-25 23:45:00,20.0,4.4,30.14,WSW,248,0.0,0.0,50,0.00,,---,0.22,VWS V14.01,2013-02-26 06:45:00,
2013-02-25 23:46:00,20.0,4.4,30.14,WSW,248,0.0,0.0,50,0.00,,---,0.22,VWS V14.01,2013-02-26 06:46:00,
2013-02-25 23:47:00,20.0,4.8,30.14,WSW,248,0.0,1.0,51,0.00,,---,0.22,VWS V14.01,2013-02-26 06:47:00,
2013-02-25 23:48:00,20.0,4.8,30.13,WSW,248,0.0,1.0,51,0.00,,---,0.22,VWS V14.01,2013-02-26 06:48:00,
2013-02-25 23:49:00,20.0,4.8,30.13,WSW,248,0.0,0.0,51,0.00,,---,0.22,VWS V14.01,2013-02-26 06:49:00,
2013-02-25 23:50:00,20.0,4.8,30.13,WSW,248,0.0,0.0,51,0.00,,---,0.22,VWS V14.01,2013-02-26 06:50:00,
2013-02-25 23:51:00,20.1,4.9,30.13,WSW,248,0.0,0.0,51,0.00,,---,0.22,VWS V14.01,2013-02-26 06:51:00,
2013-02-25 23:52:00,20.1,4.9,30.13,WSW,248,0.0,1.0,51,0.00,,---,0.22,VWS V14.01,2013-02-26 06:52:00,
2013-02-25 23:53:00,20.1,4.9,30.13,WSW,248,0.0,0.0,51,0.00,,---,0.22,VWS V14.01,2013-02-26 06:53:00,
2013-02-25 23:54:00,20.1,4.9,30.13,WSW,248,0.0,0.0,51,0.00,,---,0.22,VWS V14.01,2013-02-26 06:54:00,
2013-02-25 23:55:00,20.0,4.8,30.13,WSW,248,0.0,0.0,51,0.00,,---,0.22,VWS V14.01,2013-02-26 06:55:00,
2013-02-25 23:56:00,20.0,4.8,30.13,WSW,248,1.0,2.0,51,0.00,,---,0.22,VWS V14.01,2013-02-26 06:56:00,
2013-02-25 23:57:00,20.0,4.8,30.13,WSW,248,0.0,0.0,51,0.00,,---,0.22,VWS V14.01,2013-02-26 06:57:00,
2013-02-25 23:58:00,20.0,4.8,30.13,WSW,248,0.0,0.0,51,0.00,,---,0.22,VWS V14.01,2013-02-26 06:58:00,
2013-02-25 23:59:00,20.0,4.8,30.13,WSW,248,0.0,1.0,51,0.00,,---,0.22,VWS V14.01,2013-02-26 06:59:00,